<?xml version="1.0" encoding="UTF-8" standalone="no" ?>
<gpx xmlns="http://www.topografix.com/GPX/1/1" xmlns:xsi="http://www.w3.org/2001/XMLSchema-instance" xsi:schemaLocation="http://www.topografix.com/GPX/1/1 http://www.topografix.com/GPX/1/1/gpx.xsd" version="1.1" creator="VisuGPX - https://www.visugpx.com">
  <metadata>
    <name>54- Bruyères</name>
    <desc><![CDATA[Rando autour de Bruyères en passant par 5 collines : L'Avison et sa tour, Pointhaie, Roches de Fouchon, Buermont, la montagne des fourmis géantes. Brume et bruine pour nous accompagner.(17,5 km 12 participants)]]></desc>
  </metadata>
  <trk>
    <name><![CDATA[54- Bruyères]]></name>
    <trkseg>
      <trkpt lat="48.20877" lon="6.72291">
        <ele>538.96</ele>
        <time>2019-04-10T07:25:28Z</time>
      </trkpt>
      <trkpt lat="48.20877" lon="6.72291">
        <ele>538.96</ele>
        <time>2019-04-10T07:25:29Z</time>
      </trkpt>
      <trkpt lat="48.20877" lon="6.72291">
        <ele>526.46</ele>
        <time>2019-04-10T07:25:32Z</time>
      </trkpt>
      <trkpt lat="48.20876" lon="6.72291">
        <ele>526.94</ele>
        <time>2019-04-10T07:25:33Z</time>
      </trkpt>
      <trkpt lat="48.20874" lon="6.72304">
        <ele>526.94</ele>
        <time>2019-04-10T07:26:01Z</time>
      </trkpt>
      <trkpt lat="48.20873" lon="6.72308">
        <ele>526.94</ele>
        <time>2019-04-10T07:26:33Z</time>
      </trkpt>
      <trkpt lat="48.20873" lon="6.72308">
        <ele>525.98</ele>
        <time>2019-04-10T07:26:52Z</time>
      </trkpt>
      <trkpt lat="48.20877" lon="6.7231">
        <ele>525.5</ele>
        <time>2019-04-10T07:27:18Z</time>
      </trkpt>
      <trkpt lat="48.20876" lon="6.72305">
        <ele>524.06</ele>
        <time>2019-04-10T07:27:28Z</time>
      </trkpt>
      <trkpt lat="48.20876" lon="6.72308">
        <ele>524.06</ele>
        <time>2019-04-10T07:27:53Z</time>
      </trkpt>
      <trkpt lat="48.20878" lon="6.72308">
        <ele>524.06</ele>
        <time>2019-04-10T07:28:14Z</time>
      </trkpt>
      <trkpt lat="48.20875" lon="6.72302">
        <ele>523.09</ele>
        <time>2019-04-10T07:28:37Z</time>
      </trkpt>
      <trkpt lat="48.20877" lon="6.72305">
        <ele>523.09</ele>
        <time>2019-04-10T07:28:57Z</time>
      </trkpt>
      <trkpt lat="48.20881" lon="6.72309">
        <ele>522.61</ele>
        <time>2019-04-10T07:29:24Z</time>
      </trkpt>
      <trkpt lat="48.20882" lon="6.72308">
        <ele>522.13</ele>
        <time>2019-04-10T07:29:44Z</time>
      </trkpt>
      <trkpt lat="48.20871" lon="6.72305">
        <ele>521.65</ele>
        <time>2019-04-10T07:30:09Z</time>
      </trkpt>
      <trkpt lat="48.20876" lon="6.72309">
        <ele>521.17</ele>
        <time>2019-04-10T07:30:31Z</time>
      </trkpt>
      <trkpt lat="48.2088" lon="6.72323">
        <ele>520.69</ele>
        <time>2019-04-10T07:30:55Z</time>
      </trkpt>
      <trkpt lat="48.20883" lon="6.72341">
        <ele>520.21</ele>
        <time>2019-04-10T07:31:13Z</time>
      </trkpt>
      <trkpt lat="48.20868" lon="6.72363">
        <ele>520.21</ele>
        <time>2019-04-10T07:31:31Z</time>
      </trkpt>
      <trkpt lat="48.20859" lon="6.72366">
        <ele>518.77</ele>
        <time>2019-04-10T07:31:39Z</time>
      </trkpt>
      <trkpt lat="48.20846" lon="6.72391">
        <ele>516.85</ele>
        <time>2019-04-10T07:32:00Z</time>
      </trkpt>
      <trkpt lat="48.20862" lon="6.72416">
        <ele>514.92</ele>
        <time>2019-04-10T07:32:21Z</time>
      </trkpt>
      <trkpt lat="48.20863" lon="6.72457">
        <ele>513.48</ele>
        <time>2019-04-10T07:32:41Z</time>
      </trkpt>
      <trkpt lat="48.20864" lon="6.72461">
        <ele>513.48</ele>
        <time>2019-04-10T07:32:44Z</time>
      </trkpt>
      <trkpt lat="48.20867" lon="6.72496">
        <ele>512.04</ele>
        <time>2019-04-10T07:33:04Z</time>
      </trkpt>
      <trkpt lat="48.20883" lon="6.72525">
        <ele>509.64</ele>
        <time>2019-04-10T07:33:26Z</time>
      </trkpt>
      <trkpt lat="48.2089" lon="6.72566">
        <ele>508.67</ele>
        <time>2019-04-10T07:33:48Z</time>
      </trkpt>
      <trkpt lat="48.20896" lon="6.72605">
        <ele>508.19</ele>
        <time>2019-04-10T07:34:11Z</time>
      </trkpt>
      <trkpt lat="48.2091" lon="6.72641">
        <ele>507.71</ele>
        <time>2019-04-10T07:34:32Z</time>
      </trkpt>
      <trkpt lat="48.20912" lon="6.72654">
        <ele>508.67</ele>
        <time>2019-04-10T07:34:42Z</time>
      </trkpt>
      <trkpt lat="48.20907" lon="6.72668">
        <ele>508.19</ele>
        <time>2019-04-10T07:35:01Z</time>
      </trkpt>
      <trkpt lat="48.20905" lon="6.72669">
        <ele>507.71</ele>
        <time>2019-04-10T07:35:30Z</time>
      </trkpt>
      <trkpt lat="48.20889" lon="6.72667">
        <ele>507.71</ele>
        <time>2019-04-10T07:35:52Z</time>
      </trkpt>
      <trkpt lat="48.20885" lon="6.72669">
        <ele>508.67</ele>
        <time>2019-04-10T07:35:56Z</time>
      </trkpt>
      <trkpt lat="48.20864" lon="6.72679">
        <ele>509.16</ele>
        <time>2019-04-10T07:36:15Z</time>
      </trkpt>
      <trkpt lat="48.20858" lon="6.72679">
        <ele>511.56</ele>
        <time>2019-04-10T07:36:21Z</time>
      </trkpt>
      <trkpt lat="48.20838" lon="6.72692">
        <ele>513</ele>
        <time>2019-04-10T07:36:39Z</time>
      </trkpt>
      <trkpt lat="48.20834" lon="6.72698">
        <ele>512.04</ele>
        <time>2019-04-10T07:36:44Z</time>
      </trkpt>
      <trkpt lat="48.20826" lon="6.7271">
        <ele>516.85</ele>
        <time>2019-04-10T07:36:54Z</time>
      </trkpt>
      <trkpt lat="48.20828" lon="6.72714">
        <ele>514.44</ele>
        <time>2019-04-10T07:36:57Z</time>
      </trkpt>
      <trkpt lat="48.2083" lon="6.72722">
        <ele>516.37</ele>
        <time>2019-04-10T07:37:02Z</time>
      </trkpt>
      <trkpt lat="48.2083" lon="6.72727">
        <ele>518.29</ele>
        <time>2019-04-10T07:37:06Z</time>
      </trkpt>
      <trkpt lat="48.2083" lon="6.72737">
        <ele>519.25</ele>
        <time>2019-04-10T07:37:14Z</time>
      </trkpt>
      <trkpt lat="48.20826" lon="6.72753">
        <ele>523.09</ele>
        <time>2019-04-10T07:37:24Z</time>
      </trkpt>
      <trkpt lat="48.20825" lon="6.7276">
        <ele>522.61</ele>
        <time>2019-04-10T07:37:30Z</time>
      </trkpt>
      <trkpt lat="48.20825" lon="6.72761">
        <ele>525.98</ele>
        <time>2019-04-10T07:37:31Z</time>
      </trkpt>
      <trkpt lat="48.20825" lon="6.72763">
        <ele>522.61</ele>
        <time>2019-04-10T07:37:33Z</time>
      </trkpt>
      <trkpt lat="48.20826" lon="6.72763">
        <ele>522.61</ele>
        <time>2019-04-10T07:37:34Z</time>
      </trkpt>
      <trkpt lat="48.20826" lon="6.72765">
        <ele>525.5</ele>
        <time>2019-04-10T07:37:36Z</time>
      </trkpt>
      <trkpt lat="48.20824" lon="6.72773">
        <ele>526.94</ele>
        <time>2019-04-10T07:37:44Z</time>
      </trkpt>
      <trkpt lat="48.20823" lon="6.72775">
        <ele>525.5</ele>
        <time>2019-04-10T07:37:47Z</time>
      </trkpt>
      <trkpt lat="48.20821" lon="6.72777">
        <ele>526.46</ele>
        <time>2019-04-10T07:37:49Z</time>
      </trkpt>
      <trkpt lat="48.20819" lon="6.72781">
        <ele>527.9</ele>
        <time>2019-04-10T07:37:53Z</time>
      </trkpt>
      <trkpt lat="48.20816" lon="6.72791">
        <ele>530.3</ele>
        <time>2019-04-10T07:38:08Z</time>
      </trkpt>
      <trkpt lat="48.20821" lon="6.72793">
        <ele>528.38</ele>
        <time>2019-04-10T07:38:31Z</time>
      </trkpt>
      <trkpt lat="48.20824" lon="6.72792">
        <ele>529.82</ele>
        <time>2019-04-10T07:38:44Z</time>
      </trkpt>
      <trkpt lat="48.20837" lon="6.72788">
        <ele>531.27</ele>
        <time>2019-04-10T07:39:10Z</time>
      </trkpt>
      <trkpt lat="48.20846" lon="6.72786">
        <ele>531.75</ele>
        <time>2019-04-10T07:39:16Z</time>
      </trkpt>
      <trkpt lat="48.2087" lon="6.72774">
        <ele>532.71</ele>
        <time>2019-04-10T07:39:38Z</time>
      </trkpt>
      <trkpt lat="48.20889" lon="6.72763">
        <ele>533.67</ele>
        <time>2019-04-10T07:39:56Z</time>
      </trkpt>
      <trkpt lat="48.20909" lon="6.72738">
        <ele>535.59</ele>
        <time>2019-04-10T07:40:19Z</time>
      </trkpt>
      <trkpt lat="48.20913" lon="6.72732">
        <ele>536.07</ele>
        <time>2019-04-10T07:40:29Z</time>
      </trkpt>
      <trkpt lat="48.20925" lon="6.72715">
        <ele>536.07</ele>
        <time>2019-04-10T07:40:54Z</time>
      </trkpt>
      <trkpt lat="48.20929" lon="6.72715">
        <ele>537.51</ele>
        <time>2019-04-10T07:40:57Z</time>
      </trkpt>
      <trkpt lat="48.20958" lon="6.72736">
        <ele>537.51</ele>
        <time>2019-04-10T07:41:21Z</time>
      </trkpt>
      <trkpt lat="48.20962" lon="6.72735">
        <ele>538.96</ele>
        <time>2019-04-10T07:41:27Z</time>
      </trkpt>
      <trkpt lat="48.20982" lon="6.72742">
        <ele>540.4</ele>
        <time>2019-04-10T07:41:44Z</time>
      </trkpt>
      <trkpt lat="48.21007" lon="6.72748">
        <ele>541.84</ele>
        <time>2019-04-10T07:42:01Z</time>
      </trkpt>
      <trkpt lat="48.2103" lon="6.7277">
        <ele>543.28</ele>
        <time>2019-04-10T07:42:24Z</time>
      </trkpt>
      <trkpt lat="48.21046" lon="6.72794">
        <ele>543.76</ele>
        <time>2019-04-10T07:42:47Z</time>
      </trkpt>
      <trkpt lat="48.21047" lon="6.72794">
        <ele>543.76</ele>
        <time>2019-04-10T07:42:48Z</time>
      </trkpt>
      <trkpt lat="48.21066" lon="6.72824">
        <ele>546.65</ele>
        <time>2019-04-10T07:43:12Z</time>
      </trkpt>
      <trkpt lat="48.21081" lon="6.72852">
        <ele>548.57</ele>
        <time>2019-04-10T07:43:34Z</time>
      </trkpt>
      <trkpt lat="48.21088" lon="6.72861">
        <ele>550.01</ele>
        <time>2019-04-10T07:43:46Z</time>
      </trkpt>
      <trkpt lat="48.21085" lon="6.72906">
        <ele>550.01</ele>
        <time>2019-04-10T07:44:09Z</time>
      </trkpt>
      <trkpt lat="48.21084" lon="6.72907">
        <ele>550.01</ele>
        <time>2019-04-10T07:44:10Z</time>
      </trkpt>
      <trkpt lat="48.21082" lon="6.72912">
        <ele>551.45</ele>
        <time>2019-04-10T07:44:14Z</time>
      </trkpt>
      <trkpt lat="48.21084" lon="6.7294">
        <ele>552.9</ele>
        <time>2019-04-10T07:44:37Z</time>
      </trkpt>
      <trkpt lat="48.21071" lon="6.72977">
        <ele>554.34</ele>
        <time>2019-04-10T07:44:59Z</time>
      </trkpt>
      <trkpt lat="48.21057" lon="6.73008">
        <ele>554.34</ele>
        <time>2019-04-10T07:45:25Z</time>
      </trkpt>
      <trkpt lat="48.21046" lon="6.73031">
        <ele>557.22</ele>
        <time>2019-04-10T07:45:45Z</time>
      </trkpt>
      <trkpt lat="48.21026" lon="6.73063">
        <ele>559.14</ele>
        <time>2019-04-10T07:46:08Z</time>
      </trkpt>
      <trkpt lat="48.21021" lon="6.73069">
        <ele>557.7</ele>
        <time>2019-04-10T07:46:11Z</time>
      </trkpt>
      <trkpt lat="48.21018" lon="6.7307">
        <ele>557.7</ele>
        <time>2019-04-10T07:46:13Z</time>
      </trkpt>
      <trkpt lat="48.21004" lon="6.73069">
        <ele>559.62</ele>
        <time>2019-04-10T07:46:23Z</time>
      </trkpt>
      <trkpt lat="48.20994" lon="6.73099">
        <ele>561.07</ele>
        <time>2019-04-10T07:46:44Z</time>
      </trkpt>
      <trkpt lat="48.20997" lon="6.73143">
        <ele>562.99</ele>
        <time>2019-04-10T07:47:12Z</time>
      </trkpt>
      <trkpt lat="48.20996" lon="6.73181">
        <ele>563.47</ele>
        <time>2019-04-10T07:47:35Z</time>
      </trkpt>
      <trkpt lat="48.20995" lon="6.73185">
        <ele>564.91</ele>
        <time>2019-04-10T07:47:37Z</time>
      </trkpt>
      <trkpt lat="48.20994" lon="6.73219">
        <ele>566.83</ele>
        <time>2019-04-10T07:48:00Z</time>
      </trkpt>
      <trkpt lat="48.20991" lon="6.73252">
        <ele>568.76</ele>
        <time>2019-04-10T07:48:24Z</time>
      </trkpt>
      <trkpt lat="48.20983" lon="6.73282">
        <ele>569.24</ele>
        <time>2019-04-10T07:48:45Z</time>
      </trkpt>
      <trkpt lat="48.20981" lon="6.7329">
        <ele>570.68</ele>
        <time>2019-04-10T07:48:50Z</time>
      </trkpt>
      <trkpt lat="48.20963" lon="6.73316">
        <ele>572.6</ele>
        <time>2019-04-10T07:49:16Z</time>
      </trkpt>
      <trkpt lat="48.20955" lon="6.73329">
        <ele>574.04</ele>
        <time>2019-04-10T07:49:39Z</time>
      </trkpt>
      <trkpt lat="48.20942" lon="6.73304">
        <ele>575.01</ele>
        <time>2019-04-10T07:50:03Z</time>
      </trkpt>
      <trkpt lat="48.20936" lon="6.73279">
        <ele>576.93</ele>
        <time>2019-04-10T07:50:28Z</time>
      </trkpt>
      <trkpt lat="48.20932" lon="6.73268">
        <ele>576.93</ele>
        <time>2019-04-10T07:50:52Z</time>
      </trkpt>
      <trkpt lat="48.20932" lon="6.73269">
        <ele>577.89</ele>
        <time>2019-04-10T07:50:59Z</time>
      </trkpt>
      <trkpt lat="48.20932" lon="6.7327">
        <ele>580.29</ele>
        <time>2019-04-10T07:51:04Z</time>
      </trkpt>
      <trkpt lat="48.20937" lon="6.73266">
        <ele>583.18</ele>
        <time>2019-04-10T07:51:19Z</time>
      </trkpt>
      <trkpt lat="48.20935" lon="6.7326">
        <ele>586.54</ele>
        <time>2019-04-10T07:51:29Z</time>
      </trkpt>
      <trkpt lat="48.20937" lon="6.7323">
        <ele>588.46</ele>
        <time>2019-04-10T07:51:46Z</time>
      </trkpt>
      <trkpt lat="48.20942" lon="6.73212">
        <ele>590.39</ele>
        <time>2019-04-10T07:52:07Z</time>
      </trkpt>
      <trkpt lat="48.20942" lon="6.73189">
        <ele>591.35</ele>
        <time>2019-04-10T07:52:22Z</time>
      </trkpt>
      <trkpt lat="48.20945" lon="6.7316">
        <ele>592.79</ele>
        <time>2019-04-10T07:52:43Z</time>
      </trkpt>
      <trkpt lat="48.20947" lon="6.73156">
        <ele>591.83</ele>
        <time>2019-04-10T07:52:46Z</time>
      </trkpt>
      <trkpt lat="48.20959" lon="6.73133">
        <ele>591.35</ele>
        <time>2019-04-10T07:53:07Z</time>
      </trkpt>
      <trkpt lat="48.20958" lon="6.73088">
        <ele>594.23</ele>
        <time>2019-04-10T07:53:28Z</time>
      </trkpt>
      <trkpt lat="48.2096" lon="6.7307">
        <ele>595.67</ele>
        <time>2019-04-10T07:53:44Z</time>
      </trkpt>
      <trkpt lat="48.2096" lon="6.73065">
        <ele>594.71</ele>
        <time>2019-04-10T07:53:47Z</time>
      </trkpt>
      <trkpt lat="48.20959" lon="6.73061">
        <ele>596.64</ele>
        <time>2019-04-10T07:53:49Z</time>
      </trkpt>
      <trkpt lat="48.20958" lon="6.73048">
        <ele>598.08</ele>
        <time>2019-04-10T07:53:55Z</time>
      </trkpt>
      <trkpt lat="48.2096" lon="6.73035">
        <ele>601.44</ele>
        <time>2019-04-10T07:54:10Z</time>
      </trkpt>
      <trkpt lat="48.2096" lon="6.73034">
        <ele>601.44</ele>
        <time>2019-04-10T07:54:11Z</time>
      </trkpt>
      <trkpt lat="48.20958" lon="6.7302">
        <ele>602.4</ele>
        <time>2019-04-10T07:54:20Z</time>
      </trkpt>
      <trkpt lat="48.20965" lon="6.73001">
        <ele>604.81</ele>
        <time>2019-04-10T07:54:35Z</time>
      </trkpt>
      <trkpt lat="48.20969" lon="6.72982">
        <ele>607.21</ele>
        <time>2019-04-10T07:54:56Z</time>
      </trkpt>
      <trkpt lat="48.2097" lon="6.72972">
        <ele>608.17</ele>
        <time>2019-04-10T07:55:03Z</time>
      </trkpt>
      <trkpt lat="48.20971" lon="6.72963">
        <ele>608.17</ele>
        <time>2019-04-10T07:55:08Z</time>
      </trkpt>
      <trkpt lat="48.20974" lon="6.7296">
        <ele>608.17</ele>
        <time>2019-04-10T07:55:19Z</time>
      </trkpt>
      <trkpt lat="48.20967" lon="6.72968">
        <ele>607.69</ele>
        <time>2019-04-10T07:55:38Z</time>
      </trkpt>
      <trkpt lat="48.20977" lon="6.72956">
        <ele>607.69</ele>
        <time>2019-04-10T07:55:59Z</time>
      </trkpt>
      <trkpt lat="48.20973" lon="6.72965">
        <ele>607.69</ele>
        <time>2019-04-10T07:56:27Z</time>
      </trkpt>
      <trkpt lat="48.2097" lon="6.72964">
        <ele>607.69</ele>
        <time>2019-04-10T07:56:53Z</time>
      </trkpt>
      <trkpt lat="48.20979" lon="6.72951">
        <ele>607.69</ele>
        <time>2019-04-10T07:57:10Z</time>
      </trkpt>
      <trkpt lat="48.20971" lon="6.72959">
        <ele>608.17</ele>
        <time>2019-04-10T07:57:23Z</time>
      </trkpt>
      <trkpt lat="48.20972" lon="6.72965">
        <ele>607.69</ele>
        <time>2019-04-10T07:58:42Z</time>
      </trkpt>
      <trkpt lat="48.20972" lon="6.72964">
        <ele>607.69</ele>
        <time>2019-04-10T07:59:17Z</time>
      </trkpt>
      <trkpt lat="48.20965" lon="6.72968">
        <ele>607.69</ele>
        <time>2019-04-10T07:59:41Z</time>
      </trkpt>
      <trkpt lat="48.20969" lon="6.72971">
        <ele>607.21</ele>
        <time>2019-04-10T08:00:07Z</time>
      </trkpt>
      <trkpt lat="48.20969" lon="6.72971">
        <ele>607.69</ele>
        <time>2019-04-10T08:00:29Z</time>
      </trkpt>
      <trkpt lat="48.20962" lon="6.72973">
        <ele>607.69</ele>
        <time>2019-04-10T08:00:50Z</time>
      </trkpt>
      <trkpt lat="48.20968" lon="6.72971">
        <ele>607.69</ele>
        <time>2019-04-10T08:01:21Z</time>
      </trkpt>
      <trkpt lat="48.20961" lon="6.72976">
        <ele>609.61</ele>
        <time>2019-04-10T08:01:39Z</time>
      </trkpt>
      <trkpt lat="48.20957" lon="6.72987">
        <ele>608.17</ele>
        <time>2019-04-10T08:01:46Z</time>
      </trkpt>
      <trkpt lat="48.20956" lon="6.72989">
        <ele>608.17</ele>
        <time>2019-04-10T08:02:09Z</time>
      </trkpt>
      <trkpt lat="48.20956" lon="6.7299">
        <ele>608.17</ele>
        <time>2019-04-10T08:02:34Z</time>
      </trkpt>
      <trkpt lat="48.20958" lon="6.72991">
        <ele>607.69</ele>
        <time>2019-04-10T08:02:57Z</time>
      </trkpt>
      <trkpt lat="48.20951" lon="6.72991">
        <ele>608.65</ele>
        <time>2019-04-10T08:03:22Z</time>
      </trkpt>
      <trkpt lat="48.20962" lon="6.72992">
        <ele>607.21</ele>
        <time>2019-04-10T08:03:40Z</time>
      </trkpt>
      <trkpt lat="48.20966" lon="6.72982">
        <ele>606.25</ele>
        <time>2019-04-10T08:04:01Z</time>
      </trkpt>
      <trkpt lat="48.20965" lon="6.7299">
        <ele>605.29</ele>
        <time>2019-04-10T08:04:23Z</time>
      </trkpt>
      <trkpt lat="48.20964" lon="6.72994">
        <ele>602.88</ele>
        <time>2019-04-10T08:04:27Z</time>
      </trkpt>
      <trkpt lat="48.2096" lon="6.73029">
        <ele>600</ele>
        <time>2019-04-10T08:04:49Z</time>
      </trkpt>
      <trkpt lat="48.2096" lon="6.73032">
        <ele>598.56</ele>
        <time>2019-04-10T08:04:53Z</time>
      </trkpt>
      <trkpt lat="48.2096" lon="6.73055">
        <ele>594.23</ele>
        <time>2019-04-10T08:05:05Z</time>
      </trkpt>
      <trkpt lat="48.20959" lon="6.73057">
        <ele>594.23</ele>
        <time>2019-04-10T08:05:06Z</time>
      </trkpt>
      <trkpt lat="48.20957" lon="6.73076">
        <ele>592.79</ele>
        <time>2019-04-10T08:05:17Z</time>
      </trkpt>
      <trkpt lat="48.20965" lon="6.73116">
        <ele>589.91</ele>
        <time>2019-04-10T08:05:43Z</time>
      </trkpt>
      <trkpt lat="48.20962" lon="6.73131">
        <ele>590.87</ele>
        <time>2019-04-10T08:05:53Z</time>
      </trkpt>
      <trkpt lat="48.20956" lon="6.73135">
        <ele>589.43</ele>
        <time>2019-04-10T08:06:00Z</time>
      </trkpt>
      <trkpt lat="48.20946" lon="6.73149">
        <ele>587.98</ele>
        <time>2019-04-10T08:06:12Z</time>
      </trkpt>
      <trkpt lat="48.20943" lon="6.73184">
        <ele>587.02</ele>
        <time>2019-04-10T08:06:37Z</time>
      </trkpt>
      <trkpt lat="48.20939" lon="6.73195">
        <ele>585.58</ele>
        <time>2019-04-10T08:06:44Z</time>
      </trkpt>
      <trkpt lat="48.20936" lon="6.73217">
        <ele>582.22</ele>
        <time>2019-04-10T08:07:01Z</time>
      </trkpt>
      <trkpt lat="48.20936" lon="6.73247">
        <ele>579.33</ele>
        <time>2019-04-10T08:07:16Z</time>
      </trkpt>
      <trkpt lat="48.20935" lon="6.7326">
        <ele>576.93</ele>
        <time>2019-04-10T08:07:22Z</time>
      </trkpt>
      <trkpt lat="48.20928" lon="6.73266">
        <ele>573.56</ele>
        <time>2019-04-10T08:07:33Z</time>
      </trkpt>
      <trkpt lat="48.20927" lon="6.73274">
        <ele>570.68</ele>
        <time>2019-04-10T08:07:42Z</time>
      </trkpt>
      <trkpt lat="48.20935" lon="6.73294">
        <ele>569.24</ele>
        <time>2019-04-10T08:08:03Z</time>
      </trkpt>
      <trkpt lat="48.2095" lon="6.7333">
        <ele>566.83</ele>
        <time>2019-04-10T08:08:29Z</time>
      </trkpt>
      <trkpt lat="48.20973" lon="6.73325">
        <ele>565.87</ele>
        <time>2019-04-10T08:08:54Z</time>
      </trkpt>
      <trkpt lat="48.20972" lon="6.73321">
        <ele>564.43</ele>
        <time>2019-04-10T08:08:59Z</time>
      </trkpt>
      <trkpt lat="48.20979" lon="6.73317">
        <ele>562.51</ele>
        <time>2019-04-10T08:09:17Z</time>
      </trkpt>
      <trkpt lat="48.20985" lon="6.73314">
        <ele>562.03</ele>
        <time>2019-04-10T08:09:41Z</time>
      </trkpt>
      <trkpt lat="48.20983" lon="6.73316">
        <ele>559.14</ele>
        <time>2019-04-10T08:09:48Z</time>
      </trkpt>
      <trkpt lat="48.2097" lon="6.73316">
        <ele>556.26</ele>
        <time>2019-04-10T08:09:59Z</time>
      </trkpt>
      <trkpt lat="48.20965" lon="6.73313">
        <ele>555.3</ele>
        <time>2019-04-10T08:10:05Z</time>
      </trkpt>
      <trkpt lat="48.20961" lon="6.73308">
        <ele>553.86</ele>
        <time>2019-04-10T08:10:12Z</time>
      </trkpt>
      <trkpt lat="48.20959" lon="6.73297">
        <ele>549.53</ele>
        <time>2019-04-10T08:10:27Z</time>
      </trkpt>
      <trkpt lat="48.20958" lon="6.73287">
        <ele>548.09</ele>
        <time>2019-04-10T08:10:38Z</time>
      </trkpt>
      <trkpt lat="48.20964" lon="6.73267">
        <ele>544.24</ele>
        <time>2019-04-10T08:10:54Z</time>
      </trkpt>
      <trkpt lat="48.20964" lon="6.73265">
        <ele>544.24</ele>
        <time>2019-04-10T08:10:55Z</time>
      </trkpt>
      <trkpt lat="48.2096" lon="6.73261">
        <ele>541.36</ele>
        <time>2019-04-10T08:11:09Z</time>
      </trkpt>
      <trkpt lat="48.2096" lon="6.73264">
        <ele>539.44</ele>
        <time>2019-04-10T08:11:14Z</time>
      </trkpt>
      <trkpt lat="48.20963" lon="6.73278">
        <ele>536.07</ele>
        <time>2019-04-10T08:11:32Z</time>
      </trkpt>
      <trkpt lat="48.2097" lon="6.73303">
        <ele>532.23</ele>
        <time>2019-04-10T08:11:51Z</time>
      </trkpt>
      <trkpt lat="48.20971" lon="6.73319">
        <ele>528.86</ele>
        <time>2019-04-10T08:12:05Z</time>
      </trkpt>
      <trkpt lat="48.20971" lon="6.73328">
        <ele>527.42</ele>
        <time>2019-04-10T08:12:11Z</time>
      </trkpt>
      <trkpt lat="48.20974" lon="6.73331">
        <ele>525.98</ele>
        <time>2019-04-10T08:12:16Z</time>
      </trkpt>
      <trkpt lat="48.20982" lon="6.73351">
        <ele>522.61</ele>
        <time>2019-04-10T08:12:32Z</time>
      </trkpt>
      <trkpt lat="48.20988" lon="6.73359">
        <ele>520.21</ele>
        <time>2019-04-10T08:12:36Z</time>
      </trkpt>
      <trkpt lat="48.21003" lon="6.73381">
        <ele>517.33</ele>
        <time>2019-04-10T08:12:47Z</time>
      </trkpt>
      <trkpt lat="48.21002" lon="6.73385">
        <ele>516.37</ele>
        <time>2019-04-10T08:12:50Z</time>
      </trkpt>
      <trkpt lat="48.20998" lon="6.73398">
        <ele>513.96</ele>
        <time>2019-04-10T08:13:04Z</time>
      </trkpt>
      <trkpt lat="48.21001" lon="6.73394">
        <ele>512.04</ele>
        <time>2019-04-10T08:13:13Z</time>
      </trkpt>
      <trkpt lat="48.21006" lon="6.73393">
        <ele>508.67</ele>
        <time>2019-04-10T08:13:22Z</time>
      </trkpt>
      <trkpt lat="48.21007" lon="6.73393">
        <ele>508.67</ele>
        <time>2019-04-10T08:13:23Z</time>
      </trkpt>
      <trkpt lat="48.21018" lon="6.73398">
        <ele>506.75</ele>
        <time>2019-04-10T08:13:34Z</time>
      </trkpt>
      <trkpt lat="48.21019" lon="6.73403">
        <ele>505.79</ele>
        <time>2019-04-10T08:13:38Z</time>
      </trkpt>
      <trkpt lat="48.21019" lon="6.73427">
        <ele>502.43</ele>
        <time>2019-04-10T08:13:54Z</time>
      </trkpt>
      <trkpt lat="48.21034" lon="6.73443">
        <ele>499.06</ele>
        <time>2019-04-10T08:14:06Z</time>
      </trkpt>
      <trkpt lat="48.21024" lon="6.73453">
        <ele>496.18</ele>
        <time>2019-04-10T08:14:16Z</time>
      </trkpt>
      <trkpt lat="48.21023" lon="6.73454">
        <ele>496.18</ele>
        <time>2019-04-10T08:14:17Z</time>
      </trkpt>
      <trkpt lat="48.21016" lon="6.73458">
        <ele>498.1</ele>
        <time>2019-04-10T08:14:26Z</time>
      </trkpt>
      <trkpt lat="48.21013" lon="6.73458">
        <ele>496.18</ele>
        <time>2019-04-10T08:14:31Z</time>
      </trkpt>
      <trkpt lat="48.21009" lon="6.73457">
        <ele>497.62</ele>
        <time>2019-04-10T08:14:52Z</time>
      </trkpt>
      <trkpt lat="48.20995" lon="6.73462">
        <ele>497.62</ele>
        <time>2019-04-10T08:15:16Z</time>
      </trkpt>
      <trkpt lat="48.2099" lon="6.73472">
        <ele>497.62</ele>
        <time>2019-04-10T08:15:37Z</time>
      </trkpt>
      <trkpt lat="48.21005" lon="6.73473">
        <ele>497.62</ele>
        <time>2019-04-10T08:15:57Z</time>
      </trkpt>
      <trkpt lat="48.21001" lon="6.73491">
        <ele>497.62</ele>
        <time>2019-04-10T08:16:16Z</time>
      </trkpt>
      <trkpt lat="48.21004" lon="6.73496">
        <ele>497.62</ele>
        <time>2019-04-10T08:16:38Z</time>
      </trkpt>
      <trkpt lat="48.21005" lon="6.73489">
        <ele>496.18</ele>
        <time>2019-04-10T08:16:53Z</time>
      </trkpt>
      <trkpt lat="48.21002" lon="6.73478">
        <ele>495.7</ele>
        <time>2019-04-10T08:17:12Z</time>
      </trkpt>
      <trkpt lat="48.21004" lon="6.73477">
        <ele>494.26</ele>
        <time>2019-04-10T08:17:28Z</time>
      </trkpt>
      <trkpt lat="48.20996" lon="6.7349">
        <ele>490.89</ele>
        <time>2019-04-10T08:17:44Z</time>
      </trkpt>
      <trkpt lat="48.20978" lon="6.73506">
        <ele>487.53</ele>
        <time>2019-04-10T08:18:06Z</time>
      </trkpt>
      <trkpt lat="48.20975" lon="6.7353">
        <ele>483.68</ele>
        <time>2019-04-10T08:18:24Z</time>
      </trkpt>
      <trkpt lat="48.20975" lon="6.73553">
        <ele>481.28</ele>
        <time>2019-04-10T08:18:42Z</time>
      </trkpt>
      <trkpt lat="48.20979" lon="6.73578">
        <ele>477.91</ele>
        <time>2019-04-10T08:18:59Z</time>
      </trkpt>
      <trkpt lat="48.20981" lon="6.73574">
        <ele>476.95</ele>
        <time>2019-04-10T08:19:01Z</time>
      </trkpt>
      <trkpt lat="48.20983" lon="6.73563">
        <ele>474.55</ele>
        <time>2019-04-10T08:19:20Z</time>
      </trkpt>
      <trkpt lat="48.2099" lon="6.73557">
        <ele>474.55</ele>
        <time>2019-04-10T08:19:45Z</time>
      </trkpt>
      <trkpt lat="48.20997" lon="6.7356">
        <ele>474.55</ele>
        <time>2019-04-10T08:20:10Z</time>
      </trkpt>
      <trkpt lat="48.20991" lon="6.73559">
        <ele>474.55</ele>
        <time>2019-04-10T08:20:30Z</time>
      </trkpt>
      <trkpt lat="48.20995" lon="6.73565">
        <ele>474.55</ele>
        <time>2019-04-10T08:20:51Z</time>
      </trkpt>
      <trkpt lat="48.20987" lon="6.73565">
        <ele>475.99</ele>
        <time>2019-04-10T08:21:11Z</time>
      </trkpt>
      <trkpt lat="48.20984" lon="6.73573">
        <ele>478.39</ele>
        <time>2019-04-10T08:21:35Z</time>
      </trkpt>
      <trkpt lat="48.20984" lon="6.73573">
        <ele>478.39</ele>
        <time>2019-04-10T08:21:36Z</time>
      </trkpt>
      <trkpt lat="48.20979" lon="6.7357">
        <ele>479.35</ele>
        <time>2019-04-10T08:21:47Z</time>
      </trkpt>
      <trkpt lat="48.20973" lon="6.73546">
        <ele>482.24</ele>
        <time>2019-04-10T08:22:05Z</time>
      </trkpt>
      <trkpt lat="48.20971" lon="6.73531">
        <ele>485.6</ele>
        <time>2019-04-10T08:22:21Z</time>
      </trkpt>
      <trkpt lat="48.20989" lon="6.73504">
        <ele>484.64</ele>
        <time>2019-04-10T08:22:31Z</time>
      </trkpt>
      <trkpt lat="48.20992" lon="6.73502">
        <ele>486.08</ele>
        <time>2019-04-10T08:22:33Z</time>
      </trkpt>
      <trkpt lat="48.20991" lon="6.735">
        <ele>487.53</ele>
        <time>2019-04-10T08:22:35Z</time>
      </trkpt>
      <trkpt lat="48.20987" lon="6.73491">
        <ele>491.37</ele>
        <time>2019-04-10T08:22:57Z</time>
      </trkpt>
      <trkpt lat="48.2099" lon="6.73483">
        <ele>491.85</ele>
        <time>2019-04-10T08:23:05Z</time>
      </trkpt>
      <trkpt lat="48.21" lon="6.73475">
        <ele>491.85</ele>
        <time>2019-04-10T08:23:22Z</time>
      </trkpt>
      <trkpt lat="48.21001" lon="6.73474">
        <ele>491.85</ele>
        <time>2019-04-10T08:23:23Z</time>
      </trkpt>
      <trkpt lat="48.21014" lon="6.7347">
        <ele>490.41</ele>
        <time>2019-04-10T08:23:44Z</time>
      </trkpt>
      <trkpt lat="48.2103" lon="6.73444">
        <ele>488.49</ele>
        <time>2019-04-10T08:24:04Z</time>
      </trkpt>
      <trkpt lat="48.21044" lon="6.73414">
        <ele>486.56</ele>
        <time>2019-04-10T08:24:27Z</time>
      </trkpt>
      <trkpt lat="48.21055" lon="6.73394">
        <ele>485.6</ele>
        <time>2019-04-10T08:24:45Z</time>
      </trkpt>
      <trkpt lat="48.21061" lon="6.73382">
        <ele>484.16</ele>
        <time>2019-04-10T08:24:55Z</time>
      </trkpt>
      <trkpt lat="48.21076" lon="6.73349">
        <ele>483.2</ele>
        <time>2019-04-10T08:25:16Z</time>
      </trkpt>
      <trkpt lat="48.21088" lon="6.73317">
        <ele>482.24</ele>
        <time>2019-04-10T08:25:38Z</time>
      </trkpt>
      <trkpt lat="48.21094" lon="6.73277">
        <ele>479.35</ele>
        <time>2019-04-10T08:26:00Z</time>
      </trkpt>
      <trkpt lat="48.21113" lon="6.73238">
        <ele>476.95</ele>
        <time>2019-04-10T08:26:24Z</time>
      </trkpt>
      <trkpt lat="48.21114" lon="6.73217">
        <ele>475.99</ele>
        <time>2019-04-10T08:26:36Z</time>
      </trkpt>
      <trkpt lat="48.21142" lon="6.73187">
        <ele>475.03</ele>
        <time>2019-04-10T08:26:59Z</time>
      </trkpt>
      <trkpt lat="48.21144" lon="6.7317">
        <ele>475.51</ele>
        <time>2019-04-10T08:27:10Z</time>
      </trkpt>
      <trkpt lat="48.21145" lon="6.73159">
        <ele>475.51</ele>
        <time>2019-04-10T08:27:20Z</time>
      </trkpt>
      <trkpt lat="48.21146" lon="6.73155">
        <ele>475.51</ele>
        <time>2019-04-10T08:27:23Z</time>
      </trkpt>
      <trkpt lat="48.21151" lon="6.73136">
        <ele>474.55</ele>
        <time>2019-04-10T08:27:37Z</time>
      </trkpt>
      <trkpt lat="48.21154" lon="6.73123">
        <ele>475.99</ele>
        <time>2019-04-10T08:27:49Z</time>
      </trkpt>
      <trkpt lat="48.21162" lon="6.7309">
        <ele>477.91</ele>
        <time>2019-04-10T08:28:09Z</time>
      </trkpt>
      <trkpt lat="48.21184" lon="6.73055">
        <ele>479.84</ele>
        <time>2019-04-10T08:28:30Z</time>
      </trkpt>
      <trkpt lat="48.21188" lon="6.7305">
        <ele>479.84</ele>
        <time>2019-04-10T08:28:35Z</time>
      </trkpt>
      <trkpt lat="48.21196" lon="6.73016">
        <ele>477.91</ele>
        <time>2019-04-10T08:28:57Z</time>
      </trkpt>
      <trkpt lat="48.21185" lon="6.72979">
        <ele>477.91</ele>
        <time>2019-04-10T08:29:19Z</time>
      </trkpt>
      <trkpt lat="48.21185" lon="6.72957">
        <ele>477.43</ele>
        <time>2019-04-10T08:29:42Z</time>
      </trkpt>
      <trkpt lat="48.21194" lon="6.72933">
        <ele>476.47</ele>
        <time>2019-04-10T08:30:03Z</time>
      </trkpt>
      <trkpt lat="48.21206" lon="6.72891">
        <ele>477.43</ele>
        <time>2019-04-10T08:30:23Z</time>
      </trkpt>
      <trkpt lat="48.21233" lon="6.72881">
        <ele>477.91</ele>
        <time>2019-04-10T08:30:46Z</time>
      </trkpt>
      <trkpt lat="48.21233" lon="6.72882">
        <ele>476.95</ele>
        <time>2019-04-10T08:30:48Z</time>
      </trkpt>
      <trkpt lat="48.2125" lon="6.72893">
        <ele>476.47</ele>
        <time>2019-04-10T08:31:13Z</time>
      </trkpt>
      <trkpt lat="48.21272" lon="6.72912">
        <ele>475.03</ele>
        <time>2019-04-10T08:31:37Z</time>
      </trkpt>
      <trkpt lat="48.21296" lon="6.72908">
        <ele>474.55</ele>
        <time>2019-04-10T08:32:02Z</time>
      </trkpt>
      <trkpt lat="48.2132" lon="6.72909">
        <ele>473.59</ele>
        <time>2019-04-10T08:32:24Z</time>
      </trkpt>
      <trkpt lat="48.21332" lon="6.72905">
        <ele>473.11</ele>
        <time>2019-04-10T08:32:38Z</time>
      </trkpt>
      <trkpt lat="48.21341" lon="6.72904">
        <ele>474.07</ele>
        <time>2019-04-10T08:32:43Z</time>
      </trkpt>
      <trkpt lat="48.2136" lon="6.72903">
        <ele>473.11</ele>
        <time>2019-04-10T08:32:58Z</time>
      </trkpt>
      <trkpt lat="48.2138" lon="6.72902">
        <ele>473.11</ele>
        <time>2019-04-10T08:33:15Z</time>
      </trkpt>
      <trkpt lat="48.21396" lon="6.729">
        <ele>472.63</ele>
        <time>2019-04-10T08:33:29Z</time>
      </trkpt>
      <trkpt lat="48.21415" lon="6.72902">
        <ele>472.14</ele>
        <time>2019-04-10T08:33:46Z</time>
      </trkpt>
      <trkpt lat="48.21434" lon="6.72907">
        <ele>471.66</ele>
        <time>2019-04-10T08:34:03Z</time>
      </trkpt>
      <trkpt lat="48.21451" lon="6.72919">
        <ele>471.18</ele>
        <time>2019-04-10T08:34:20Z</time>
      </trkpt>
      <trkpt lat="48.21475" lon="6.7293">
        <ele>468.3</ele>
        <time>2019-04-10T08:34:41Z</time>
      </trkpt>
      <trkpt lat="48.215" lon="6.72933">
        <ele>465.42</ele>
        <time>2019-04-10T08:35:03Z</time>
      </trkpt>
      <trkpt lat="48.21533" lon="6.72936">
        <ele>463.01</ele>
        <time>2019-04-10T08:35:28Z</time>
      </trkpt>
      <trkpt lat="48.21554" lon="6.72947">
        <ele>460.61</ele>
        <time>2019-04-10T08:35:49Z</time>
      </trkpt>
      <trkpt lat="48.21571" lon="6.7297">
        <ele>458.21</ele>
        <time>2019-04-10T08:36:10Z</time>
      </trkpt>
      <trkpt lat="48.21587" lon="6.73012">
        <ele>456.28</ele>
        <time>2019-04-10T08:36:33Z</time>
      </trkpt>
      <trkpt lat="48.21588" lon="6.73016">
        <ele>456.28</ele>
        <time>2019-04-10T08:36:35Z</time>
      </trkpt>
      <trkpt lat="48.21602" lon="6.73051">
        <ele>453.88</ele>
        <time>2019-04-10T08:36:58Z</time>
      </trkpt>
      <trkpt lat="48.21613" lon="6.73071">
        <ele>451</ele>
        <time>2019-04-10T08:37:15Z</time>
      </trkpt>
      <trkpt lat="48.21636" lon="6.73096">
        <ele>449.55</ele>
        <time>2019-04-10T08:37:36Z</time>
      </trkpt>
      <trkpt lat="48.21669" lon="6.73106">
        <ele>446.67</ele>
        <time>2019-04-10T08:38:03Z</time>
      </trkpt>
      <trkpt lat="48.21672" lon="6.73106">
        <ele>445.71</ele>
        <time>2019-04-10T08:38:05Z</time>
      </trkpt>
      <trkpt lat="48.21706" lon="6.73111">
        <ele>443.79</ele>
        <time>2019-04-10T08:38:30Z</time>
      </trkpt>
      <trkpt lat="48.21728" lon="6.73127">
        <ele>441.86</ele>
        <time>2019-04-10T08:38:51Z</time>
      </trkpt>
      <trkpt lat="48.21729" lon="6.73128">
        <ele>441.86</ele>
        <time>2019-04-10T08:38:52Z</time>
      </trkpt>
      <trkpt lat="48.21742" lon="6.73159">
        <ele>440.42</ele>
        <time>2019-04-10T08:39:18Z</time>
      </trkpt>
      <trkpt lat="48.21743" lon="6.73207">
        <ele>438.5</ele>
        <time>2019-04-10T08:39:41Z</time>
      </trkpt>
      <trkpt lat="48.21745" lon="6.73252">
        <ele>435.61</ele>
        <time>2019-04-10T08:40:06Z</time>
      </trkpt>
      <trkpt lat="48.2175" lon="6.73279">
        <ele>435.13</ele>
        <time>2019-04-10T08:40:22Z</time>
      </trkpt>
      <trkpt lat="48.21764" lon="6.73309">
        <ele>436.1</ele>
        <time>2019-04-10T08:40:40Z</time>
      </trkpt>
      <trkpt lat="48.21775" lon="6.73316">
        <ele>435.61</ele>
        <time>2019-04-10T08:40:55Z</time>
      </trkpt>
      <trkpt lat="48.21777" lon="6.73314">
        <ele>435.61</ele>
        <time>2019-04-10T08:41:12Z</time>
      </trkpt>
      <trkpt lat="48.21778" lon="6.73308">
        <ele>437.06</ele>
        <time>2019-04-10T08:41:25Z</time>
      </trkpt>
      <trkpt lat="48.21785" lon="6.73298">
        <ele>440.42</ele>
        <time>2019-04-10T08:41:40Z</time>
      </trkpt>
      <trkpt lat="48.21785" lon="6.73292">
        <ele>440.42</ele>
        <time>2019-04-10T08:41:44Z</time>
      </trkpt>
      <trkpt lat="48.21793" lon="6.73274">
        <ele>443.79</ele>
        <time>2019-04-10T08:41:53Z</time>
      </trkpt>
      <trkpt lat="48.218" lon="6.73256">
        <ele>445.23</ele>
        <time>2019-04-10T08:42:06Z</time>
      </trkpt>
      <trkpt lat="48.21805" lon="6.73224">
        <ele>447.63</ele>
        <time>2019-04-10T08:42:32Z</time>
      </trkpt>
      <trkpt lat="48.21804" lon="6.73199">
        <ele>449.55</ele>
        <time>2019-04-10T08:42:54Z</time>
      </trkpt>
      <trkpt lat="48.21808" lon="6.73191">
        <ele>448.11</ele>
        <time>2019-04-10T08:43:02Z</time>
      </trkpt>
      <trkpt lat="48.21808" lon="6.73189">
        <ele>450.03</ele>
        <time>2019-04-10T08:43:05Z</time>
      </trkpt>
      <trkpt lat="48.21807" lon="6.73188">
        <ele>448.59</ele>
        <time>2019-04-10T08:43:07Z</time>
      </trkpt>
      <trkpt lat="48.21805" lon="6.73181">
        <ele>450.03</ele>
        <time>2019-04-10T08:43:20Z</time>
      </trkpt>
      <trkpt lat="48.21822" lon="6.73154">
        <ele>450.52</ele>
        <time>2019-04-10T08:43:39Z</time>
      </trkpt>
      <trkpt lat="48.21823" lon="6.73151">
        <ele>451.96</ele>
        <time>2019-04-10T08:43:41Z</time>
      </trkpt>
      <trkpt lat="48.21839" lon="6.73125">
        <ele>453.4</ele>
        <time>2019-04-10T08:44:01Z</time>
      </trkpt>
      <trkpt lat="48.21853" lon="6.73086">
        <ele>454.84</ele>
        <time>2019-04-10T08:44:23Z</time>
      </trkpt>
      <trkpt lat="48.21847" lon="6.73052">
        <ele>455.8</ele>
        <time>2019-04-10T08:44:42Z</time>
      </trkpt>
      <trkpt lat="48.21841" lon="6.73036">
        <ele>459.17</ele>
        <time>2019-04-10T08:45:03Z</time>
      </trkpt>
      <trkpt lat="48.2184" lon="6.73031">
        <ele>460.13</ele>
        <time>2019-04-10T08:45:08Z</time>
      </trkpt>
      <trkpt lat="48.21836" lon="6.73022">
        <ele>461.57</ele>
        <time>2019-04-10T08:45:16Z</time>
      </trkpt>
      <trkpt lat="48.21834" lon="6.7302">
        <ele>460.13</ele>
        <time>2019-04-10T08:45:18Z</time>
      </trkpt>
      <trkpt lat="48.21832" lon="6.73018">
        <ele>462.05</ele>
        <time>2019-04-10T08:45:20Z</time>
      </trkpt>
      <trkpt lat="48.21821" lon="6.73007">
        <ele>463.49</ele>
        <time>2019-04-10T08:45:29Z</time>
      </trkpt>
      <trkpt lat="48.21806" lon="6.72989">
        <ele>465.42</ele>
        <time>2019-04-10T08:45:49Z</time>
      </trkpt>
      <trkpt lat="48.21801" lon="6.72963">
        <ele>467.82</ele>
        <time>2019-04-10T08:46:08Z</time>
      </trkpt>
      <trkpt lat="48.21824" lon="6.72937">
        <ele>470.22</ele>
        <time>2019-04-10T08:46:26Z</time>
      </trkpt>
      <trkpt lat="48.21831" lon="6.72927">
        <ele>473.59</ele>
        <time>2019-04-10T08:46:38Z</time>
      </trkpt>
      <trkpt lat="48.21837" lon="6.72922">
        <ele>473.11</ele>
        <time>2019-04-10T08:46:43Z</time>
      </trkpt>
      <trkpt lat="48.21842" lon="6.72915">
        <ele>475.03</ele>
        <time>2019-04-10T08:46:50Z</time>
      </trkpt>
      <trkpt lat="48.21848" lon="6.72939">
        <ele>475.03</ele>
        <time>2019-04-10T08:47:14Z</time>
      </trkpt>
      <trkpt lat="48.21834" lon="6.72951">
        <ele>474.55</ele>
        <time>2019-04-10T08:47:43Z</time>
      </trkpt>
      <trkpt lat="48.2183" lon="6.72953">
        <ele>474.55</ele>
        <time>2019-04-10T08:48:09Z</time>
      </trkpt>
      <trkpt lat="48.21831" lon="6.7294">
        <ele>475.03</ele>
        <time>2019-04-10T08:48:37Z</time>
      </trkpt>
      <trkpt lat="48.21824" lon="6.72937">
        <ele>475.03</ele>
        <time>2019-04-10T08:49:12Z</time>
      </trkpt>
      <trkpt lat="48.21833" lon="6.72923">
        <ele>475.03</ele>
        <time>2019-04-10T08:49:39Z</time>
      </trkpt>
      <trkpt lat="48.21836" lon="6.72921">
        <ele>475.03</ele>
        <time>2019-04-10T08:50:04Z</time>
      </trkpt>
      <trkpt lat="48.21832" lon="6.72926">
        <ele>475.99</ele>
        <time>2019-04-10T08:50:32Z</time>
      </trkpt>
      <trkpt lat="48.21818" lon="6.72919">
        <ele>476.47</ele>
        <time>2019-04-10T08:51:00Z</time>
      </trkpt>
      <trkpt lat="48.21822" lon="6.72928">
        <ele>476.47</ele>
        <time>2019-04-10T08:51:24Z</time>
      </trkpt>
      <trkpt lat="48.21826" lon="6.72935">
        <ele>477.91</ele>
        <time>2019-04-10T08:51:40Z</time>
      </trkpt>
      <trkpt lat="48.21849" lon="6.72963">
        <ele>479.84</ele>
        <time>2019-04-10T08:52:00Z</time>
      </trkpt>
      <trkpt lat="48.21856" lon="6.72977">
        <ele>483.2</ele>
        <time>2019-04-10T08:52:11Z</time>
      </trkpt>
      <trkpt lat="48.21861" lon="6.72983">
        <ele>484.16</ele>
        <time>2019-04-10T08:52:19Z</time>
      </trkpt>
      <trkpt lat="48.21867" lon="6.72997">
        <ele>487.05</ele>
        <time>2019-04-10T08:52:32Z</time>
      </trkpt>
      <trkpt lat="48.21872" lon="6.73011">
        <ele>490.41</ele>
        <time>2019-04-10T08:52:51Z</time>
      </trkpt>
      <trkpt lat="48.21878" lon="6.7302">
        <ele>491.37</ele>
        <time>2019-04-10T08:53:01Z</time>
      </trkpt>
      <trkpt lat="48.21881" lon="6.73012">
        <ele>492.33</ele>
        <time>2019-04-10T08:53:07Z</time>
      </trkpt>
      <trkpt lat="48.21882" lon="6.73006">
        <ele>494.26</ele>
        <time>2019-04-10T08:53:12Z</time>
      </trkpt>
      <trkpt lat="48.21887" lon="6.72974">
        <ele>498.1</ele>
        <time>2019-04-10T08:53:36Z</time>
      </trkpt>
      <trkpt lat="48.21888" lon="6.72964">
        <ele>498.1</ele>
        <time>2019-04-10T08:53:45Z</time>
      </trkpt>
      <trkpt lat="48.21894" lon="6.72945">
        <ele>501.46</ele>
        <time>2019-04-10T08:53:58Z</time>
      </trkpt>
      <trkpt lat="48.21895" lon="6.72938">
        <ele>500.98</ele>
        <time>2019-04-10T08:54:04Z</time>
      </trkpt>
      <trkpt lat="48.21899" lon="6.72924">
        <ele>502.91</ele>
        <time>2019-04-10T08:54:16Z</time>
      </trkpt>
      <trkpt lat="48.21905" lon="6.72909">
        <ele>504.83</ele>
        <time>2019-04-10T08:54:33Z</time>
      </trkpt>
      <trkpt lat="48.21908" lon="6.72892">
        <ele>507.23</ele>
        <time>2019-04-10T08:54:45Z</time>
      </trkpt>
      <trkpt lat="48.21908" lon="6.729">
        <ele>509.64</ele>
        <time>2019-04-10T08:55:08Z</time>
      </trkpt>
      <trkpt lat="48.21909" lon="6.72927">
        <ele>513.48</ele>
        <time>2019-04-10T08:55:28Z</time>
      </trkpt>
      <trkpt lat="48.21908" lon="6.72933">
        <ele>513.48</ele>
        <time>2019-04-10T08:55:32Z</time>
      </trkpt>
      <trkpt lat="48.21909" lon="6.72955">
        <ele>512.52</ele>
        <time>2019-04-10T08:55:46Z</time>
      </trkpt>
      <trkpt lat="48.2191" lon="6.7298">
        <ele>513.96</ele>
        <time>2019-04-10T08:56:03Z</time>
      </trkpt>
      <trkpt lat="48.21916" lon="6.73008">
        <ele>511.08</ele>
        <time>2019-04-10T08:56:25Z</time>
      </trkpt>
      <trkpt lat="48.2192" lon="6.73025">
        <ele>509.64</ele>
        <time>2019-04-10T08:56:48Z</time>
      </trkpt>
      <trkpt lat="48.21928" lon="6.73054">
        <ele>510.6</ele>
        <time>2019-04-10T08:57:12Z</time>
      </trkpt>
      <trkpt lat="48.21933" lon="6.73076">
        <ele>509.16</ele>
        <time>2019-04-10T08:57:26Z</time>
      </trkpt>
      <trkpt lat="48.21936" lon="6.73097">
        <ele>508.19</ele>
        <time>2019-04-10T08:57:45Z</time>
      </trkpt>
      <trkpt lat="48.21937" lon="6.7312">
        <ele>507.71</ele>
        <time>2019-04-10T08:58:03Z</time>
      </trkpt>
      <trkpt lat="48.21941" lon="6.73118">
        <ele>508.67</ele>
        <time>2019-04-10T08:58:26Z</time>
      </trkpt>
      <trkpt lat="48.21939" lon="6.73114">
        <ele>507.23</ele>
        <time>2019-04-10T08:58:33Z</time>
      </trkpt>
      <trkpt lat="48.21945" lon="6.73111">
        <ele>507.23</ele>
        <time>2019-04-10T08:59:00Z</time>
      </trkpt>
      <trkpt lat="48.21937" lon="6.73115">
        <ele>509.16</ele>
        <time>2019-04-10T08:59:25Z</time>
      </trkpt>
      <trkpt lat="48.21939" lon="6.73117">
        <ele>509.16</ele>
        <time>2019-04-10T08:59:44Z</time>
      </trkpt>
      <trkpt lat="48.21939" lon="6.73118">
        <ele>507.71</ele>
        <time>2019-04-10T08:59:46Z</time>
      </trkpt>
      <trkpt lat="48.21947" lon="6.73132">
        <ele>507.71</ele>
        <time>2019-04-10T09:00:09Z</time>
      </trkpt>
      <trkpt lat="48.21941" lon="6.73131">
        <ele>509.16</ele>
        <time>2019-04-10T09:00:28Z</time>
      </trkpt>
      <trkpt lat="48.21952" lon="6.73147">
        <ele>512.52</ele>
        <time>2019-04-10T09:00:42Z</time>
      </trkpt>
      <trkpt lat="48.21976" lon="6.73163">
        <ele>513.96</ele>
        <time>2019-04-10T09:01:06Z</time>
      </trkpt>
      <trkpt lat="48.21985" lon="6.73168">
        <ele>517.33</ele>
        <time>2019-04-10T09:01:28Z</time>
      </trkpt>
      <trkpt lat="48.21985" lon="6.73167">
        <ele>517.33</ele>
        <time>2019-04-10T09:01:29Z</time>
      </trkpt>
      <trkpt lat="48.21985" lon="6.73166">
        <ele>515.88</ele>
        <time>2019-04-10T09:01:33Z</time>
      </trkpt>
      <trkpt lat="48.21977" lon="6.73151">
        <ele>517.33</ele>
        <time>2019-04-10T09:01:57Z</time>
      </trkpt>
      <trkpt lat="48.21974" lon="6.73148">
        <ele>515.4</ele>
        <time>2019-04-10T09:01:59Z</time>
      </trkpt>
      <trkpt lat="48.21968" lon="6.73143">
        <ele>516.85</ele>
        <time>2019-04-10T09:02:08Z</time>
      </trkpt>
      <trkpt lat="48.21959" lon="6.73133">
        <ele>520.21</ele>
        <time>2019-04-10T09:02:27Z</time>
      </trkpt>
      <trkpt lat="48.2196" lon="6.73127">
        <ele>519.25</ele>
        <time>2019-04-10T09:02:48Z</time>
      </trkpt>
      <trkpt lat="48.21954" lon="6.73123">
        <ele>519.25</ele>
        <time>2019-04-10T09:03:13Z</time>
      </trkpt>
      <trkpt lat="48.21949" lon="6.73131">
        <ele>518.77</ele>
        <time>2019-04-10T09:03:41Z</time>
      </trkpt>
      <trkpt lat="48.2195" lon="6.73126">
        <ele>518.77</ele>
        <time>2019-04-10T09:04:08Z</time>
      </trkpt>
      <trkpt lat="48.21949" lon="6.73124">
        <ele>518.77</ele>
        <time>2019-04-10T09:04:38Z</time>
      </trkpt>
      <trkpt lat="48.21953" lon="6.73129">
        <ele>518.29</ele>
        <time>2019-04-10T09:05:06Z</time>
      </trkpt>
      <trkpt lat="48.21968" lon="6.73132">
        <ele>513.96</ele>
        <time>2019-04-10T09:05:24Z</time>
      </trkpt>
      <trkpt lat="48.21963" lon="6.73122">
        <ele>515.88</ele>
        <time>2019-04-10T09:05:36Z</time>
      </trkpt>
      <trkpt lat="48.21949" lon="6.73106">
        <ele>515.4</ele>
        <time>2019-04-10T09:05:57Z</time>
      </trkpt>
      <trkpt lat="48.21949" lon="6.73104">
        <ele>515.4</ele>
        <time>2019-04-10T09:05:58Z</time>
      </trkpt>
      <trkpt lat="48.21947" lon="6.73062">
        <ele>512.52</ele>
        <time>2019-04-10T09:06:19Z</time>
      </trkpt>
      <trkpt lat="48.21946" lon="6.73058">
        <ele>513.96</ele>
        <time>2019-04-10T09:06:22Z</time>
      </trkpt>
      <trkpt lat="48.2194" lon="6.73027">
        <ele>515.4</ele>
        <time>2019-04-10T09:06:45Z</time>
      </trkpt>
      <trkpt lat="48.21936" lon="6.73017">
        <ele>514.44</ele>
        <time>2019-04-10T09:06:51Z</time>
      </trkpt>
      <trkpt lat="48.21933" lon="6.72963">
        <ele>517.33</ele>
        <time>2019-04-10T09:07:18Z</time>
      </trkpt>
      <trkpt lat="48.21934" lon="6.72949">
        <ele>515.88</ele>
        <time>2019-04-10T09:07:29Z</time>
      </trkpt>
      <trkpt lat="48.2194" lon="6.72921">
        <ele>517.33</ele>
        <time>2019-04-10T09:07:46Z</time>
      </trkpt>
      <trkpt lat="48.21952" lon="6.72892">
        <ele>518.29</ele>
        <time>2019-04-10T09:08:10Z</time>
      </trkpt>
      <trkpt lat="48.21953" lon="6.7289">
        <ele>519.73</ele>
        <time>2019-04-10T09:08:12Z</time>
      </trkpt>
      <trkpt lat="48.21965" lon="6.72864">
        <ele>519.73</ele>
        <time>2019-04-10T09:08:34Z</time>
      </trkpt>
      <trkpt lat="48.21979" lon="6.72857">
        <ele>520.21</ele>
        <time>2019-04-10T09:08:55Z</time>
      </trkpt>
      <trkpt lat="48.21983" lon="6.72847">
        <ele>518.77</ele>
        <time>2019-04-10T09:09:03Z</time>
      </trkpt>
      <trkpt lat="48.2199" lon="6.72826">
        <ele>518.29</ele>
        <time>2019-04-10T09:09:17Z</time>
      </trkpt>
      <trkpt lat="48.21991" lon="6.72824">
        <ele>520.21</ele>
        <time>2019-04-10T09:09:19Z</time>
      </trkpt>
      <trkpt lat="48.21998" lon="6.72812">
        <ele>518.29</ele>
        <time>2019-04-10T09:09:30Z</time>
      </trkpt>
      <trkpt lat="48.22021" lon="6.72787">
        <ele>517.81</ele>
        <time>2019-04-10T09:09:56Z</time>
      </trkpt>
      <trkpt lat="48.22036" lon="6.72757">
        <ele>516.37</ele>
        <time>2019-04-10T09:10:24Z</time>
      </trkpt>
      <trkpt lat="48.22061" lon="6.72725">
        <ele>513.96</ele>
        <time>2019-04-10T09:10:50Z</time>
      </trkpt>
      <trkpt lat="48.22074" lon="6.72696">
        <ele>514.44</ele>
        <time>2019-04-10T09:11:05Z</time>
      </trkpt>
      <trkpt lat="48.22078" lon="6.72687">
        <ele>513</ele>
        <time>2019-04-10T09:11:10Z</time>
      </trkpt>
      <trkpt lat="48.22076" lon="6.72669">
        <ele>512.04</ele>
        <time>2019-04-10T09:11:22Z</time>
      </trkpt>
      <trkpt lat="48.22071" lon="6.72652">
        <ele>510.6</ele>
        <time>2019-04-10T09:11:33Z</time>
      </trkpt>
      <trkpt lat="48.22066" lon="6.72625">
        <ele>509.64</ele>
        <time>2019-04-10T09:11:55Z</time>
      </trkpt>
      <trkpt lat="48.22063" lon="6.72614">
        <ele>510.12</ele>
        <time>2019-04-10T09:12:07Z</time>
      </trkpt>
      <trkpt lat="48.22061" lon="6.72579">
        <ele>507.23</ele>
        <time>2019-04-10T09:12:26Z</time>
      </trkpt>
      <trkpt lat="48.22048" lon="6.72538">
        <ele>506.75</ele>
        <time>2019-04-10T09:12:47Z</time>
      </trkpt>
      <trkpt lat="48.22043" lon="6.72533">
        <ele>506.75</ele>
        <time>2019-04-10T09:12:50Z</time>
      </trkpt>
      <trkpt lat="48.22038" lon="6.72529">
        <ele>506.27</ele>
        <time>2019-04-10T09:12:54Z</time>
      </trkpt>
      <trkpt lat="48.22015" lon="6.72534">
        <ele>505.31</ele>
        <time>2019-04-10T09:13:12Z</time>
      </trkpt>
      <trkpt lat="48.21998" lon="6.72543">
        <ele>504.35</ele>
        <time>2019-04-10T09:13:30Z</time>
      </trkpt>
      <trkpt lat="48.21986" lon="6.72557">
        <ele>502.43</ele>
        <time>2019-04-10T09:13:51Z</time>
      </trkpt>
      <trkpt lat="48.2198" lon="6.72563">
        <ele>502.43</ele>
        <time>2019-04-10T09:13:57Z</time>
      </trkpt>
      <trkpt lat="48.21972" lon="6.72569">
        <ele>502.43</ele>
        <time>2019-04-10T09:14:03Z</time>
      </trkpt>
      <trkpt lat="48.21964" lon="6.72587">
        <ele>500.5</ele>
        <time>2019-04-10T09:14:17Z</time>
      </trkpt>
      <trkpt lat="48.21947" lon="6.72612">
        <ele>499.54</ele>
        <time>2019-04-10T09:14:38Z</time>
      </trkpt>
      <trkpt lat="48.21932" lon="6.72642">
        <ele>497.14</ele>
        <time>2019-04-10T09:15:00Z</time>
      </trkpt>
      <trkpt lat="48.2193" lon="6.72645">
        <ele>496.18</ele>
        <time>2019-04-10T09:15:02Z</time>
      </trkpt>
      <trkpt lat="48.21915" lon="6.72673">
        <ele>494.74</ele>
        <time>2019-04-10T09:15:18Z</time>
      </trkpt>
      <trkpt lat="48.21909" lon="6.72706">
        <ele>491.85</ele>
        <time>2019-04-10T09:15:42Z</time>
      </trkpt>
      <trkpt lat="48.21896" lon="6.72739">
        <ele>489.45</ele>
        <time>2019-04-10T09:16:03Z</time>
      </trkpt>
      <trkpt lat="48.21896" lon="6.72743">
        <ele>490.89</ele>
        <time>2019-04-10T09:16:05Z</time>
      </trkpt>
      <trkpt lat="48.21894" lon="6.72747">
        <ele>489.45</ele>
        <time>2019-04-10T09:16:07Z</time>
      </trkpt>
      <trkpt lat="48.21888" lon="6.72775">
        <ele>487.53</ele>
        <time>2019-04-10T09:16:21Z</time>
      </trkpt>
      <trkpt lat="48.21881" lon="6.72796">
        <ele>487.53</ele>
        <time>2019-04-10T09:16:36Z</time>
      </trkpt>
      <trkpt lat="48.2188" lon="6.72798">
        <ele>486.08</ele>
        <time>2019-04-10T09:16:38Z</time>
      </trkpt>
      <trkpt lat="48.21871" lon="6.7283">
        <ele>482.72</ele>
        <time>2019-04-10T09:17:03Z</time>
      </trkpt>
      <trkpt lat="48.21866" lon="6.72856">
        <ele>480.8</ele>
        <time>2019-04-10T09:17:16Z</time>
      </trkpt>
      <trkpt lat="48.21858" lon="6.7289">
        <ele>479.35</ele>
        <time>2019-04-10T09:17:37Z</time>
      </trkpt>
      <trkpt lat="48.21856" lon="6.72895">
        <ele>477.43</ele>
        <time>2019-04-10T09:17:40Z</time>
      </trkpt>
      <trkpt lat="48.21843" lon="6.72917">
        <ele>475.51</ele>
        <time>2019-04-10T09:17:55Z</time>
      </trkpt>
      <trkpt lat="48.21828" lon="6.7292">
        <ele>473.59</ele>
        <time>2019-04-10T09:18:11Z</time>
      </trkpt>
      <trkpt lat="48.21821" lon="6.72932">
        <ele>471.66</ele>
        <time>2019-04-10T09:18:35Z</time>
      </trkpt>
      <trkpt lat="48.21817" lon="6.72938">
        <ele>470.22</ele>
        <time>2019-04-10T09:18:41Z</time>
      </trkpt>
      <trkpt lat="48.21809" lon="6.72962">
        <ele>466.86</ele>
        <time>2019-04-10T09:18:59Z</time>
      </trkpt>
      <trkpt lat="48.21804" lon="6.72947">
        <ele>465.42</ele>
        <time>2019-04-10T09:19:21Z</time>
      </trkpt>
      <trkpt lat="48.21808" lon="6.72903">
        <ele>464.93</ele>
        <time>2019-04-10T09:19:44Z</time>
      </trkpt>
      <trkpt lat="48.2182" lon="6.72877">
        <ele>464.93</ele>
        <time>2019-04-10T09:20:05Z</time>
      </trkpt>
      <trkpt lat="48.21821" lon="6.72871">
        <ele>466.38</ele>
        <time>2019-04-10T09:20:10Z</time>
      </trkpt>
      <trkpt lat="48.21829" lon="6.7286">
        <ele>462.53</ele>
        <time>2019-04-10T09:20:30Z</time>
      </trkpt>
      <trkpt lat="48.21828" lon="6.72842">
        <ele>463.49</ele>
        <time>2019-04-10T09:20:41Z</time>
      </trkpt>
      <trkpt lat="48.21828" lon="6.7284">
        <ele>462.05</ele>
        <time>2019-04-10T09:20:43Z</time>
      </trkpt>
      <trkpt lat="48.21828" lon="6.7283">
        <ele>460.61</ele>
        <time>2019-04-10T09:20:50Z</time>
      </trkpt>
      <trkpt lat="48.21829" lon="6.72812">
        <ele>456.76</ele>
        <time>2019-04-10T09:21:03Z</time>
      </trkpt>
      <trkpt lat="48.21828" lon="6.72811">
        <ele>456.76</ele>
        <time>2019-04-10T09:21:04Z</time>
      </trkpt>
      <trkpt lat="48.21807" lon="6.72767">
        <ele>454.36</ele>
        <time>2019-04-10T09:21:31Z</time>
      </trkpt>
      <trkpt lat="48.21801" lon="6.7274">
        <ele>452.44</ele>
        <time>2019-04-10T09:21:39Z</time>
      </trkpt>
      <trkpt lat="48.21798" lon="6.72722">
        <ele>451.48</ele>
        <time>2019-04-10T09:21:49Z</time>
      </trkpt>
      <trkpt lat="48.21782" lon="6.72698">
        <ele>448.59</ele>
        <time>2019-04-10T09:22:10Z</time>
      </trkpt>
      <trkpt lat="48.2177" lon="6.72669">
        <ele>445.71</ele>
        <time>2019-04-10T09:22:27Z</time>
      </trkpt>
      <trkpt lat="48.21768" lon="6.72629">
        <ele>443.79</ele>
        <time>2019-04-10T09:22:54Z</time>
      </trkpt>
      <trkpt lat="48.21768" lon="6.72621">
        <ele>441.86</ele>
        <time>2019-04-10T09:23:00Z</time>
      </trkpt>
      <trkpt lat="48.21759" lon="6.72598">
        <ele>438.98</ele>
        <time>2019-04-10T09:23:10Z</time>
      </trkpt>
      <trkpt lat="48.21757" lon="6.72587">
        <ele>438.98</ele>
        <time>2019-04-10T09:23:36Z</time>
      </trkpt>
      <trkpt lat="48.21757" lon="6.72583">
        <ele>438.98</ele>
        <time>2019-04-10T09:24:00Z</time>
      </trkpt>
      <trkpt lat="48.21748" lon="6.72579">
        <ele>440.42</ele>
        <time>2019-04-10T09:24:16Z</time>
      </trkpt>
      <trkpt lat="48.21751" lon="6.72564">
        <ele>438.5</ele>
        <time>2019-04-10T09:24:38Z</time>
      </trkpt>
      <trkpt lat="48.2174" lon="6.72544">
        <ele>439.46</ele>
        <time>2019-04-10T09:24:51Z</time>
      </trkpt>
      <trkpt lat="48.21738" lon="6.72512">
        <ele>438.5</ele>
        <time>2019-04-10T09:25:13Z</time>
      </trkpt>
      <trkpt lat="48.21752" lon="6.72514">
        <ele>438.5</ele>
        <time>2019-04-10T09:25:31Z</time>
      </trkpt>
      <trkpt lat="48.2175" lon="6.72499">
        <ele>438.5</ele>
        <time>2019-04-10T09:25:49Z</time>
      </trkpt>
      <trkpt lat="48.21763" lon="6.72464">
        <ele>439.94</ele>
        <time>2019-04-10T09:26:11Z</time>
      </trkpt>
      <trkpt lat="48.21779" lon="6.72439">
        <ele>439.94</ele>
        <time>2019-04-10T09:26:34Z</time>
      </trkpt>
      <trkpt lat="48.21796" lon="6.72416">
        <ele>438.98</ele>
        <time>2019-04-10T09:27:00Z</time>
      </trkpt>
      <trkpt lat="48.21801" lon="6.724">
        <ele>440.42</ele>
        <time>2019-04-10T09:27:10Z</time>
      </trkpt>
      <trkpt lat="48.21802" lon="6.72394">
        <ele>438.98</ele>
        <time>2019-04-10T09:27:14Z</time>
      </trkpt>
      <trkpt lat="48.21823" lon="6.72367">
        <ele>438.98</ele>
        <time>2019-04-10T09:27:38Z</time>
      </trkpt>
      <trkpt lat="48.21842" lon="6.72343">
        <ele>438.5</ele>
        <time>2019-04-10T09:28:04Z</time>
      </trkpt>
      <trkpt lat="48.21849" lon="6.72343">
        <ele>439.46</ele>
        <time>2019-04-10T09:28:09Z</time>
      </trkpt>
      <trkpt lat="48.21875" lon="6.72348">
        <ele>438.5</ele>
        <time>2019-04-10T09:28:31Z</time>
      </trkpt>
      <trkpt lat="48.21904" lon="6.72359">
        <ele>438.98</ele>
        <time>2019-04-10T09:28:53Z</time>
      </trkpt>
      <trkpt lat="48.21915" lon="6.72393">
        <ele>438.98</ele>
        <time>2019-04-10T09:29:14Z</time>
      </trkpt>
      <trkpt lat="48.2191" lon="6.72391">
        <ele>438.98</ele>
        <time>2019-04-10T09:29:33Z</time>
      </trkpt>
      <trkpt lat="48.21914" lon="6.72385">
        <ele>439.46</ele>
        <time>2019-04-10T09:29:51Z</time>
      </trkpt>
      <trkpt lat="48.21919" lon="6.72381">
        <ele>439.46</ele>
        <time>2019-04-10T09:30:17Z</time>
      </trkpt>
      <trkpt lat="48.2191" lon="6.72371">
        <ele>439.46</ele>
        <time>2019-04-10T09:30:44Z</time>
      </trkpt>
      <trkpt lat="48.21913" lon="6.72381">
        <ele>439.94</ele>
        <time>2019-04-10T09:31:08Z</time>
      </trkpt>
      <trkpt lat="48.21921" lon="6.72387">
        <ele>439.94</ele>
        <time>2019-04-10T09:31:32Z</time>
      </trkpt>
      <trkpt lat="48.21923" lon="6.7239">
        <ele>438.5</ele>
        <time>2019-04-10T09:31:52Z</time>
      </trkpt>
      <trkpt lat="48.21929" lon="6.72382">
        <ele>438.98</ele>
        <time>2019-04-10T09:31:58Z</time>
      </trkpt>
      <trkpt lat="48.21931" lon="6.72379">
        <ele>438.98</ele>
        <time>2019-04-10T09:32:00Z</time>
      </trkpt>
      <trkpt lat="48.21947" lon="6.72366">
        <ele>438.5</ele>
        <time>2019-04-10T09:32:16Z</time>
      </trkpt>
      <trkpt lat="48.2195" lon="6.72342">
        <ele>439.46</ele>
        <time>2019-04-10T09:32:32Z</time>
      </trkpt>
      <trkpt lat="48.21961" lon="6.72338">
        <ele>439.46</ele>
        <time>2019-04-10T09:32:50Z</time>
      </trkpt>
      <trkpt lat="48.21978" lon="6.72336">
        <ele>439.94</ele>
        <time>2019-04-10T09:33:07Z</time>
      </trkpt>
      <trkpt lat="48.21979" lon="6.72336">
        <ele>439.94</ele>
        <time>2019-04-10T09:33:08Z</time>
      </trkpt>
      <trkpt lat="48.21989" lon="6.72327">
        <ele>440.42</ele>
        <time>2019-04-10T09:33:17Z</time>
      </trkpt>
      <trkpt lat="48.22008" lon="6.72323">
        <ele>439.46</ele>
        <time>2019-04-10T09:33:36Z</time>
      </trkpt>
      <trkpt lat="48.2202" lon="6.72324">
        <ele>440.9</ele>
        <time>2019-04-10T09:33:43Z</time>
      </trkpt>
      <trkpt lat="48.22039" lon="6.72319">
        <ele>440.42</ele>
        <time>2019-04-10T09:34:01Z</time>
      </trkpt>
      <trkpt lat="48.22061" lon="6.72313">
        <ele>440.42</ele>
        <time>2019-04-10T09:34:21Z</time>
      </trkpt>
      <trkpt lat="48.22068" lon="6.72311">
        <ele>440.9</ele>
        <time>2019-04-10T09:34:28Z</time>
      </trkpt>
      <trkpt lat="48.22094" lon="6.72312">
        <ele>440.9</ele>
        <time>2019-04-10T09:34:47Z</time>
      </trkpt>
      <trkpt lat="48.2212" lon="6.7231">
        <ele>440.9</ele>
        <time>2019-04-10T09:35:06Z</time>
      </trkpt>
      <trkpt lat="48.22152" lon="6.72312">
        <ele>441.86</ele>
        <time>2019-04-10T09:35:31Z</time>
      </trkpt>
      <trkpt lat="48.22156" lon="6.72314">
        <ele>440.42</ele>
        <time>2019-04-10T09:35:36Z</time>
      </trkpt>
      <trkpt lat="48.22165" lon="6.72322">
        <ele>441.38</ele>
        <time>2019-04-10T09:35:43Z</time>
      </trkpt>
      <trkpt lat="48.22168" lon="6.72323">
        <ele>440.42</ele>
        <time>2019-04-10T09:35:45Z</time>
      </trkpt>
      <trkpt lat="48.22172" lon="6.72324">
        <ele>440.42</ele>
        <time>2019-04-10T09:35:51Z</time>
      </trkpt>
      <trkpt lat="48.22177" lon="6.72325">
        <ele>440.42</ele>
        <time>2019-04-10T09:35:55Z</time>
      </trkpt>
      <trkpt lat="48.22195" lon="6.7233">
        <ele>440.42</ele>
        <time>2019-04-10T09:36:09Z</time>
      </trkpt>
      <trkpt lat="48.22197" lon="6.72317">
        <ele>440.42</ele>
        <time>2019-04-10T09:36:27Z</time>
      </trkpt>
      <trkpt lat="48.22197" lon="6.72313">
        <ele>441.86</ele>
        <time>2019-04-10T09:36:30Z</time>
      </trkpt>
      <trkpt lat="48.222" lon="6.72296">
        <ele>442.82</ele>
        <time>2019-04-10T09:36:40Z</time>
      </trkpt>
      <trkpt lat="48.22197" lon="6.72267">
        <ele>444.75</ele>
        <time>2019-04-10T09:37:01Z</time>
      </trkpt>
      <trkpt lat="48.22192" lon="6.7225">
        <ele>444.75</ele>
        <time>2019-04-10T09:37:15Z</time>
      </trkpt>
      <trkpt lat="48.2219" lon="6.72248">
        <ele>446.19</ele>
        <time>2019-04-10T09:37:17Z</time>
      </trkpt>
      <trkpt lat="48.22198" lon="6.72222">
        <ele>448.59</ele>
        <time>2019-04-10T09:37:31Z</time>
      </trkpt>
      <trkpt lat="48.22206" lon="6.72193">
        <ele>450.52</ele>
        <time>2019-04-10T09:37:54Z</time>
      </trkpt>
      <trkpt lat="48.22207" lon="6.7219">
        <ele>449.07</ele>
        <time>2019-04-10T09:37:57Z</time>
      </trkpt>
      <trkpt lat="48.22208" lon="6.72176">
        <ele>451</ele>
        <time>2019-04-10T09:38:09Z</time>
      </trkpt>
      <trkpt lat="48.22211" lon="6.72161">
        <ele>452.44</ele>
        <time>2019-04-10T09:38:18Z</time>
      </trkpt>
      <trkpt lat="48.22215" lon="6.72147">
        <ele>452.92</ele>
        <time>2019-04-10T09:38:26Z</time>
      </trkpt>
      <trkpt lat="48.2223" lon="6.72127">
        <ele>454.36</ele>
        <time>2019-04-10T09:38:48Z</time>
      </trkpt>
      <trkpt lat="48.22244" lon="6.72093">
        <ele>456.28</ele>
        <time>2019-04-10T09:39:12Z</time>
      </trkpt>
      <trkpt lat="48.22247" lon="6.72088">
        <ele>457.24</ele>
        <time>2019-04-10T09:39:17Z</time>
      </trkpt>
      <trkpt lat="48.22248" lon="6.72083">
        <ele>455.8</ele>
        <time>2019-04-10T09:39:20Z</time>
      </trkpt>
      <trkpt lat="48.22261" lon="6.72055">
        <ele>459.17</ele>
        <time>2019-04-10T09:39:39Z</time>
      </trkpt>
      <trkpt lat="48.22272" lon="6.72037">
        <ele>460.61</ele>
        <time>2019-04-10T09:39:56Z</time>
      </trkpt>
      <trkpt lat="48.22277" lon="6.72029">
        <ele>461.09</ele>
        <time>2019-04-10T09:40:04Z</time>
      </trkpt>
      <trkpt lat="48.22279" lon="6.72025">
        <ele>460.13</ele>
        <time>2019-04-10T09:40:09Z</time>
      </trkpt>
      <trkpt lat="48.22281" lon="6.72023">
        <ele>462.05</ele>
        <time>2019-04-10T09:40:11Z</time>
      </trkpt>
      <trkpt lat="48.22295" lon="6.72">
        <ele>462.53</ele>
        <time>2019-04-10T09:40:32Z</time>
      </trkpt>
      <trkpt lat="48.22304" lon="6.71985">
        <ele>463.97</ele>
        <time>2019-04-10T09:40:47Z</time>
      </trkpt>
      <trkpt lat="48.22321" lon="6.71963">
        <ele>465.9</ele>
        <time>2019-04-10T09:41:07Z</time>
      </trkpt>
      <trkpt lat="48.22337" lon="6.71953">
        <ele>467.82</ele>
        <time>2019-04-10T09:41:28Z</time>
      </trkpt>
      <trkpt lat="48.22363" lon="6.71943">
        <ele>470.22</ele>
        <time>2019-04-10T09:41:54Z</time>
      </trkpt>
      <trkpt lat="48.22386" lon="6.71926">
        <ele>472.14</ele>
        <time>2019-04-10T09:42:20Z</time>
      </trkpt>
      <trkpt lat="48.22397" lon="6.71928">
        <ele>474.55</ele>
        <time>2019-04-10T09:42:36Z</time>
      </trkpt>
      <trkpt lat="48.2241" lon="6.71914">
        <ele>475.51</ele>
        <time>2019-04-10T09:42:49Z</time>
      </trkpt>
      <trkpt lat="48.22415" lon="6.71909">
        <ele>477.91</ele>
        <time>2019-04-10T09:42:54Z</time>
      </trkpt>
      <trkpt lat="48.22417" lon="6.71909">
        <ele>476.95</ele>
        <time>2019-04-10T09:42:56Z</time>
      </trkpt>
      <trkpt lat="48.22419" lon="6.71911">
        <ele>477.91</ele>
        <time>2019-04-10T09:42:58Z</time>
      </trkpt>
      <trkpt lat="48.22406" lon="6.71934">
        <ele>481.28</ele>
        <time>2019-04-10T09:43:19Z</time>
      </trkpt>
      <trkpt lat="48.22397" lon="6.71955">
        <ele>484.16</ele>
        <time>2019-04-10T09:43:36Z</time>
      </trkpt>
      <trkpt lat="48.22412" lon="6.71948">
        <ele>487.53</ele>
        <time>2019-04-10T09:43:53Z</time>
      </trkpt>
      <trkpt lat="48.22415" lon="6.71947">
        <ele>484.64</ele>
        <time>2019-04-10T09:43:55Z</time>
      </trkpt>
      <trkpt lat="48.22416" lon="6.71947">
        <ele>488.01</ele>
        <time>2019-04-10T09:43:56Z</time>
      </trkpt>
      <trkpt lat="48.22423" lon="6.71943">
        <ele>488.49</ele>
        <time>2019-04-10T09:44:06Z</time>
      </trkpt>
      <trkpt lat="48.22425" lon="6.71942">
        <ele>487.53</ele>
        <time>2019-04-10T09:44:08Z</time>
      </trkpt>
      <trkpt lat="48.2243" lon="6.7194">
        <ele>490.41</ele>
        <time>2019-04-10T09:44:14Z</time>
      </trkpt>
      <trkpt lat="48.22438" lon="6.7193">
        <ele>490.89</ele>
        <time>2019-04-10T09:44:22Z</time>
      </trkpt>
      <trkpt lat="48.22447" lon="6.71928">
        <ele>490.89</ele>
        <time>2019-04-10T09:44:30Z</time>
      </trkpt>
      <trkpt lat="48.2245" lon="6.7193">
        <ele>492.33</ele>
        <time>2019-04-10T09:44:32Z</time>
      </trkpt>
      <trkpt lat="48.22447" lon="6.71942">
        <ele>495.22</ele>
        <time>2019-04-10T09:44:43Z</time>
      </trkpt>
      <trkpt lat="48.22444" lon="6.71952">
        <ele>495.7</ele>
        <time>2019-04-10T09:44:50Z</time>
      </trkpt>
      <trkpt lat="48.22434" lon="6.71978">
        <ele>498.58</ele>
        <time>2019-04-10T09:45:09Z</time>
      </trkpt>
      <trkpt lat="48.22434" lon="6.71981">
        <ele>500.02</ele>
        <time>2019-04-10T09:45:19Z</time>
      </trkpt>
      <trkpt lat="48.22418" lon="6.72004">
        <ele>502.91</ele>
        <time>2019-04-10T09:45:43Z</time>
      </trkpt>
      <trkpt lat="48.22412" lon="6.72012">
        <ele>504.35</ele>
        <time>2019-04-10T09:45:49Z</time>
      </trkpt>
      <trkpt lat="48.22405" lon="6.72029">
        <ele>505.79</ele>
        <time>2019-04-10T09:46:11Z</time>
      </trkpt>
      <trkpt lat="48.22398" lon="6.72037">
        <ele>508.19</ele>
        <time>2019-04-10T09:46:17Z</time>
      </trkpt>
      <trkpt lat="48.22378" lon="6.72064">
        <ele>511.56</ele>
        <time>2019-04-10T09:46:42Z</time>
      </trkpt>
      <trkpt lat="48.22371" lon="6.72073">
        <ele>514.92</ele>
        <time>2019-04-10T09:46:57Z</time>
      </trkpt>
      <trkpt lat="48.2236" lon="6.72089">
        <ele>517.33</ele>
        <time>2019-04-10T09:47:16Z</time>
      </trkpt>
      <trkpt lat="48.22351" lon="6.72111">
        <ele>519.73</ele>
        <time>2019-04-10T09:47:40Z</time>
      </trkpt>
      <trkpt lat="48.22344" lon="6.72122">
        <ele>521.17</ele>
        <time>2019-04-10T09:47:47Z</time>
      </trkpt>
      <trkpt lat="48.22342" lon="6.72131">
        <ele>523.09</ele>
        <time>2019-04-10T09:47:55Z</time>
      </trkpt>
      <trkpt lat="48.22341" lon="6.72131">
        <ele>522.13</ele>
        <time>2019-04-10T09:47:56Z</time>
      </trkpt>
      <trkpt lat="48.22334" lon="6.7214">
        <ele>523.58</ele>
        <time>2019-04-10T09:48:03Z</time>
      </trkpt>
      <trkpt lat="48.22333" lon="6.72145">
        <ele>524.54</ele>
        <time>2019-04-10T09:48:06Z</time>
      </trkpt>
      <trkpt lat="48.22328" lon="6.72157">
        <ele>525.5</ele>
        <time>2019-04-10T09:48:27Z</time>
      </trkpt>
      <trkpt lat="48.22324" lon="6.72162">
        <ele>524.06</ele>
        <time>2019-04-10T09:48:36Z</time>
      </trkpt>
      <trkpt lat="48.22314" lon="6.72168">
        <ele>523.58</ele>
        <time>2019-04-10T09:48:56Z</time>
      </trkpt>
      <trkpt lat="48.22318" lon="6.72165">
        <ele>525.02</ele>
        <time>2019-04-10T09:49:20Z</time>
      </trkpt>
      <trkpt lat="48.2232" lon="6.72161">
        <ele>525.5</ele>
        <time>2019-04-10T09:49:34Z</time>
      </trkpt>
      <trkpt lat="48.22316" lon="6.72164">
        <ele>525.02</ele>
        <time>2019-04-10T09:49:59Z</time>
      </trkpt>
      <trkpt lat="48.22322" lon="6.72166">
        <ele>524.06</ele>
        <time>2019-04-10T09:50:21Z</time>
      </trkpt>
      <trkpt lat="48.22323" lon="6.72163">
        <ele>525.98</ele>
        <time>2019-04-10T09:50:27Z</time>
      </trkpt>
      <trkpt lat="48.22317" lon="6.72165">
        <ele>524.54</ele>
        <time>2019-04-10T09:50:53Z</time>
      </trkpt>
      <trkpt lat="48.22319" lon="6.72165">
        <ele>524.54</ele>
        <time>2019-04-10T09:51:21Z</time>
      </trkpt>
      <trkpt lat="48.22328" lon="6.72165">
        <ele>525.02</ele>
        <time>2019-04-10T09:51:43Z</time>
      </trkpt>
      <trkpt lat="48.2233" lon="6.72165">
        <ele>528.38</ele>
        <time>2019-04-10T09:51:44Z</time>
      </trkpt>
      <trkpt lat="48.22344" lon="6.72162">
        <ele>531.75</ele>
        <time>2019-04-10T09:52:04Z</time>
      </trkpt>
      <trkpt lat="48.22346" lon="6.7216">
        <ele>531.75</ele>
        <time>2019-04-10T09:52:08Z</time>
      </trkpt>
      <trkpt lat="48.22351" lon="6.72158">
        <ele>532.23</ele>
        <time>2019-04-10T09:52:14Z</time>
      </trkpt>
      <trkpt lat="48.22366" lon="6.72156">
        <ele>535.59</ele>
        <time>2019-04-10T09:52:28Z</time>
      </trkpt>
      <trkpt lat="48.22376" lon="6.72151">
        <ele>536.07</ele>
        <time>2019-04-10T09:52:49Z</time>
      </trkpt>
      <trkpt lat="48.22376" lon="6.72151">
        <ele>536.07</ele>
        <time>2019-04-10T09:52:50Z</time>
      </trkpt>
      <trkpt lat="48.22383" lon="6.72147">
        <ele>536.55</ele>
        <time>2019-04-10T09:53:08Z</time>
      </trkpt>
      <trkpt lat="48.22401" lon="6.7215">
        <ele>538.96</ele>
        <time>2019-04-10T09:53:27Z</time>
      </trkpt>
      <trkpt lat="48.22408" lon="6.7215">
        <ele>538.96</ele>
        <time>2019-04-10T09:53:33Z</time>
      </trkpt>
      <trkpt lat="48.22425" lon="6.72147">
        <ele>542.32</ele>
        <time>2019-04-10T09:53:50Z</time>
      </trkpt>
      <trkpt lat="48.22426" lon="6.72146">
        <ele>542.32</ele>
        <time>2019-04-10T09:53:51Z</time>
      </trkpt>
      <trkpt lat="48.22439" lon="6.72148">
        <ele>543.76</ele>
        <time>2019-04-10T09:54:03Z</time>
      </trkpt>
      <trkpt lat="48.22456" lon="6.72141">
        <ele>547.13</ele>
        <time>2019-04-10T09:54:21Z</time>
      </trkpt>
      <trkpt lat="48.22458" lon="6.72141">
        <ele>547.13</ele>
        <time>2019-04-10T09:54:22Z</time>
      </trkpt>
      <trkpt lat="48.22474" lon="6.7214">
        <ele>548.57</ele>
        <time>2019-04-10T09:54:37Z</time>
      </trkpt>
      <trkpt lat="48.22485" lon="6.72134">
        <ele>550.49</ele>
        <time>2019-04-10T09:54:50Z</time>
      </trkpt>
      <trkpt lat="48.22491" lon="6.72132">
        <ele>550.97</ele>
        <time>2019-04-10T09:54:58Z</time>
      </trkpt>
      <trkpt lat="48.22514" lon="6.72116">
        <ele>551.45</ele>
        <time>2019-04-10T09:55:21Z</time>
      </trkpt>
      <trkpt lat="48.22515" lon="6.7212">
        <ele>552.9</ele>
        <time>2019-04-10T09:55:39Z</time>
      </trkpt>
      <trkpt lat="48.22513" lon="6.7212">
        <ele>550.97</ele>
        <time>2019-04-10T09:56:00Z</time>
      </trkpt>
      <trkpt lat="48.22521" lon="6.72109">
        <ele>550.97</ele>
        <time>2019-04-10T09:56:24Z</time>
      </trkpt>
      <trkpt lat="48.22513" lon="6.72118">
        <ele>551.45</ele>
        <time>2019-04-10T09:56:45Z</time>
      </trkpt>
      <trkpt lat="48.22516" lon="6.72116">
        <ele>552.41</ele>
        <time>2019-04-10T09:57:05Z</time>
      </trkpt>
      <trkpt lat="48.22516" lon="6.72116">
        <ele>550.49</ele>
        <time>2019-04-10T09:57:10Z</time>
      </trkpt>
      <trkpt lat="48.22516" lon="6.72116">
        <ele>552.41</ele>
        <time>2019-04-10T09:57:13Z</time>
      </trkpt>
      <trkpt lat="48.22517" lon="6.72122">
        <ele>552.41</ele>
        <time>2019-04-10T09:57:40Z</time>
      </trkpt>
      <trkpt lat="48.2252" lon="6.7212">
        <ele>550.97</ele>
        <time>2019-04-10T09:57:47Z</time>
      </trkpt>
      <trkpt lat="48.2252" lon="6.72123">
        <ele>552.41</ele>
        <time>2019-04-10T09:58:02Z</time>
      </trkpt>
      <trkpt lat="48.22518" lon="6.72123">
        <ele>550.97</ele>
        <time>2019-04-10T09:58:27Z</time>
      </trkpt>
      <trkpt lat="48.22519" lon="6.72122">
        <ele>552.9</ele>
        <time>2019-04-10T09:58:39Z</time>
      </trkpt>
      <trkpt lat="48.22517" lon="6.72119">
        <ele>552.41</ele>
        <time>2019-04-10T09:58:52Z</time>
      </trkpt>
      <trkpt lat="48.22519" lon="6.72119">
        <ele>550.97</ele>
        <time>2019-04-10T09:59:00Z</time>
      </trkpt>
      <trkpt lat="48.22515" lon="6.72117">
        <ele>551.45</ele>
        <time>2019-04-10T09:59:25Z</time>
      </trkpt>
      <trkpt lat="48.22513" lon="6.72115">
        <ele>551.45</ele>
        <time>2019-04-10T09:59:49Z</time>
      </trkpt>
      <trkpt lat="48.22513" lon="6.72115">
        <ele>552.41</ele>
        <time>2019-04-10T09:59:52Z</time>
      </trkpt>
      <trkpt lat="48.22514" lon="6.72127">
        <ele>552.41</ele>
        <time>2019-04-10T10:00:13Z</time>
      </trkpt>
      <trkpt lat="48.22518" lon="6.72122">
        <ele>552.9</ele>
        <time>2019-04-10T10:00:37Z</time>
      </trkpt>
      <trkpt lat="48.22516" lon="6.72123">
        <ele>552.9</ele>
        <time>2019-04-10T10:01:06Z</time>
      </trkpt>
      <trkpt lat="48.22513" lon="6.72125">
        <ele>551.93</ele>
        <time>2019-04-10T10:01:28Z</time>
      </trkpt>
      <trkpt lat="48.22515" lon="6.72116">
        <ele>551.93</ele>
        <time>2019-04-10T10:01:52Z</time>
      </trkpt>
      <trkpt lat="48.22511" lon="6.72115">
        <ele>551.93</ele>
        <time>2019-04-10T10:02:16Z</time>
      </trkpt>
      <trkpt lat="48.22512" lon="6.72118">
        <ele>552.41</ele>
        <time>2019-04-10T10:02:24Z</time>
      </trkpt>
      <trkpt lat="48.22516" lon="6.72122">
        <ele>551.45</ele>
        <time>2019-04-10T10:02:38Z</time>
      </trkpt>
      <trkpt lat="48.22518" lon="6.72124">
        <ele>553.38</ele>
        <time>2019-04-10T10:02:42Z</time>
      </trkpt>
      <trkpt lat="48.22519" lon="6.72115">
        <ele>550.97</ele>
        <time>2019-04-10T10:03:02Z</time>
      </trkpt>
      <trkpt lat="48.22517" lon="6.72125">
        <ele>550.97</ele>
        <time>2019-04-10T10:03:26Z</time>
      </trkpt>
      <trkpt lat="48.22503" lon="6.72148">
        <ele>550.97</ele>
        <time>2019-04-10T10:03:58Z</time>
      </trkpt>
      <trkpt lat="48.22503" lon="6.7214">
        <ele>550.97</ele>
        <time>2019-04-10T10:04:25Z</time>
      </trkpt>
      <trkpt lat="48.22509" lon="6.7213">
        <ele>552.41</ele>
        <time>2019-04-10T10:04:45Z</time>
      </trkpt>
      <trkpt lat="48.22513" lon="6.72117">
        <ele>551.45</ele>
        <time>2019-04-10T10:05:09Z</time>
      </trkpt>
      <trkpt lat="48.22514" lon="6.72117">
        <ele>551.45</ele>
        <time>2019-04-10T10:05:37Z</time>
      </trkpt>
      <trkpt lat="48.22513" lon="6.7212">
        <ele>551.45</ele>
        <time>2019-04-10T10:06:03Z</time>
      </trkpt>
      <trkpt lat="48.22513" lon="6.7212">
        <ele>551.45</ele>
        <time>2019-04-10T10:06:26Z</time>
      </trkpt>
      <trkpt lat="48.22512" lon="6.72115">
        <ele>551.45</ele>
        <time>2019-04-10T10:06:55Z</time>
      </trkpt>
      <trkpt lat="48.2251" lon="6.72119">
        <ele>551.45</ele>
        <time>2019-04-10T10:07:13Z</time>
      </trkpt>
      <trkpt lat="48.22515" lon="6.72121">
        <ele>551.45</ele>
        <time>2019-04-10T10:07:39Z</time>
      </trkpt>
      <trkpt lat="48.22515" lon="6.72121">
        <ele>551.45</ele>
        <time>2019-04-10T10:08:05Z</time>
      </trkpt>
      <trkpt lat="48.22514" lon="6.72119">
        <ele>552.9</ele>
        <time>2019-04-10T10:08:27Z</time>
      </trkpt>
      <trkpt lat="48.2251" lon="6.72117">
        <ele>551.93</ele>
        <time>2019-04-10T10:08:56Z</time>
      </trkpt>
      <trkpt lat="48.22516" lon="6.7212">
        <ele>551.93</ele>
        <time>2019-04-10T10:09:24Z</time>
      </trkpt>
      <trkpt lat="48.22515" lon="6.7212">
        <ele>552.9</ele>
        <time>2019-04-10T10:09:57Z</time>
      </trkpt>
      <trkpt lat="48.22515" lon="6.72119">
        <ele>552.9</ele>
        <time>2019-04-10T10:10:34Z</time>
      </trkpt>
      <trkpt lat="48.22512" lon="6.7212">
        <ele>552.41</ele>
        <time>2019-04-10T10:11:00Z</time>
      </trkpt>
      <trkpt lat="48.22517" lon="6.7212">
        <ele>552.41</ele>
        <time>2019-04-10T10:11:30Z</time>
      </trkpt>
      <trkpt lat="48.22519" lon="6.72122">
        <ele>552.41</ele>
        <time>2019-04-10T10:11:57Z</time>
      </trkpt>
      <trkpt lat="48.22513" lon="6.72119">
        <ele>550.97</ele>
        <time>2019-04-10T10:12:25Z</time>
      </trkpt>
      <trkpt lat="48.22513" lon="6.7212">
        <ele>550.97</ele>
        <time>2019-04-10T10:12:26Z</time>
      </trkpt>
      <trkpt lat="48.22515" lon="6.72118">
        <ele>551.93</ele>
        <time>2019-04-10T10:12:50Z</time>
      </trkpt>
      <trkpt lat="48.22514" lon="6.72118">
        <ele>551.93</ele>
        <time>2019-04-10T10:13:10Z</time>
      </trkpt>
      <trkpt lat="48.22514" lon="6.72118">
        <ele>551.93</ele>
        <time>2019-04-10T10:13:36Z</time>
      </trkpt>
      <trkpt lat="48.22509" lon="6.72123">
        <ele>550.97</ele>
        <time>2019-04-10T10:13:59Z</time>
      </trkpt>
      <trkpt lat="48.22512" lon="6.72124">
        <ele>550.97</ele>
        <time>2019-04-10T10:14:23Z</time>
      </trkpt>
      <trkpt lat="48.22515" lon="6.7212">
        <ele>550.97</ele>
        <time>2019-04-10T10:14:46Z</time>
      </trkpt>
      <trkpt lat="48.22513" lon="6.72122">
        <ele>552.41</ele>
        <time>2019-04-10T10:15:15Z</time>
      </trkpt>
      <trkpt lat="48.22519" lon="6.72118">
        <ele>550.97</ele>
        <time>2019-04-10T10:15:37Z</time>
      </trkpt>
      <trkpt lat="48.22513" lon="6.72117">
        <ele>550.97</ele>
        <time>2019-04-10T10:16:00Z</time>
      </trkpt>
      <trkpt lat="48.22514" lon="6.72123">
        <ele>551.45</ele>
        <time>2019-04-10T10:16:24Z</time>
      </trkpt>
      <trkpt lat="48.22515" lon="6.7212">
        <ele>549.53</ele>
        <time>2019-04-10T10:16:29Z</time>
      </trkpt>
      <trkpt lat="48.22515" lon="6.7212">
        <ele>552.41</ele>
        <time>2019-04-10T10:16:31Z</time>
      </trkpt>
      <trkpt lat="48.22514" lon="6.72119">
        <ele>550.97</ele>
        <time>2019-04-10T10:16:33Z</time>
      </trkpt>
      <trkpt lat="48.22514" lon="6.72124">
        <ele>550.97</ele>
        <time>2019-04-10T10:16:55Z</time>
      </trkpt>
      <trkpt lat="48.22509" lon="6.72135">
        <ele>550.49</ele>
        <time>2019-04-10T10:17:16Z</time>
      </trkpt>
      <trkpt lat="48.22511" lon="6.72132">
        <ele>551.93</ele>
        <time>2019-04-10T10:17:22Z</time>
      </trkpt>
      <trkpt lat="48.22512" lon="6.72118">
        <ele>550.49</ele>
        <time>2019-04-10T10:17:48Z</time>
      </trkpt>
      <trkpt lat="48.22514" lon="6.72119">
        <ele>550.97</ele>
        <time>2019-04-10T10:18:24Z</time>
      </trkpt>
      <trkpt lat="48.22515" lon="6.72119">
        <ele>550.97</ele>
        <time>2019-04-10T10:18:49Z</time>
      </trkpt>
      <trkpt lat="48.22515" lon="6.72117">
        <ele>550.97</ele>
        <time>2019-04-10T10:19:18Z</time>
      </trkpt>
      <trkpt lat="48.22516" lon="6.72119">
        <ele>550.97</ele>
        <time>2019-04-10T10:19:52Z</time>
      </trkpt>
      <trkpt lat="48.22518" lon="6.72123">
        <ele>550.97</ele>
        <time>2019-04-10T10:20:17Z</time>
      </trkpt>
      <trkpt lat="48.22517" lon="6.72118">
        <ele>550.49</ele>
        <time>2019-04-10T10:20:45Z</time>
      </trkpt>
      <trkpt lat="48.22518" lon="6.72114">
        <ele>550.49</ele>
        <time>2019-04-10T10:21:16Z</time>
      </trkpt>
      <trkpt lat="48.22519" lon="6.7212">
        <ele>550.49</ele>
        <time>2019-04-10T10:21:41Z</time>
      </trkpt>
      <trkpt lat="48.22515" lon="6.72119">
        <ele>550.49</ele>
        <time>2019-04-10T10:22:10Z</time>
      </trkpt>
      <trkpt lat="48.22518" lon="6.72123">
        <ele>550.49</ele>
        <time>2019-04-10T10:22:37Z</time>
      </trkpt>
      <trkpt lat="48.22517" lon="6.72117">
        <ele>550.01</ele>
        <time>2019-04-10T10:23:03Z</time>
      </trkpt>
      <trkpt lat="48.22516" lon="6.7212">
        <ele>550.01</ele>
        <time>2019-04-10T10:23:24Z</time>
      </trkpt>
      <trkpt lat="48.22523" lon="6.72118">
        <ele>550.01</ele>
        <time>2019-04-10T10:23:48Z</time>
      </trkpt>
      <trkpt lat="48.22522" lon="6.72115">
        <ele>550.01</ele>
        <time>2019-04-10T10:24:14Z</time>
      </trkpt>
      <trkpt lat="48.22521" lon="6.72115">
        <ele>550.01</ele>
        <time>2019-04-10T10:24:48Z</time>
      </trkpt>
      <trkpt lat="48.2252" lon="6.72115">
        <ele>550.01</ele>
        <time>2019-04-10T10:25:13Z</time>
      </trkpt>
      <trkpt lat="48.22523" lon="6.72113">
        <ele>550.01</ele>
        <time>2019-04-10T10:25:42Z</time>
      </trkpt>
      <trkpt lat="48.22524" lon="6.72114">
        <ele>550.01</ele>
        <time>2019-04-10T10:26:12Z</time>
      </trkpt>
      <trkpt lat="48.22533" lon="6.72098">
        <ele>548.57</ele>
        <time>2019-04-10T10:26:37Z</time>
      </trkpt>
      <trkpt lat="48.2256" lon="6.72071">
        <ele>547.61</ele>
        <time>2019-04-10T10:27:00Z</time>
      </trkpt>
      <trkpt lat="48.22573" lon="6.72053">
        <ele>548.09</ele>
        <time>2019-04-10T10:27:21Z</time>
      </trkpt>
      <trkpt lat="48.22589" lon="6.72033">
        <ele>549.05</ele>
        <time>2019-04-10T10:27:42Z</time>
      </trkpt>
      <trkpt lat="48.22608" lon="6.72018">
        <ele>549.05</ele>
        <time>2019-04-10T10:27:59Z</time>
      </trkpt>
      <trkpt lat="48.2261" lon="6.72017">
        <ele>547.61</ele>
        <time>2019-04-10T10:28:01Z</time>
      </trkpt>
      <trkpt lat="48.22632" lon="6.71991">
        <ele>546.65</ele>
        <time>2019-04-10T10:28:23Z</time>
      </trkpt>
      <trkpt lat="48.22659" lon="6.71974">
        <ele>545.2</ele>
        <time>2019-04-10T10:28:48Z</time>
      </trkpt>
      <trkpt lat="48.22686" lon="6.71946">
        <ele>544.24</ele>
        <time>2019-04-10T10:29:10Z</time>
      </trkpt>
      <trkpt lat="48.22705" lon="6.71931">
        <ele>543.28</ele>
        <time>2019-04-10T10:29:28Z</time>
      </trkpt>
      <trkpt lat="48.22715" lon="6.71913">
        <ele>544.72</ele>
        <time>2019-04-10T10:29:46Z</time>
      </trkpt>
      <trkpt lat="48.22736" lon="6.71891">
        <ele>544.72</ele>
        <time>2019-04-10T10:30:08Z</time>
      </trkpt>
      <trkpt lat="48.2276" lon="6.71865">
        <ele>544.72</ele>
        <time>2019-04-10T10:30:30Z</time>
      </trkpt>
      <trkpt lat="48.22767" lon="6.71855">
        <ele>543.76</ele>
        <time>2019-04-10T10:30:39Z</time>
      </trkpt>
      <trkpt lat="48.22783" lon="6.71832">
        <ele>542.8</ele>
        <time>2019-04-10T10:30:53Z</time>
      </trkpt>
      <trkpt lat="48.22798" lon="6.71803">
        <ele>541.36</ele>
        <time>2019-04-10T10:31:16Z</time>
      </trkpt>
      <trkpt lat="48.22812" lon="6.71769">
        <ele>539.92</ele>
        <time>2019-04-10T10:31:40Z</time>
      </trkpt>
      <trkpt lat="48.22823" lon="6.7172">
        <ele>537.03</ele>
        <time>2019-04-10T10:32:04Z</time>
      </trkpt>
      <trkpt lat="48.22825" lon="6.71683">
        <ele>536.07</ele>
        <time>2019-04-10T10:32:27Z</time>
      </trkpt>
      <trkpt lat="48.22826" lon="6.71681">
        <ele>535.59</ele>
        <time>2019-04-10T10:32:28Z</time>
      </trkpt>
      <trkpt lat="48.2283" lon="6.7166">
        <ele>535.11</ele>
        <time>2019-04-10T10:32:38Z</time>
      </trkpt>
      <trkpt lat="48.22836" lon="6.71631">
        <ele>533.19</ele>
        <time>2019-04-10T10:33:00Z</time>
      </trkpt>
      <trkpt lat="48.2284" lon="6.71609">
        <ele>529.82</ele>
        <time>2019-04-10T10:33:18Z</time>
      </trkpt>
      <trkpt lat="48.22851" lon="6.71579">
        <ele>526.94</ele>
        <time>2019-04-10T10:33:36Z</time>
      </trkpt>
      <trkpt lat="48.22864" lon="6.71551">
        <ele>524.06</ele>
        <time>2019-04-10T10:33:53Z</time>
      </trkpt>
      <trkpt lat="48.22871" lon="6.71544">
        <ele>522.13</ele>
        <time>2019-04-10T10:33:59Z</time>
      </trkpt>
      <trkpt lat="48.22881" lon="6.71533">
        <ele>519.25</ele>
        <time>2019-04-10T10:34:14Z</time>
      </trkpt>
      <trkpt lat="48.22894" lon="6.7151">
        <ele>515.4</ele>
        <time>2019-04-10T10:34:33Z</time>
      </trkpt>
      <trkpt lat="48.22903" lon="6.71479">
        <ele>512.04</ele>
        <time>2019-04-10T10:34:50Z</time>
      </trkpt>
      <trkpt lat="48.22899" lon="6.71455">
        <ele>509.16</ele>
        <time>2019-04-10T10:35:13Z</time>
      </trkpt>
      <trkpt lat="48.22902" lon="6.71454">
        <ele>510.6</ele>
        <time>2019-04-10T10:35:18Z</time>
      </trkpt>
      <trkpt lat="48.22901" lon="6.7146">
        <ele>510.6</ele>
        <time>2019-04-10T10:35:48Z</time>
      </trkpt>
      <trkpt lat="48.22896" lon="6.71456">
        <ele>509.64</ele>
        <time>2019-04-10T10:36:01Z</time>
      </trkpt>
      <trkpt lat="48.22892" lon="6.71455">
        <ele>508.67</ele>
        <time>2019-04-10T10:36:04Z</time>
      </trkpt>
      <trkpt lat="48.22873" lon="6.71444">
        <ele>508.19</ele>
        <time>2019-04-10T10:36:18Z</time>
      </trkpt>
      <trkpt lat="48.22849" lon="6.71423">
        <ele>506.75</ele>
        <time>2019-04-10T10:36:42Z</time>
      </trkpt>
      <trkpt lat="48.22826" lon="6.71413">
        <ele>504.35</ele>
        <time>2019-04-10T10:37:05Z</time>
      </trkpt>
      <trkpt lat="48.22804" lon="6.71403">
        <ele>503.39</ele>
        <time>2019-04-10T10:37:26Z</time>
      </trkpt>
      <trkpt lat="48.22799" lon="6.71406">
        <ele>503.39</ele>
        <time>2019-04-10T10:37:29Z</time>
      </trkpt>
      <trkpt lat="48.22779" lon="6.71414">
        <ele>502.43</ele>
        <time>2019-04-10T10:37:47Z</time>
      </trkpt>
      <trkpt lat="48.22779" lon="6.71411">
        <ele>502.43</ele>
        <time>2019-04-10T10:38:01Z</time>
      </trkpt>
      <trkpt lat="48.2278" lon="6.7141">
        <ele>502.43</ele>
        <time>2019-04-10T10:38:04Z</time>
      </trkpt>
      <trkpt lat="48.2279" lon="6.71408">
        <ele>502.91</ele>
        <time>2019-04-10T10:38:15Z</time>
      </trkpt>
      <trkpt lat="48.22811" lon="6.71406">
        <ele>505.31</ele>
        <time>2019-04-10T10:38:36Z</time>
      </trkpt>
      <trkpt lat="48.22838" lon="6.71418">
        <ele>507.23</ele>
        <time>2019-04-10T10:38:58Z</time>
      </trkpt>
      <trkpt lat="48.22839" lon="6.71419">
        <ele>505.31</ele>
        <time>2019-04-10T10:39:01Z</time>
      </trkpt>
      <trkpt lat="48.2284" lon="6.71421">
        <ele>506.75</ele>
        <time>2019-04-10T10:39:03Z</time>
      </trkpt>
      <trkpt lat="48.2285" lon="6.71431">
        <ele>507.23</ele>
        <time>2019-04-10T10:39:12Z</time>
      </trkpt>
      <trkpt lat="48.2287" lon="6.71446">
        <ele>508.67</ele>
        <time>2019-04-10T10:39:29Z</time>
      </trkpt>
      <trkpt lat="48.22872" lon="6.71446">
        <ele>508.67</ele>
        <time>2019-04-10T10:39:30Z</time>
      </trkpt>
      <trkpt lat="48.22892" lon="6.71458">
        <ele>508.19</ele>
        <time>2019-04-10T10:39:48Z</time>
      </trkpt>
      <trkpt lat="48.22916" lon="6.71465">
        <ele>511.56</ele>
        <time>2019-04-10T10:40:10Z</time>
      </trkpt>
      <trkpt lat="48.22924" lon="6.71464">
        <ele>512.04</ele>
        <time>2019-04-10T10:40:17Z</time>
      </trkpt>
      <trkpt lat="48.22954" lon="6.71447">
        <ele>513</ele>
        <time>2019-04-10T10:40:43Z</time>
      </trkpt>
      <trkpt lat="48.22955" lon="6.71446">
        <ele>513.48</ele>
        <time>2019-04-10T10:40:44Z</time>
      </trkpt>
      <trkpt lat="48.22964" lon="6.71434">
        <ele>512.04</ele>
        <time>2019-04-10T10:40:53Z</time>
      </trkpt>
      <trkpt lat="48.22983" lon="6.71411">
        <ele>513</ele>
        <time>2019-04-10T10:41:14Z</time>
      </trkpt>
      <trkpt lat="48.22995" lon="6.71399">
        <ele>513</ele>
        <time>2019-04-10T10:41:34Z</time>
      </trkpt>
      <trkpt lat="48.23018" lon="6.71383">
        <ele>512.52</ele>
        <time>2019-04-10T10:41:56Z</time>
      </trkpt>
      <trkpt lat="48.23044" lon="6.71357">
        <ele>514.92</ele>
        <time>2019-04-10T10:42:22Z</time>
      </trkpt>
      <trkpt lat="48.23042" lon="6.71349">
        <ele>513.48</ele>
        <time>2019-04-10T10:42:29Z</time>
      </trkpt>
      <trkpt lat="48.23034" lon="6.71338">
        <ele>510.12</ele>
        <time>2019-04-10T10:42:38Z</time>
      </trkpt>
      <trkpt lat="48.23032" lon="6.71333">
        <ele>508.67</ele>
        <time>2019-04-10T10:42:42Z</time>
      </trkpt>
      <trkpt lat="48.23028" lon="6.71327">
        <ele>507.71</ele>
        <time>2019-04-10T10:42:46Z</time>
      </trkpt>
      <trkpt lat="48.23017" lon="6.7132">
        <ele>504.35</ele>
        <time>2019-04-10T10:42:57Z</time>
      </trkpt>
      <trkpt lat="48.23012" lon="6.71319">
        <ele>502.43</ele>
        <time>2019-04-10T10:43:01Z</time>
      </trkpt>
      <trkpt lat="48.23002" lon="6.71311">
        <ele>499.06</ele>
        <time>2019-04-10T10:43:11Z</time>
      </trkpt>
      <trkpt lat="48.22995" lon="6.7131">
        <ele>496.66</ele>
        <time>2019-04-10T10:43:20Z</time>
      </trkpt>
      <trkpt lat="48.22982" lon="6.71299">
        <ele>493.29</ele>
        <time>2019-04-10T10:43:32Z</time>
      </trkpt>
      <trkpt lat="48.22972" lon="6.71296">
        <ele>490.41</ele>
        <time>2019-04-10T10:43:45Z</time>
      </trkpt>
      <trkpt lat="48.22967" lon="6.71294">
        <ele>488.01</ele>
        <time>2019-04-10T10:43:54Z</time>
      </trkpt>
      <trkpt lat="48.22963" lon="6.71292">
        <ele>486.56</ele>
        <time>2019-04-10T10:43:59Z</time>
      </trkpt>
      <trkpt lat="48.22959" lon="6.71291">
        <ele>484.16</ele>
        <time>2019-04-10T10:44:05Z</time>
      </trkpt>
      <trkpt lat="48.22942" lon="6.71282">
        <ele>480.8</ele>
        <time>2019-04-10T10:44:15Z</time>
      </trkpt>
      <trkpt lat="48.22938" lon="6.71276">
        <ele>477.91</ele>
        <time>2019-04-10T10:44:24Z</time>
      </trkpt>
      <trkpt lat="48.22929" lon="6.71273">
        <ele>474.07</ele>
        <time>2019-04-10T10:44:34Z</time>
      </trkpt>
      <trkpt lat="48.22926" lon="6.71272">
        <ele>473.59</ele>
        <time>2019-04-10T10:44:36Z</time>
      </trkpt>
      <trkpt lat="48.22912" lon="6.7127">
        <ele>469.74</ele>
        <time>2019-04-10T10:44:48Z</time>
      </trkpt>
      <trkpt lat="48.22907" lon="6.7126">
        <ele>466.86</ele>
        <time>2019-04-10T10:44:56Z</time>
      </trkpt>
      <trkpt lat="48.22898" lon="6.7125">
        <ele>463.01</ele>
        <time>2019-04-10T10:45:12Z</time>
      </trkpt>
      <trkpt lat="48.22894" lon="6.7124">
        <ele>460.61</ele>
        <time>2019-04-10T10:45:20Z</time>
      </trkpt>
      <trkpt lat="48.22886" lon="6.71229">
        <ele>456.76</ele>
        <time>2019-04-10T10:45:32Z</time>
      </trkpt>
      <trkpt lat="48.22879" lon="6.71221">
        <ele>455.32</ele>
        <time>2019-04-10T10:45:42Z</time>
      </trkpt>
      <trkpt lat="48.2287" lon="6.7121">
        <ele>451.48</ele>
        <time>2019-04-10T10:45:51Z</time>
      </trkpt>
      <trkpt lat="48.22859" lon="6.71204">
        <ele>448.59</ele>
        <time>2019-04-10T10:46:02Z</time>
      </trkpt>
      <trkpt lat="48.2285" lon="6.71202">
        <ele>445.71</ele>
        <time>2019-04-10T10:46:12Z</time>
      </trkpt>
      <trkpt lat="48.22848" lon="6.71201">
        <ele>444.75</ele>
        <time>2019-04-10T10:46:15Z</time>
      </trkpt>
      <trkpt lat="48.22831" lon="6.71196">
        <ele>440.42</ele>
        <time>2019-04-10T10:46:30Z</time>
      </trkpt>
      <trkpt lat="48.2283" lon="6.71195">
        <ele>439.94</ele>
        <time>2019-04-10T10:46:31Z</time>
      </trkpt>
      <trkpt lat="48.22802" lon="6.7119">
        <ele>437.06</ele>
        <time>2019-04-10T10:46:51Z</time>
      </trkpt>
      <trkpt lat="48.22792" lon="6.71186">
        <ele>434.17</ele>
        <time>2019-04-10T10:47:10Z</time>
      </trkpt>
      <trkpt lat="48.22786" lon="6.71184">
        <ele>432.73</ele>
        <time>2019-04-10T10:47:17Z</time>
      </trkpt>
      <trkpt lat="48.22757" lon="6.71175">
        <ele>429.37</ele>
        <time>2019-04-10T10:47:37Z</time>
      </trkpt>
      <trkpt lat="48.22756" lon="6.71175">
        <ele>429.37</ele>
        <time>2019-04-10T10:47:38Z</time>
      </trkpt>
      <trkpt lat="48.22732" lon="6.71169">
        <ele>426</ele>
        <time>2019-04-10T10:48:02Z</time>
      </trkpt>
      <trkpt lat="48.2272" lon="6.71152">
        <ele>422.64</ele>
        <time>2019-04-10T10:48:18Z</time>
      </trkpt>
      <trkpt lat="48.22711" lon="6.71156">
        <ele>422.16</ele>
        <time>2019-04-10T10:48:41Z</time>
      </trkpt>
      <trkpt lat="48.22708" lon="6.71162">
        <ele>423.6</ele>
        <time>2019-04-10T10:48:48Z</time>
      </trkpt>
      <trkpt lat="48.22693" lon="6.71182">
        <ele>423.6</ele>
        <time>2019-04-10T10:49:03Z</time>
      </trkpt>
      <trkpt lat="48.22688" lon="6.71186">
        <ele>423.12</ele>
        <time>2019-04-10T10:49:09Z</time>
      </trkpt>
      <trkpt lat="48.22686" lon="6.71188">
        <ele>424.56</ele>
        <time>2019-04-10T10:49:11Z</time>
      </trkpt>
      <trkpt lat="48.22656" lon="6.71215">
        <ele>426</ele>
        <time>2019-04-10T10:49:35Z</time>
      </trkpt>
      <trkpt lat="48.22642" lon="6.71234">
        <ele>429.37</ele>
        <time>2019-04-10T10:49:51Z</time>
      </trkpt>
      <trkpt lat="48.22639" lon="6.71238">
        <ele>429.37</ele>
        <time>2019-04-10T10:49:56Z</time>
      </trkpt>
      <trkpt lat="48.22622" lon="6.71262">
        <ele>432.73</ele>
        <time>2019-04-10T10:50:12Z</time>
      </trkpt>
      <trkpt lat="48.22616" lon="6.71271">
        <ele>433.21</ele>
        <time>2019-04-10T10:50:21Z</time>
      </trkpt>
      <trkpt lat="48.22603" lon="6.71287">
        <ele>434.17</ele>
        <time>2019-04-10T10:50:46Z</time>
      </trkpt>
      <trkpt lat="48.22596" lon="6.71314">
        <ele>434.17</ele>
        <time>2019-04-10T10:51:10Z</time>
      </trkpt>
      <trkpt lat="48.22585" lon="6.71338">
        <ele>434.17</ele>
        <time>2019-04-10T10:51:34Z</time>
      </trkpt>
      <trkpt lat="48.22559" lon="6.71382">
        <ele>432.25</ele>
        <time>2019-04-10T10:51:57Z</time>
      </trkpt>
      <trkpt lat="48.22548" lon="6.71404">
        <ele>429.85</ele>
        <time>2019-04-10T10:52:19Z</time>
      </trkpt>
      <trkpt lat="48.22537" lon="6.7142">
        <ele>429.37</ele>
        <time>2019-04-10T10:52:43Z</time>
      </trkpt>
      <trkpt lat="48.22526" lon="6.71434">
        <ele>432.25</ele>
        <time>2019-04-10T10:52:56Z</time>
      </trkpt>
      <trkpt lat="48.22504" lon="6.71474">
        <ele>435.13</ele>
        <time>2019-04-10T10:53:13Z</time>
      </trkpt>
      <trkpt lat="48.22492" lon="6.71506">
        <ele>435.61</ele>
        <time>2019-04-10T10:53:32Z</time>
      </trkpt>
      <trkpt lat="48.22491" lon="6.71521">
        <ele>434.17</ele>
        <time>2019-04-10T10:53:39Z</time>
      </trkpt>
      <trkpt lat="48.2249" lon="6.7153">
        <ele>432.25</ele>
        <time>2019-04-10T10:53:44Z</time>
      </trkpt>
      <trkpt lat="48.22492" lon="6.71554">
        <ele>430.81</ele>
        <time>2019-04-10T10:54:04Z</time>
      </trkpt>
      <trkpt lat="48.22486" lon="6.71569">
        <ele>428.4</ele>
        <time>2019-04-10T10:54:16Z</time>
      </trkpt>
      <trkpt lat="48.22474" lon="6.71574">
        <ele>425.52</ele>
        <time>2019-04-10T10:54:30Z</time>
      </trkpt>
      <trkpt lat="48.22454" lon="6.71559">
        <ele>423.12</ele>
        <time>2019-04-10T10:54:52Z</time>
      </trkpt>
      <trkpt lat="48.22429" lon="6.71542">
        <ele>421.19</ele>
        <time>2019-04-10T10:55:14Z</time>
      </trkpt>
      <trkpt lat="48.22402" lon="6.71542">
        <ele>418.79</ele>
        <time>2019-04-10T10:55:36Z</time>
      </trkpt>
      <trkpt lat="48.22387" lon="6.71576">
        <ele>416.39</ele>
        <time>2019-04-10T10:55:59Z</time>
      </trkpt>
      <trkpt lat="48.22368" lon="6.71618">
        <ele>414.95</ele>
        <time>2019-04-10T10:56:23Z</time>
      </trkpt>
      <trkpt lat="48.2235" lon="6.71642">
        <ele>413.5</ele>
        <time>2019-04-10T10:56:44Z</time>
      </trkpt>
      <trkpt lat="48.22344" lon="6.71655">
        <ele>414.47</ele>
        <time>2019-04-10T10:57:05Z</time>
      </trkpt>
      <trkpt lat="48.22337" lon="6.71653">
        <ele>414.47</ele>
        <time>2019-04-10T10:57:33Z</time>
      </trkpt>
      <trkpt lat="48.22337" lon="6.7165">
        <ele>413.02</ele>
        <time>2019-04-10T10:57:46Z</time>
      </trkpt>
      <trkpt lat="48.22333" lon="6.71642">
        <ele>411.58</ele>
        <time>2019-04-10T10:57:53Z</time>
      </trkpt>
      <trkpt lat="48.22319" lon="6.71626">
        <ele>410.14</ele>
        <time>2019-04-10T10:58:15Z</time>
      </trkpt>
      <trkpt lat="48.22318" lon="6.7159">
        <ele>409.18</ele>
        <time>2019-04-10T10:58:35Z</time>
      </trkpt>
      <trkpt lat="48.2232" lon="6.71581">
        <ele>409.18</ele>
        <time>2019-04-10T10:58:40Z</time>
      </trkpt>
      <trkpt lat="48.2233" lon="6.71539">
        <ele>408.7</ele>
        <time>2019-04-10T10:59:03Z</time>
      </trkpt>
      <trkpt lat="48.22337" lon="6.71509">
        <ele>408.22</ele>
        <time>2019-04-10T10:59:24Z</time>
      </trkpt>
      <trkpt lat="48.22354" lon="6.71468">
        <ele>408.22</ele>
        <time>2019-04-10T10:59:48Z</time>
      </trkpt>
      <trkpt lat="48.22361" lon="6.71455">
        <ele>408.22</ele>
        <time>2019-04-10T10:59:56Z</time>
      </trkpt>
      <trkpt lat="48.22372" lon="6.71434">
        <ele>409.66</ele>
        <time>2019-04-10T11:00:10Z</time>
      </trkpt>
      <trkpt lat="48.22373" lon="6.71431">
        <ele>407.74</ele>
        <time>2019-04-10T11:00:12Z</time>
      </trkpt>
      <trkpt lat="48.22374" lon="6.71429">
        <ele>409.18</ele>
        <time>2019-04-10T11:00:14Z</time>
      </trkpt>
      <trkpt lat="48.22388" lon="6.71397">
        <ele>408.22</ele>
        <time>2019-04-10T11:00:35Z</time>
      </trkpt>
      <trkpt lat="48.22413" lon="6.71357">
        <ele>408.7</ele>
        <time>2019-04-10T11:01:01Z</time>
      </trkpt>
      <trkpt lat="48.22418" lon="6.71349">
        <ele>407.74</ele>
        <time>2019-04-10T11:01:06Z</time>
      </trkpt>
      <trkpt lat="48.22419" lon="6.71347">
        <ele>409.18</ele>
        <time>2019-04-10T11:01:08Z</time>
      </trkpt>
      <trkpt lat="48.22422" lon="6.71343">
        <ele>407.74</ele>
        <time>2019-04-10T11:01:10Z</time>
      </trkpt>
      <trkpt lat="48.22438" lon="6.7131">
        <ele>408.22</ele>
        <time>2019-04-10T11:01:33Z</time>
      </trkpt>
      <trkpt lat="48.22427" lon="6.71288">
        <ele>406.77</ele>
        <time>2019-04-10T11:01:54Z</time>
      </trkpt>
      <trkpt lat="48.22413" lon="6.71268">
        <ele>405.81</ele>
        <time>2019-04-10T11:02:06Z</time>
      </trkpt>
      <trkpt lat="48.22389" lon="6.7124">
        <ele>405.33</ele>
        <time>2019-04-10T11:02:31Z</time>
      </trkpt>
      <trkpt lat="48.22375" lon="6.71235">
        <ele>406.77</ele>
        <time>2019-04-10T11:02:41Z</time>
      </trkpt>
      <trkpt lat="48.22358" lon="6.71211">
        <ele>407.26</ele>
        <time>2019-04-10T11:03:04Z</time>
      </trkpt>
      <trkpt lat="48.22354" lon="6.71192">
        <ele>406.77</ele>
        <time>2019-04-10T11:03:11Z</time>
      </trkpt>
      <trkpt lat="48.22343" lon="6.7115">
        <ele>408.22</ele>
        <time>2019-04-10T11:03:35Z</time>
      </trkpt>
      <trkpt lat="48.22342" lon="6.7114">
        <ele>407.26</ele>
        <time>2019-04-10T11:03:43Z</time>
      </trkpt>
      <trkpt lat="48.22344" lon="6.71089">
        <ele>406.77</ele>
        <time>2019-04-10T11:04:06Z</time>
      </trkpt>
      <trkpt lat="48.22351" lon="6.71051">
        <ele>408.7</ele>
        <time>2019-04-10T11:04:27Z</time>
      </trkpt>
      <trkpt lat="48.22355" lon="6.71014">
        <ele>410.62</ele>
        <time>2019-04-10T11:04:51Z</time>
      </trkpt>
      <trkpt lat="48.22368" lon="6.70975">
        <ele>413.5</ele>
        <time>2019-04-10T11:05:16Z</time>
      </trkpt>
      <trkpt lat="48.22375" lon="6.70946">
        <ele>413.02</ele>
        <time>2019-04-10T11:05:37Z</time>
      </trkpt>
      <trkpt lat="48.22377" lon="6.70896">
        <ele>415.43</ele>
        <time>2019-04-10T11:05:59Z</time>
      </trkpt>
      <trkpt lat="48.22376" lon="6.70853">
        <ele>415.91</ele>
        <time>2019-04-10T11:06:22Z</time>
      </trkpt>
      <trkpt lat="48.22377" lon="6.70815">
        <ele>416.39</ele>
        <time>2019-04-10T11:06:46Z</time>
      </trkpt>
      <trkpt lat="48.22376" lon="6.70813">
        <ele>416.39</ele>
        <time>2019-04-10T11:06:47Z</time>
      </trkpt>
      <trkpt lat="48.22375" lon="6.7081">
        <ele>417.83</ele>
        <time>2019-04-10T11:06:49Z</time>
      </trkpt>
      <trkpt lat="48.22365" lon="6.70784">
        <ele>418.79</ele>
        <time>2019-04-10T11:07:11Z</time>
      </trkpt>
      <trkpt lat="48.22351" lon="6.70771">
        <ele>418.31</ele>
        <time>2019-04-10T11:07:30Z</time>
      </trkpt>
      <trkpt lat="48.22336" lon="6.7077">
        <ele>416.39</ele>
        <time>2019-04-10T11:07:52Z</time>
      </trkpt>
      <trkpt lat="48.2232" lon="6.70767">
        <ele>416.39</ele>
        <time>2019-04-10T11:08:11Z</time>
      </trkpt>
      <trkpt lat="48.22316" lon="6.70771">
        <ele>416.39</ele>
        <time>2019-04-10T11:08:34Z</time>
      </trkpt>
      <trkpt lat="48.22318" lon="6.70766">
        <ele>416.39</ele>
        <time>2019-04-10T11:08:59Z</time>
      </trkpt>
      <trkpt lat="48.22314" lon="6.70777">
        <ele>416.39</ele>
        <time>2019-04-10T11:09:24Z</time>
      </trkpt>
      <trkpt lat="48.22317" lon="6.70774">
        <ele>416.87</ele>
        <time>2019-04-10T11:09:49Z</time>
      </trkpt>
      <trkpt lat="48.22311" lon="6.70781">
        <ele>416.87</ele>
        <time>2019-04-10T11:10:17Z</time>
      </trkpt>
      <trkpt lat="48.22317" lon="6.70781">
        <ele>417.35</ele>
        <time>2019-04-10T11:10:43Z</time>
      </trkpt>
      <trkpt lat="48.22313" lon="6.70787">
        <ele>417.83</ele>
        <time>2019-04-10T11:11:06Z</time>
      </trkpt>
      <trkpt lat="48.22305" lon="6.70789">
        <ele>417.83</ele>
        <time>2019-04-10T11:11:35Z</time>
      </trkpt>
      <trkpt lat="48.22308" lon="6.70778">
        <ele>418.31</ele>
        <time>2019-04-10T11:12:02Z</time>
      </trkpt>
      <trkpt lat="48.2231" lon="6.70791">
        <ele>418.79</ele>
        <time>2019-04-10T11:12:23Z</time>
      </trkpt>
      <trkpt lat="48.22299" lon="6.70779">
        <ele>417.83</ele>
        <time>2019-04-10T11:12:44Z</time>
      </trkpt>
      <trkpt lat="48.22269" lon="6.70768">
        <ele>417.83</ele>
        <time>2019-04-10T11:13:10Z</time>
      </trkpt>
      <trkpt lat="48.22252" lon="6.70767">
        <ele>417.83</ele>
        <time>2019-04-10T11:13:22Z</time>
      </trkpt>
      <trkpt lat="48.22234" lon="6.70756">
        <ele>419.27</ele>
        <time>2019-04-10T11:13:43Z</time>
      </trkpt>
      <trkpt lat="48.22219" lon="6.70737">
        <ele>420.23</ele>
        <time>2019-04-10T11:13:56Z</time>
      </trkpt>
      <trkpt lat="48.22191" lon="6.70715">
        <ele>421.19</ele>
        <time>2019-04-10T11:14:15Z</time>
      </trkpt>
      <trkpt lat="48.22173" lon="6.70711">
        <ele>421.68</ele>
        <time>2019-04-10T11:14:33Z</time>
      </trkpt>
      <trkpt lat="48.22149" lon="6.70694">
        <ele>421.19</ele>
        <time>2019-04-10T11:14:55Z</time>
      </trkpt>
      <trkpt lat="48.22145" lon="6.70692">
        <ele>422.64</ele>
        <time>2019-04-10T11:14:59Z</time>
      </trkpt>
      <trkpt lat="48.22143" lon="6.70691">
        <ele>421.19</ele>
        <time>2019-04-10T11:15:01Z</time>
      </trkpt>
      <trkpt lat="48.22124" lon="6.70694">
        <ele>422.64</ele>
        <time>2019-04-10T11:15:19Z</time>
      </trkpt>
      <trkpt lat="48.2212" lon="6.70697">
        <ele>421.68</ele>
        <time>2019-04-10T11:15:23Z</time>
      </trkpt>
      <trkpt lat="48.22105" lon="6.70692">
        <ele>421.19</ele>
        <time>2019-04-10T11:15:36Z</time>
      </trkpt>
      <trkpt lat="48.22074" lon="6.70681">
        <ele>422.16</ele>
        <time>2019-04-10T11:16:00Z</time>
      </trkpt>
      <trkpt lat="48.22054" lon="6.70682">
        <ele>419.75</ele>
        <time>2019-04-10T11:16:23Z</time>
      </trkpt>
      <trkpt lat="48.22021" lon="6.70673">
        <ele>418.79</ele>
        <time>2019-04-10T11:16:46Z</time>
      </trkpt>
      <trkpt lat="48.21994" lon="6.70677">
        <ele>416.39</ele>
        <time>2019-04-10T11:17:07Z</time>
      </trkpt>
      <trkpt lat="48.21975" lon="6.70691">
        <ele>416.39</ele>
        <time>2019-04-10T11:17:27Z</time>
      </trkpt>
      <trkpt lat="48.21955" lon="6.70712">
        <ele>417.83</ele>
        <time>2019-04-10T11:17:45Z</time>
      </trkpt>
      <trkpt lat="48.21949" lon="6.70714">
        <ele>417.83</ele>
        <time>2019-04-10T11:17:52Z</time>
      </trkpt>
      <trkpt lat="48.21926" lon="6.70722">
        <ele>417.83</ele>
        <time>2019-04-10T11:18:16Z</time>
      </trkpt>
      <trkpt lat="48.21907" lon="6.70736">
        <ele>418.79</ele>
        <time>2019-04-10T11:18:38Z</time>
      </trkpt>
      <trkpt lat="48.21882" lon="6.70737">
        <ele>419.27</ele>
        <time>2019-04-10T11:19:01Z</time>
      </trkpt>
      <trkpt lat="48.21854" lon="6.70756">
        <ele>421.68</ele>
        <time>2019-04-10T11:19:26Z</time>
      </trkpt>
      <trkpt lat="48.2186" lon="6.70757">
        <ele>421.19</ele>
        <time>2019-04-10T11:19:39Z</time>
      </trkpt>
      <trkpt lat="48.21863" lon="6.70757">
        <ele>422.64</ele>
        <time>2019-04-10T11:19:43Z</time>
      </trkpt>
      <trkpt lat="48.21879" lon="6.70767">
        <ele>425.04</ele>
        <time>2019-04-10T11:20:03Z</time>
      </trkpt>
      <trkpt lat="48.21892" lon="6.70775">
        <ele>426.96</ele>
        <time>2019-04-10T11:20:16Z</time>
      </trkpt>
      <trkpt lat="48.21897" lon="6.70784">
        <ele>427.44</ele>
        <time>2019-04-10T11:20:24Z</time>
      </trkpt>
      <trkpt lat="48.21904" lon="6.70789">
        <ele>427.92</ele>
        <time>2019-04-10T11:20:34Z</time>
      </trkpt>
      <trkpt lat="48.21906" lon="6.70808">
        <ele>431.29</ele>
        <time>2019-04-10T11:20:47Z</time>
      </trkpt>
      <trkpt lat="48.21925" lon="6.70822">
        <ele>432.25</ele>
        <time>2019-04-10T11:21:10Z</time>
      </trkpt>
      <trkpt lat="48.21932" lon="6.70823">
        <ele>433.69</ele>
        <time>2019-04-10T11:21:15Z</time>
      </trkpt>
      <trkpt lat="48.21939" lon="6.70831">
        <ele>434.17</ele>
        <time>2019-04-10T11:21:35Z</time>
      </trkpt>
      <trkpt lat="48.21943" lon="6.70858">
        <ele>433.69</ele>
        <time>2019-04-10T11:21:58Z</time>
      </trkpt>
      <trkpt lat="48.21966" lon="6.70884">
        <ele>433.69</ele>
        <time>2019-04-10T11:22:19Z</time>
      </trkpt>
      <trkpt lat="48.21967" lon="6.70886">
        <ele>433.69</ele>
        <time>2019-04-10T11:22:20Z</time>
      </trkpt>
      <trkpt lat="48.2197" lon="6.70892">
        <ele>433.69</ele>
        <time>2019-04-10T11:22:24Z</time>
      </trkpt>
      <trkpt lat="48.21989" lon="6.70891">
        <ele>432.73</ele>
        <time>2019-04-10T11:22:39Z</time>
      </trkpt>
      <trkpt lat="48.21999" lon="6.70898">
        <ele>434.17</ele>
        <time>2019-04-10T11:22:52Z</time>
      </trkpt>
      <trkpt lat="48.2201" lon="6.70927">
        <ele>434.65</ele>
        <time>2019-04-10T11:23:13Z</time>
      </trkpt>
      <trkpt lat="48.22022" lon="6.70946">
        <ele>435.61</ele>
        <time>2019-04-10T11:23:31Z</time>
      </trkpt>
      <trkpt lat="48.22033" lon="6.70964">
        <ele>436.58</ele>
        <time>2019-04-10T11:23:52Z</time>
      </trkpt>
      <trkpt lat="48.22047" lon="6.7099">
        <ele>437.54</ele>
        <time>2019-04-10T11:24:11Z</time>
      </trkpt>
      <trkpt lat="48.22067" lon="6.71017">
        <ele>437.54</ele>
        <time>2019-04-10T11:24:31Z</time>
      </trkpt>
      <trkpt lat="48.22084" lon="6.71042">
        <ele>437.54</ele>
        <time>2019-04-10T11:24:50Z</time>
      </trkpt>
      <trkpt lat="48.22098" lon="6.71062">
        <ele>438.02</ele>
        <time>2019-04-10T11:25:10Z</time>
      </trkpt>
      <trkpt lat="48.22108" lon="6.71087">
        <ele>438.5</ele>
        <time>2019-04-10T11:25:30Z</time>
      </trkpt>
      <trkpt lat="48.2211" lon="6.71118">
        <ele>439.94</ele>
        <time>2019-04-10T11:25:50Z</time>
      </trkpt>
      <trkpt lat="48.22113" lon="6.71129">
        <ele>439.94</ele>
        <time>2019-04-10T11:25:57Z</time>
      </trkpt>
      <trkpt lat="48.22112" lon="6.71149">
        <ele>439.94</ele>
        <time>2019-04-10T11:26:08Z</time>
      </trkpt>
      <trkpt lat="48.22111" lon="6.71156">
        <ele>439.46</ele>
        <time>2019-04-10T11:26:11Z</time>
      </trkpt>
      <trkpt lat="48.2211" lon="6.71183">
        <ele>440.42</ele>
        <time>2019-04-10T11:26:25Z</time>
      </trkpt>
      <trkpt lat="48.2211" lon="6.71186">
        <ele>441.86</ele>
        <time>2019-04-10T11:26:27Z</time>
      </trkpt>
      <trkpt lat="48.22108" lon="6.71192">
        <ele>440.42</ele>
        <time>2019-04-10T11:26:31Z</time>
      </trkpt>
      <trkpt lat="48.22108" lon="6.71193">
        <ele>442.34</ele>
        <time>2019-04-10T11:26:32Z</time>
      </trkpt>
      <trkpt lat="48.22108" lon="6.71199">
        <ele>441.38</ele>
        <time>2019-04-10T11:26:36Z</time>
      </trkpt>
      <trkpt lat="48.22108" lon="6.71202">
        <ele>442.34</ele>
        <time>2019-04-10T11:26:38Z</time>
      </trkpt>
      <trkpt lat="48.22102" lon="6.71229">
        <ele>443.79</ele>
        <time>2019-04-10T11:26:56Z</time>
      </trkpt>
      <trkpt lat="48.22101" lon="6.71239">
        <ele>442.34</ele>
        <time>2019-04-10T11:27:01Z</time>
      </trkpt>
      <trkpt lat="48.221" lon="6.7124">
        <ele>444.27</ele>
        <time>2019-04-10T11:27:02Z</time>
      </trkpt>
      <trkpt lat="48.22093" lon="6.71255">
        <ele>443.79</ele>
        <time>2019-04-10T11:27:13Z</time>
      </trkpt>
      <trkpt lat="48.22092" lon="6.71256">
        <ele>445.23</ele>
        <time>2019-04-10T11:27:14Z</time>
      </trkpt>
      <trkpt lat="48.22087" lon="6.71262">
        <ele>445.71</ele>
        <time>2019-04-10T11:27:19Z</time>
      </trkpt>
      <trkpt lat="48.22081" lon="6.71274">
        <ele>446.19</ele>
        <time>2019-04-10T11:27:28Z</time>
      </trkpt>
      <trkpt lat="48.22071" lon="6.71286">
        <ele>445.71</ele>
        <time>2019-04-10T11:27:38Z</time>
      </trkpt>
      <trkpt lat="48.22069" lon="6.71288">
        <ele>447.15</ele>
        <time>2019-04-10T11:27:39Z</time>
      </trkpt>
      <trkpt lat="48.22067" lon="6.71292">
        <ele>447.15</ele>
        <time>2019-04-10T11:27:41Z</time>
      </trkpt>
      <trkpt lat="48.22057" lon="6.71311">
        <ele>448.59</ele>
        <time>2019-04-10T11:27:55Z</time>
      </trkpt>
      <trkpt lat="48.22054" lon="6.71316">
        <ele>449.07</ele>
        <time>2019-04-10T11:28:00Z</time>
      </trkpt>
      <trkpt lat="48.22043" lon="6.71336">
        <ele>448.59</ele>
        <time>2019-04-10T11:28:20Z</time>
      </trkpt>
      <trkpt lat="48.22037" lon="6.71348">
        <ele>450.03</ele>
        <time>2019-04-10T11:28:34Z</time>
      </trkpt>
      <trkpt lat="48.22025" lon="6.71365">
        <ele>450.52</ele>
        <time>2019-04-10T11:28:54Z</time>
      </trkpt>
      <trkpt lat="48.22012" lon="6.7137">
        <ele>451</ele>
        <time>2019-04-10T11:29:06Z</time>
      </trkpt>
      <trkpt lat="48.2199" lon="6.7138">
        <ele>451</ele>
        <time>2019-04-10T11:29:25Z</time>
      </trkpt>
      <trkpt lat="48.21988" lon="6.71381">
        <ele>451.96</ele>
        <time>2019-04-10T11:29:27Z</time>
      </trkpt>
      <trkpt lat="48.21962" lon="6.71399">
        <ele>454.36</ele>
        <time>2019-04-10T11:29:49Z</time>
      </trkpt>
      <trkpt lat="48.2196" lon="6.71402">
        <ele>452.92</ele>
        <time>2019-04-10T11:29:51Z</time>
      </trkpt>
      <trkpt lat="48.21958" lon="6.71404">
        <ele>454.36</ele>
        <time>2019-04-10T11:29:53Z</time>
      </trkpt>
      <trkpt lat="48.21937" lon="6.71425">
        <ele>456.28</ele>
        <time>2019-04-10T11:30:14Z</time>
      </trkpt>
      <trkpt lat="48.2191" lon="6.71435">
        <ele>457.72</ele>
        <time>2019-04-10T11:30:34Z</time>
      </trkpt>
      <trkpt lat="48.21903" lon="6.71438">
        <ele>459.17</ele>
        <time>2019-04-10T11:30:42Z</time>
      </trkpt>
      <trkpt lat="48.21887" lon="6.71452">
        <ele>461.09</ele>
        <time>2019-04-10T11:31:02Z</time>
      </trkpt>
      <trkpt lat="48.21894" lon="6.71475">
        <ele>463.01</ele>
        <time>2019-04-10T11:31:23Z</time>
      </trkpt>
      <trkpt lat="48.21873" lon="6.71481">
        <ele>463.49</ele>
        <time>2019-04-10T11:31:41Z</time>
      </trkpt>
      <trkpt lat="48.21861" lon="6.71485">
        <ele>465.42</ele>
        <time>2019-04-10T11:31:54Z</time>
      </trkpt>
      <trkpt lat="48.21857" lon="6.7149">
        <ele>465.42</ele>
        <time>2019-04-10T11:32:10Z</time>
      </trkpt>
      <trkpt lat="48.21858" lon="6.71493">
        <ele>464.93</ele>
        <time>2019-04-10T11:32:33Z</time>
      </trkpt>
      <trkpt lat="48.21852" lon="6.71477">
        <ele>465.9</ele>
        <time>2019-04-10T11:32:58Z</time>
      </trkpt>
      <trkpt lat="48.2186" lon="6.71482">
        <ele>466.38</ele>
        <time>2019-04-10T11:33:28Z</time>
      </trkpt>
      <trkpt lat="48.21853" lon="6.71478">
        <ele>466.86</ele>
        <time>2019-04-10T11:33:54Z</time>
      </trkpt>
      <trkpt lat="48.2185" lon="6.71486">
        <ele>467.34</ele>
        <time>2019-04-10T11:34:12Z</time>
      </trkpt>
      <trkpt lat="48.21856" lon="6.71482">
        <ele>467.34</ele>
        <time>2019-04-10T11:34:33Z</time>
      </trkpt>
      <trkpt lat="48.21859" lon="6.71474">
        <ele>467.34</ele>
        <time>2019-04-10T11:34:56Z</time>
      </trkpt>
      <trkpt lat="48.21856" lon="6.71488">
        <ele>467.82</ele>
        <time>2019-04-10T11:35:18Z</time>
      </trkpt>
      <trkpt lat="48.21855" lon="6.71485">
        <ele>467.82</ele>
        <time>2019-04-10T11:35:40Z</time>
      </trkpt>
      <trkpt lat="48.21856" lon="6.71485">
        <ele>467.82</ele>
        <time>2019-04-10T11:36:01Z</time>
      </trkpt>
      <trkpt lat="48.21857" lon="6.71492">
        <ele>468.3</ele>
        <time>2019-04-10T11:36:24Z</time>
      </trkpt>
      <trkpt lat="48.21857" lon="6.71477">
        <ele>468.3</ele>
        <time>2019-04-10T11:36:48Z</time>
      </trkpt>
      <trkpt lat="48.21857" lon="6.71485">
        <ele>468.3</ele>
        <time>2019-04-10T11:37:07Z</time>
      </trkpt>
      <trkpt lat="48.21856" lon="6.71482">
        <ele>468.78</ele>
        <time>2019-04-10T11:37:33Z</time>
      </trkpt>
      <trkpt lat="48.21856" lon="6.7149">
        <ele>468.78</ele>
        <time>2019-04-10T11:37:52Z</time>
      </trkpt>
      <trkpt lat="48.21856" lon="6.71491">
        <ele>469.26</ele>
        <time>2019-04-10T11:38:14Z</time>
      </trkpt>
      <trkpt lat="48.21853" lon="6.7148">
        <ele>470.7</ele>
        <time>2019-04-10T11:38:35Z</time>
      </trkpt>
      <trkpt lat="48.21863" lon="6.71472">
        <ele>472.63</ele>
        <time>2019-04-10T11:38:48Z</time>
      </trkpt>
      <trkpt lat="48.21886" lon="6.71462">
        <ele>474.55</ele>
        <time>2019-04-10T11:39:04Z</time>
      </trkpt>
      <trkpt lat="48.21902" lon="6.71436">
        <ele>475.99</ele>
        <time>2019-04-10T11:39:26Z</time>
      </trkpt>
      <trkpt lat="48.2192" lon="6.71411">
        <ele>477.43</ele>
        <time>2019-04-10T11:39:47Z</time>
      </trkpt>
      <trkpt lat="48.2192" lon="6.71405">
        <ele>478.39</ele>
        <time>2019-04-10T11:39:50Z</time>
      </trkpt>
      <trkpt lat="48.21921" lon="6.71403">
        <ele>476.95</ele>
        <time>2019-04-10T11:39:52Z</time>
      </trkpt>
      <trkpt lat="48.21922" lon="6.714">
        <ele>478.39</ele>
        <time>2019-04-10T11:39:54Z</time>
      </trkpt>
      <trkpt lat="48.21925" lon="6.71386">
        <ele>478.87</ele>
        <time>2019-04-10T11:40:07Z</time>
      </trkpt>
      <trkpt lat="48.21939" lon="6.71358">
        <ele>480.32</ele>
        <time>2019-04-10T11:40:28Z</time>
      </trkpt>
      <trkpt lat="48.21952" lon="6.7134">
        <ele>479.84</ele>
        <time>2019-04-10T11:40:50Z</time>
      </trkpt>
      <trkpt lat="48.21974" lon="6.71324">
        <ele>482.24</ele>
        <time>2019-04-10T11:41:09Z</time>
      </trkpt>
      <trkpt lat="48.21996" lon="6.71299">
        <ele>484.64</ele>
        <time>2019-04-10T11:41:33Z</time>
      </trkpt>
      <trkpt lat="48.21997" lon="6.71298">
        <ele>484.64</ele>
        <time>2019-04-10T11:41:34Z</time>
      </trkpt>
      <trkpt lat="48.22019" lon="6.71282">
        <ele>486.08</ele>
        <time>2019-04-10T11:41:59Z</time>
      </trkpt>
      <trkpt lat="48.22045" lon="6.71264">
        <ele>487.05</ele>
        <time>2019-04-10T11:42:24Z</time>
      </trkpt>
      <trkpt lat="48.22051" lon="6.71258">
        <ele>487.05</ele>
        <time>2019-04-10T11:42:29Z</time>
      </trkpt>
      <trkpt lat="48.22052" lon="6.71255">
        <ele>488.01</ele>
        <time>2019-04-10T11:42:31Z</time>
      </trkpt>
      <trkpt lat="48.22062" lon="6.71244">
        <ele>488.01</ele>
        <time>2019-04-10T11:42:42Z</time>
      </trkpt>
      <trkpt lat="48.22061" lon="6.71238">
        <ele>489.45</ele>
        <time>2019-04-10T11:42:47Z</time>
      </trkpt>
      <trkpt lat="48.22065" lon="6.71229">
        <ele>490.89</ele>
        <time>2019-04-10T11:42:58Z</time>
      </trkpt>
      <trkpt lat="48.22067" lon="6.71225">
        <ele>490.41</ele>
        <time>2019-04-10T11:43:02Z</time>
      </trkpt>
      <trkpt lat="48.22068" lon="6.71211">
        <ele>489.93</ele>
        <time>2019-04-10T11:43:11Z</time>
      </trkpt>
      <trkpt lat="48.22068" lon="6.71207">
        <ele>491.85</ele>
        <time>2019-04-10T11:43:13Z</time>
      </trkpt>
      <trkpt lat="48.2207" lon="6.71191">
        <ele>492.33</ele>
        <time>2019-04-10T11:43:25Z</time>
      </trkpt>
      <trkpt lat="48.22071" lon="6.71181">
        <ele>491.85</ele>
        <time>2019-04-10T11:43:31Z</time>
      </trkpt>
      <trkpt lat="48.22073" lon="6.71174">
        <ele>494.26</ele>
        <time>2019-04-10T11:43:36Z</time>
      </trkpt>
      <trkpt lat="48.22073" lon="6.71172">
        <ele>492.81</ele>
        <time>2019-04-10T11:43:38Z</time>
      </trkpt>
      <trkpt lat="48.22073" lon="6.71169">
        <ele>494.26</ele>
        <time>2019-04-10T11:43:40Z</time>
      </trkpt>
      <trkpt lat="48.22062" lon="6.71148">
        <ele>496.18</ele>
        <time>2019-04-10T11:43:59Z</time>
      </trkpt>
      <trkpt lat="48.22052" lon="6.7114">
        <ele>497.62</ele>
        <time>2019-04-10T11:44:14Z</time>
      </trkpt>
      <trkpt lat="48.22034" lon="6.71129">
        <ele>500.5</ele>
        <time>2019-04-10T11:44:38Z</time>
      </trkpt>
      <trkpt lat="48.22031" lon="6.71129">
        <ele>499.06</ele>
        <time>2019-04-10T11:44:41Z</time>
      </trkpt>
      <trkpt lat="48.22029" lon="6.7113">
        <ele>500.98</ele>
        <time>2019-04-10T11:44:43Z</time>
      </trkpt>
      <trkpt lat="48.2202" lon="6.71125">
        <ele>502.43</ele>
        <time>2019-04-10T11:44:53Z</time>
      </trkpt>
      <trkpt lat="48.22018" lon="6.71124">
        <ele>501.46</ele>
        <time>2019-04-10T11:44:56Z</time>
      </trkpt>
      <trkpt lat="48.22018" lon="6.71124">
        <ele>503.87</ele>
        <time>2019-04-10T11:44:59Z</time>
      </trkpt>
      <trkpt lat="48.22017" lon="6.71123">
        <ele>501.95</ele>
        <time>2019-04-10T11:45:00Z</time>
      </trkpt>
      <trkpt lat="48.22016" lon="6.71123">
        <ele>503.39</ele>
        <time>2019-04-10T11:45:03Z</time>
      </trkpt>
      <trkpt lat="48.22016" lon="6.71123">
        <ele>501.46</ele>
        <time>2019-04-10T11:45:05Z</time>
      </trkpt>
      <trkpt lat="48.22016" lon="6.71124">
        <ele>502.91</ele>
        <time>2019-04-10T11:45:06Z</time>
      </trkpt>
      <trkpt lat="48.22016" lon="6.71124">
        <ele>504.35</ele>
        <time>2019-04-10T11:45:07Z</time>
      </trkpt>
      <trkpt lat="48.22016" lon="6.71124">
        <ele>502.43</ele>
        <time>2019-04-10T11:45:08Z</time>
      </trkpt>
      <trkpt lat="48.22016" lon="6.71123">
        <ele>502.43</ele>
        <time>2019-04-10T11:45:12Z</time>
      </trkpt>
      <trkpt lat="48.22016" lon="6.71122">
        <ele>504.35</ele>
        <time>2019-04-10T11:45:14Z</time>
      </trkpt>
      <trkpt lat="48.2201" lon="6.7112">
        <ele>503.39</ele>
        <time>2019-04-10T11:45:21Z</time>
      </trkpt>
      <trkpt lat="48.22009" lon="6.71119">
        <ele>505.31</ele>
        <time>2019-04-10T11:45:22Z</time>
      </trkpt>
      <trkpt lat="48.22002" lon="6.71113">
        <ele>506.75</ele>
        <time>2019-04-10T11:45:29Z</time>
      </trkpt>
      <trkpt lat="48.22001" lon="6.71113">
        <ele>505.31</ele>
        <time>2019-04-10T11:45:31Z</time>
      </trkpt>
      <trkpt lat="48.21999" lon="6.71114">
        <ele>506.75</ele>
        <time>2019-04-10T11:45:33Z</time>
      </trkpt>
      <trkpt lat="48.21998" lon="6.71115">
        <ele>505.79</ele>
        <time>2019-04-10T11:45:35Z</time>
      </trkpt>
      <trkpt lat="48.21996" lon="6.71115">
        <ele>507.23</ele>
        <time>2019-04-10T11:45:37Z</time>
      </trkpt>
      <trkpt lat="48.21985" lon="6.71114">
        <ele>508.67</ele>
        <time>2019-04-10T11:45:52Z</time>
      </trkpt>
      <trkpt lat="48.21959" lon="6.71102">
        <ele>510.12</ele>
        <time>2019-04-10T11:46:13Z</time>
      </trkpt>
      <trkpt lat="48.21942" lon="6.71103">
        <ele>512.04</ele>
        <time>2019-04-10T11:46:23Z</time>
      </trkpt>
      <trkpt lat="48.21931" lon="6.71109">
        <ele>513</ele>
        <time>2019-04-10T11:46:43Z</time>
      </trkpt>
      <trkpt lat="48.21918" lon="6.71095">
        <ele>514.44</ele>
        <time>2019-04-10T11:46:54Z</time>
      </trkpt>
      <trkpt lat="48.21896" lon="6.7107">
        <ele>513.96</ele>
        <time>2019-04-10T11:47:08Z</time>
      </trkpt>
      <trkpt lat="48.21893" lon="6.7107">
        <ele>516.85</ele>
        <time>2019-04-10T11:47:13Z</time>
      </trkpt>
      <trkpt lat="48.21889" lon="6.71068">
        <ele>516.37</ele>
        <time>2019-04-10T11:47:23Z</time>
      </trkpt>
      <trkpt lat="48.21888" lon="6.71069">
        <ele>518.29</ele>
        <time>2019-04-10T11:47:25Z</time>
      </trkpt>
      <trkpt lat="48.21887" lon="6.7107">
        <ele>516.85</ele>
        <time>2019-04-10T11:47:27Z</time>
      </trkpt>
      <trkpt lat="48.21886" lon="6.7107">
        <ele>518.77</ele>
        <time>2019-04-10T11:47:29Z</time>
      </trkpt>
      <trkpt lat="48.21881" lon="6.71057">
        <ele>520.69</ele>
        <time>2019-04-10T11:47:47Z</time>
      </trkpt>
      <trkpt lat="48.21869" lon="6.71055">
        <ele>521.65</ele>
        <time>2019-04-10T11:47:51Z</time>
      </trkpt>
      <trkpt lat="48.21847" lon="6.71057">
        <ele>523.09</ele>
        <time>2019-04-10T11:48:03Z</time>
      </trkpt>
      <trkpt lat="48.21837" lon="6.71056">
        <ele>525.02</ele>
        <time>2019-04-10T11:48:15Z</time>
      </trkpt>
      <trkpt lat="48.21832" lon="6.71055">
        <ele>523.58</ele>
        <time>2019-04-10T11:48:21Z</time>
      </trkpt>
      <trkpt lat="48.21829" lon="6.71055">
        <ele>525.5</ele>
        <time>2019-04-10T11:48:23Z</time>
      </trkpt>
      <trkpt lat="48.21816" lon="6.71064">
        <ele>525.5</ele>
        <time>2019-04-10T11:48:38Z</time>
      </trkpt>
      <trkpt lat="48.21813" lon="6.71067">
        <ele>527.9</ele>
        <time>2019-04-10T11:48:40Z</time>
      </trkpt>
      <trkpt lat="48.2181" lon="6.71069">
        <ele>526.46</ele>
        <time>2019-04-10T11:48:42Z</time>
      </trkpt>
      <trkpt lat="48.21806" lon="6.71069">
        <ele>528.38</ele>
        <time>2019-04-10T11:48:44Z</time>
      </trkpt>
      <trkpt lat="48.21804" lon="6.7107">
        <ele>526.94</ele>
        <time>2019-04-10T11:48:46Z</time>
      </trkpt>
      <trkpt lat="48.21795" lon="6.71073">
        <ele>529.82</ele>
        <time>2019-04-10T11:48:53Z</time>
      </trkpt>
      <trkpt lat="48.21792" lon="6.71075">
        <ele>528.38</ele>
        <time>2019-04-10T11:48:56Z</time>
      </trkpt>
      <trkpt lat="48.21784" lon="6.71092">
        <ele>529.82</ele>
        <time>2019-04-10T11:49:12Z</time>
      </trkpt>
      <trkpt lat="48.21774" lon="6.71105">
        <ele>533.19</ele>
        <time>2019-04-10T11:49:24Z</time>
      </trkpt>
      <trkpt lat="48.21766" lon="6.71124">
        <ele>535.11</ele>
        <time>2019-04-10T11:49:37Z</time>
      </trkpt>
      <trkpt lat="48.21759" lon="6.71136">
        <ele>535.59</ele>
        <time>2019-04-10T11:49:47Z</time>
      </trkpt>
      <trkpt lat="48.21747" lon="6.71154">
        <ele>538.96</ele>
        <time>2019-04-10T11:50:03Z</time>
      </trkpt>
      <trkpt lat="48.21745" lon="6.71158">
        <ele>535.59</ele>
        <time>2019-04-10T11:50:06Z</time>
      </trkpt>
      <trkpt lat="48.21744" lon="6.71159">
        <ele>538.48</ele>
        <time>2019-04-10T11:50:07Z</time>
      </trkpt>
      <trkpt lat="48.21744" lon="6.7116">
        <ele>538.48</ele>
        <time>2019-04-10T11:50:08Z</time>
      </trkpt>
      <trkpt lat="48.21742" lon="6.71163">
        <ele>537.03</ele>
        <time>2019-04-10T11:50:10Z</time>
      </trkpt>
      <trkpt lat="48.21737" lon="6.71172">
        <ele>539.92</ele>
        <time>2019-04-10T11:50:17Z</time>
      </trkpt>
      <trkpt lat="48.21735" lon="6.71175">
        <ele>539.44</ele>
        <time>2019-04-10T11:50:22Z</time>
      </trkpt>
      <trkpt lat="48.2173" lon="6.71177">
        <ele>541.36</ele>
        <time>2019-04-10T11:50:42Z</time>
      </trkpt>
      <trkpt lat="48.21731" lon="6.71206">
        <ele>542.8</ele>
        <time>2019-04-10T11:51:03Z</time>
      </trkpt>
      <trkpt lat="48.21724" lon="6.71207">
        <ele>542.32</ele>
        <time>2019-04-10T11:51:19Z</time>
      </trkpt>
      <trkpt lat="48.21716" lon="6.71205">
        <ele>538.96</ele>
        <time>2019-04-10T11:51:29Z</time>
      </trkpt>
      <trkpt lat="48.21714" lon="6.71195">
        <ele>535.59</ele>
        <time>2019-04-10T11:51:44Z</time>
      </trkpt>
      <trkpt lat="48.21711" lon="6.71188">
        <ele>533.67</ele>
        <time>2019-04-10T11:51:51Z</time>
      </trkpt>
      <trkpt lat="48.21708" lon="6.71179">
        <ele>530.79</ele>
        <time>2019-04-10T11:52:09Z</time>
      </trkpt>
      <trkpt lat="48.21696" lon="6.71187">
        <ele>526.46</ele>
        <time>2019-04-10T11:52:28Z</time>
      </trkpt>
      <trkpt lat="48.21695" lon="6.71188">
        <ele>526.46</ele>
        <time>2019-04-10T11:52:29Z</time>
      </trkpt>
      <trkpt lat="48.21694" lon="6.71191">
        <ele>528.38</ele>
        <time>2019-04-10T11:52:31Z</time>
      </trkpt>
      <trkpt lat="48.21694" lon="6.71201">
        <ele>526.94</ele>
        <time>2019-04-10T11:52:40Z</time>
      </trkpt>
      <trkpt lat="48.21686" lon="6.71218">
        <ele>525.02</ele>
        <time>2019-04-10T11:52:59Z</time>
      </trkpt>
      <trkpt lat="48.21681" lon="6.7123">
        <ele>521.65</ele>
        <time>2019-04-10T11:53:10Z</time>
      </trkpt>
      <trkpt lat="48.21674" lon="6.71238">
        <ele>518.77</ele>
        <time>2019-04-10T11:53:21Z</time>
      </trkpt>
      <trkpt lat="48.21676" lon="6.71242">
        <ele>518.77</ele>
        <time>2019-04-10T11:53:42Z</time>
      </trkpt>
      <trkpt lat="48.21675" lon="6.71239">
        <ele>520.21</ele>
        <time>2019-04-10T11:53:46Z</time>
      </trkpt>
      <trkpt lat="48.21685" lon="6.71255">
        <ele>518.77</ele>
        <time>2019-04-10T11:54:10Z</time>
      </trkpt>
      <trkpt lat="48.2168" lon="6.71243">
        <ele>518.29</ele>
        <time>2019-04-10T11:54:29Z</time>
      </trkpt>
      <trkpt lat="48.21683" lon="6.71249">
        <ele>519.73</ele>
        <time>2019-04-10T11:54:39Z</time>
      </trkpt>
      <trkpt lat="48.21677" lon="6.71242">
        <ele>520.69</ele>
        <time>2019-04-10T11:55:01Z</time>
      </trkpt>
      <trkpt lat="48.21677" lon="6.71242">
        <ele>519.73</ele>
        <time>2019-04-10T11:55:20Z</time>
      </trkpt>
      <trkpt lat="48.21679" lon="6.71247">
        <ele>519.25</ele>
        <time>2019-04-10T11:55:44Z</time>
      </trkpt>
      <trkpt lat="48.2168" lon="6.7125">
        <ele>519.25</ele>
        <time>2019-04-10T11:56:07Z</time>
      </trkpt>
      <trkpt lat="48.21681" lon="6.71248">
        <ele>519.25</ele>
        <time>2019-04-10T11:56:32Z</time>
      </trkpt>
      <trkpt lat="48.21681" lon="6.71243">
        <ele>519.25</ele>
        <time>2019-04-10T11:56:58Z</time>
      </trkpt>
      <trkpt lat="48.21675" lon="6.71244">
        <ele>519.25</ele>
        <time>2019-04-10T11:57:28Z</time>
      </trkpt>
      <trkpt lat="48.21675" lon="6.71241">
        <ele>522.61</ele>
        <time>2019-04-10T11:57:37Z</time>
      </trkpt>
      <trkpt lat="48.21678" lon="6.71242">
        <ele>519.25</ele>
        <time>2019-04-10T11:57:44Z</time>
      </trkpt>
      <trkpt lat="48.21678" lon="6.71242">
        <ele>525.02</ele>
        <time>2019-04-10T11:57:45Z</time>
      </trkpt>
      <trkpt lat="48.21678" lon="6.71241">
        <ele>521.65</ele>
        <time>2019-04-10T11:57:46Z</time>
      </trkpt>
      <trkpt lat="48.21686" lon="6.7123">
        <ele>525.02</ele>
        <time>2019-04-10T11:58:00Z</time>
      </trkpt>
      <trkpt lat="48.21689" lon="6.71217">
        <ele>527.9</ele>
        <time>2019-04-10T11:58:15Z</time>
      </trkpt>
      <trkpt lat="48.21701" lon="6.71201">
        <ele>530.3</ele>
        <time>2019-04-10T11:58:29Z</time>
      </trkpt>
      <trkpt lat="48.21713" lon="6.71185">
        <ele>531.27</ele>
        <time>2019-04-10T11:58:52Z</time>
      </trkpt>
      <trkpt lat="48.21714" lon="6.71185">
        <ele>532.23</ele>
        <time>2019-04-10T11:58:55Z</time>
      </trkpt>
      <trkpt lat="48.21718" lon="6.71193">
        <ele>536.55</ele>
        <time>2019-04-10T11:59:07Z</time>
      </trkpt>
      <trkpt lat="48.21718" lon="6.71194">
        <ele>536.55</ele>
        <time>2019-04-10T11:59:08Z</time>
      </trkpt>
      <trkpt lat="48.21717" lon="6.71201">
        <ele>536.07</ele>
        <time>2019-04-10T11:59:14Z</time>
      </trkpt>
      <trkpt lat="48.21717" lon="6.71204">
        <ele>537.99</ele>
        <time>2019-04-10T11:59:18Z</time>
      </trkpt>
      <trkpt lat="48.21717" lon="6.71205">
        <ele>539.44</ele>
        <time>2019-04-10T11:59:20Z</time>
      </trkpt>
      <trkpt lat="48.21722" lon="6.71203">
        <ele>541.36</ele>
        <time>2019-04-10T11:59:30Z</time>
      </trkpt>
      <trkpt lat="48.21725" lon="6.71208">
        <ele>543.76</ele>
        <time>2019-04-10T11:59:42Z</time>
      </trkpt>
      <trkpt lat="48.21731" lon="6.71206">
        <ele>544.24</ele>
        <time>2019-04-10T12:00:05Z</time>
      </trkpt>
      <trkpt lat="48.21732" lon="6.71211">
        <ele>545.2</ele>
        <time>2019-04-10T12:00:32Z</time>
      </trkpt>
      <trkpt lat="48.21728" lon="6.71212">
        <ele>545.69</ele>
        <time>2019-04-10T12:00:59Z</time>
      </trkpt>
      <trkpt lat="48.21727" lon="6.71216">
        <ele>545.69</ele>
        <time>2019-04-10T12:01:22Z</time>
      </trkpt>
      <trkpt lat="48.21725" lon="6.71209">
        <ele>545.69</ele>
        <time>2019-04-10T12:01:47Z</time>
      </trkpt>
      <trkpt lat="48.21727" lon="6.71211">
        <ele>546.17</ele>
        <time>2019-04-10T12:02:15Z</time>
      </trkpt>
      <trkpt lat="48.2173" lon="6.71202">
        <ele>545.2</ele>
        <time>2019-04-10T12:02:39Z</time>
      </trkpt>
      <trkpt lat="48.21745" lon="6.71173">
        <ele>542.8</ele>
        <time>2019-04-10T12:03:00Z</time>
      </trkpt>
      <trkpt lat="48.2176" lon="6.71142">
        <ele>539.92</ele>
        <time>2019-04-10T12:03:23Z</time>
      </trkpt>
      <trkpt lat="48.21778" lon="6.7112">
        <ele>537.51</ele>
        <time>2019-04-10T12:03:44Z</time>
      </trkpt>
      <trkpt lat="48.21789" lon="6.71097">
        <ele>535.59</ele>
        <time>2019-04-10T12:04:02Z</time>
      </trkpt>
      <trkpt lat="48.21807" lon="6.71078">
        <ele>533.19</ele>
        <time>2019-04-10T12:04:22Z</time>
      </trkpt>
      <trkpt lat="48.21827" lon="6.71063">
        <ele>531.27</ele>
        <time>2019-04-10T12:04:41Z</time>
      </trkpt>
      <trkpt lat="48.2183" lon="6.7106">
        <ele>529.82</ele>
        <time>2019-04-10T12:04:48Z</time>
      </trkpt>
      <trkpt lat="48.21848" lon="6.71057">
        <ele>527.42</ele>
        <time>2019-04-10T12:05:09Z</time>
      </trkpt>
      <trkpt lat="48.21868" lon="6.71069">
        <ele>525.02</ele>
        <time>2019-04-10T12:05:32Z</time>
      </trkpt>
      <trkpt lat="48.21881" lon="6.71083">
        <ele>522.13</ele>
        <time>2019-04-10T12:05:47Z</time>
      </trkpt>
      <trkpt lat="48.21904" lon="6.71085">
        <ele>518.77</ele>
        <time>2019-04-10T12:06:04Z</time>
      </trkpt>
      <trkpt lat="48.21898" lon="6.71071">
        <ele>516.37</ele>
        <time>2019-04-10T12:06:24Z</time>
      </trkpt>
      <trkpt lat="48.21892" lon="6.71041">
        <ele>515.4</ele>
        <time>2019-04-10T12:06:44Z</time>
      </trkpt>
      <trkpt lat="48.21892" lon="6.71035">
        <ele>513.96</ele>
        <time>2019-04-10T12:06:46Z</time>
      </trkpt>
      <trkpt lat="48.21886" lon="6.71009">
        <ele>512.04</ele>
        <time>2019-04-10T12:07:01Z</time>
      </trkpt>
      <trkpt lat="48.21876" lon="6.70988">
        <ele>510.12</ele>
        <time>2019-04-10T12:07:20Z</time>
      </trkpt>
      <trkpt lat="48.21864" lon="6.70978">
        <ele>508.19</ele>
        <time>2019-04-10T12:07:33Z</time>
      </trkpt>
      <trkpt lat="48.21848" lon="6.70982">
        <ele>505.31</ele>
        <time>2019-04-10T12:07:55Z</time>
      </trkpt>
      <trkpt lat="48.21835" lon="6.70989">
        <ele>502.91</ele>
        <time>2019-04-10T12:08:10Z</time>
      </trkpt>
      <trkpt lat="48.2183" lon="6.70991">
        <ele>501.46</ele>
        <time>2019-04-10T12:08:16Z</time>
      </trkpt>
      <trkpt lat="48.21809" lon="6.70999">
        <ele>498.1</ele>
        <time>2019-04-10T12:08:35Z</time>
      </trkpt>
      <trkpt lat="48.21788" lon="6.71009">
        <ele>495.22</ele>
        <time>2019-04-10T12:08:52Z</time>
      </trkpt>
      <trkpt lat="48.21762" lon="6.71025">
        <ele>492.81</ele>
        <time>2019-04-10T12:09:14Z</time>
      </trkpt>
      <trkpt lat="48.21744" lon="6.71028">
        <ele>489.45</ele>
        <time>2019-04-10T12:09:27Z</time>
      </trkpt>
      <trkpt lat="48.21738" lon="6.71029">
        <ele>490.89</ele>
        <time>2019-04-10T12:09:32Z</time>
      </trkpt>
      <trkpt lat="48.21734" lon="6.71031">
        <ele>488.97</ele>
        <time>2019-04-10T12:09:35Z</time>
      </trkpt>
      <trkpt lat="48.21705" lon="6.71035">
        <ele>486.08</ele>
        <time>2019-04-10T12:09:53Z</time>
      </trkpt>
      <trkpt lat="48.21689" lon="6.71049">
        <ele>483.2</ele>
        <time>2019-04-10T12:10:09Z</time>
      </trkpt>
      <trkpt lat="48.21684" lon="6.71052">
        <ele>482.72</ele>
        <time>2019-04-10T12:10:14Z</time>
      </trkpt>
      <trkpt lat="48.21659" lon="6.71074">
        <ele>480.32</ele>
        <time>2019-04-10T12:10:32Z</time>
      </trkpt>
      <trkpt lat="48.2165" lon="6.71085">
        <ele>479.35</ele>
        <time>2019-04-10T12:10:40Z</time>
      </trkpt>
      <trkpt lat="48.21642" lon="6.71105">
        <ele>477.91</ele>
        <time>2019-04-10T12:10:53Z</time>
      </trkpt>
      <trkpt lat="48.21634" lon="6.7114">
        <ele>475.51</ele>
        <time>2019-04-10T12:11:12Z</time>
      </trkpt>
      <trkpt lat="48.21626" lon="6.71168">
        <ele>474.07</ele>
        <time>2019-04-10T12:11:30Z</time>
      </trkpt>
      <trkpt lat="48.21622" lon="6.71181">
        <ele>473.11</ele>
        <time>2019-04-10T12:11:39Z</time>
      </trkpt>
      <trkpt lat="48.21615" lon="6.71215">
        <ele>471.66</ele>
        <time>2019-04-10T12:11:59Z</time>
      </trkpt>
      <trkpt lat="48.21618" lon="6.7124">
        <ele>469.74</ele>
        <time>2019-04-10T12:12:12Z</time>
      </trkpt>
      <trkpt lat="48.21618" lon="6.71252">
        <ele>469.74</ele>
        <time>2019-04-10T12:12:19Z</time>
      </trkpt>
      <trkpt lat="48.21623" lon="6.7126">
        <ele>468.3</ele>
        <time>2019-04-10T12:12:36Z</time>
      </trkpt>
      <trkpt lat="48.21618" lon="6.71258">
        <ele>465.9</ele>
        <time>2019-04-10T12:12:51Z</time>
      </trkpt>
      <trkpt lat="48.21618" lon="6.71254">
        <ele>462.53</ele>
        <time>2019-04-10T12:13:03Z</time>
      </trkpt>
      <trkpt lat="48.21616" lon="6.71245">
        <ele>462.05</ele>
        <time>2019-04-10T12:13:08Z</time>
      </trkpt>
      <trkpt lat="48.21609" lon="6.71216">
        <ele>459.17</ele>
        <time>2019-04-10T12:13:36Z</time>
      </trkpt>
      <trkpt lat="48.21602" lon="6.71186">
        <ele>457.24</ele>
        <time>2019-04-10T12:13:59Z</time>
      </trkpt>
      <trkpt lat="48.21601" lon="6.71155">
        <ele>454.84</ele>
        <time>2019-04-10T12:14:18Z</time>
      </trkpt>
      <trkpt lat="48.21602" lon="6.71131">
        <ele>451</ele>
        <time>2019-04-10T12:14:36Z</time>
      </trkpt>
      <trkpt lat="48.21602" lon="6.71129">
        <ele>451</ele>
        <time>2019-04-10T12:14:37Z</time>
      </trkpt>
      <trkpt lat="48.21593" lon="6.71099">
        <ele>447.63</ele>
        <time>2019-04-10T12:14:55Z</time>
      </trkpt>
      <trkpt lat="48.21587" lon="6.71074">
        <ele>445.71</ele>
        <time>2019-04-10T12:15:15Z</time>
      </trkpt>
      <trkpt lat="48.21582" lon="6.71062">
        <ele>444.27</ele>
        <time>2019-04-10T12:15:22Z</time>
      </trkpt>
      <trkpt lat="48.21573" lon="6.71059">
        <ele>442.34</ele>
        <time>2019-04-10T12:15:27Z</time>
      </trkpt>
      <trkpt lat="48.21564" lon="6.71056">
        <ele>441.86</ele>
        <time>2019-04-10T12:15:33Z</time>
      </trkpt>
      <trkpt lat="48.21551" lon="6.71049">
        <ele>440.42</ele>
        <time>2019-04-10T12:15:46Z</time>
      </trkpt>
      <trkpt lat="48.21548" lon="6.71042">
        <ele>438.98</ele>
        <time>2019-04-10T12:16:03Z</time>
      </trkpt>
      <trkpt lat="48.2155" lon="6.71039">
        <ele>439.46</ele>
        <time>2019-04-10T12:16:29Z</time>
      </trkpt>
      <trkpt lat="48.21548" lon="6.71044">
        <ele>439.46</ele>
        <time>2019-04-10T12:16:48Z</time>
      </trkpt>
      <trkpt lat="48.21553" lon="6.71043">
        <ele>439.46</ele>
        <time>2019-04-10T12:17:18Z</time>
      </trkpt>
      <trkpt lat="48.21553" lon="6.7104">
        <ele>439.46</ele>
        <time>2019-04-10T12:17:48Z</time>
      </trkpt>
      <trkpt lat="48.21548" lon="6.71043">
        <ele>439.94</ele>
        <time>2019-04-10T12:18:05Z</time>
      </trkpt>
      <trkpt lat="48.21549" lon="6.71045">
        <ele>439.94</ele>
        <time>2019-04-10T12:18:09Z</time>
      </trkpt>
      <trkpt lat="48.21546" lon="6.71041">
        <ele>439.94</ele>
        <time>2019-04-10T12:18:20Z</time>
      </trkpt>
      <trkpt lat="48.21531" lon="6.71017">
        <ele>438.02</ele>
        <time>2019-04-10T12:18:40Z</time>
      </trkpt>
      <trkpt lat="48.21511" lon="6.70989">
        <ele>437.06</ele>
        <time>2019-04-10T12:19:07Z</time>
      </trkpt>
      <trkpt lat="48.21478" lon="6.70976">
        <ele>437.54</ele>
        <time>2019-04-10T12:19:30Z</time>
      </trkpt>
      <trkpt lat="48.21457" lon="6.71009">
        <ele>438.5</ele>
        <time>2019-04-10T12:19:54Z</time>
      </trkpt>
      <trkpt lat="48.21455" lon="6.71012">
        <ele>438.5</ele>
        <time>2019-04-10T12:19:56Z</time>
      </trkpt>
      <trkpt lat="48.21445" lon="6.71022">
        <ele>438.98</ele>
        <time>2019-04-10T12:20:14Z</time>
      </trkpt>
      <trkpt lat="48.21434" lon="6.71042">
        <ele>438.98</ele>
        <time>2019-04-10T12:20:30Z</time>
      </trkpt>
      <trkpt lat="48.21429" lon="6.71068">
        <ele>439.94</ele>
        <time>2019-04-10T12:20:49Z</time>
      </trkpt>
      <trkpt lat="48.21428" lon="6.71073">
        <ele>440.9</ele>
        <time>2019-04-10T12:20:52Z</time>
      </trkpt>
      <trkpt lat="48.21425" lon="6.71082">
        <ele>441.86</ele>
        <time>2019-04-10T12:20:59Z</time>
      </trkpt>
      <trkpt lat="48.21418" lon="6.7109">
        <ele>442.82</ele>
        <time>2019-04-10T12:21:10Z</time>
      </trkpt>
      <trkpt lat="48.21412" lon="6.71109">
        <ele>442.82</ele>
        <time>2019-04-10T12:21:22Z</time>
      </trkpt>
      <trkpt lat="48.21405" lon="6.71115">
        <ele>445.23</ele>
        <time>2019-04-10T12:21:27Z</time>
      </trkpt>
      <trkpt lat="48.21395" lon="6.71122">
        <ele>443.79</ele>
        <time>2019-04-10T12:21:34Z</time>
      </trkpt>
      <trkpt lat="48.21392" lon="6.71124">
        <ele>445.71</ele>
        <time>2019-04-10T12:21:36Z</time>
      </trkpt>
      <trkpt lat="48.21377" lon="6.71138">
        <ele>448.11</ele>
        <time>2019-04-10T12:21:52Z</time>
      </trkpt>
      <trkpt lat="48.21361" lon="6.71147">
        <ele>451</ele>
        <time>2019-04-10T12:22:07Z</time>
      </trkpt>
      <trkpt lat="48.21358" lon="6.71148">
        <ele>451.96</ele>
        <time>2019-04-10T12:22:11Z</time>
      </trkpt>
      <trkpt lat="48.21357" lon="6.7115">
        <ele>448.59</ele>
        <time>2019-04-10T12:22:13Z</time>
      </trkpt>
      <trkpt lat="48.21357" lon="6.71151">
        <ele>453.4</ele>
        <time>2019-04-10T12:22:14Z</time>
      </trkpt>
      <trkpt lat="48.21356" lon="6.71152">
        <ele>453.4</ele>
        <time>2019-04-10T12:22:15Z</time>
      </trkpt>
      <trkpt lat="48.21354" lon="6.71154">
        <ele>450.52</ele>
        <time>2019-04-10T12:22:17Z</time>
      </trkpt>
      <trkpt lat="48.21354" lon="6.71154">
        <ele>453.88</ele>
        <time>2019-04-10T12:22:18Z</time>
      </trkpt>
      <trkpt lat="48.21353" lon="6.71154">
        <ele>452.44</ele>
        <time>2019-04-10T12:22:19Z</time>
      </trkpt>
      <trkpt lat="48.21346" lon="6.71157">
        <ele>453.4</ele>
        <time>2019-04-10T12:22:25Z</time>
      </trkpt>
      <trkpt lat="48.21332" lon="6.71171">
        <ele>454.84</ele>
        <time>2019-04-10T12:22:46Z</time>
      </trkpt>
      <trkpt lat="48.2132" lon="6.71177">
        <ele>456.28</ele>
        <time>2019-04-10T12:22:58Z</time>
      </trkpt>
      <trkpt lat="48.21302" lon="6.71176">
        <ele>459.17</ele>
        <time>2019-04-10T12:23:17Z</time>
      </trkpt>
      <trkpt lat="48.21288" lon="6.71183">
        <ele>460.13</ele>
        <time>2019-04-10T12:23:30Z</time>
      </trkpt>
      <trkpt lat="48.21269" lon="6.71197">
        <ele>462.05</ele>
        <time>2019-04-10T12:23:46Z</time>
      </trkpt>
      <trkpt lat="48.21265" lon="6.71201">
        <ele>462.05</ele>
        <time>2019-04-10T12:23:50Z</time>
      </trkpt>
      <trkpt lat="48.2126" lon="6.71208">
        <ele>462.05</ele>
        <time>2019-04-10T12:23:57Z</time>
      </trkpt>
      <trkpt lat="48.21259" lon="6.7121">
        <ele>463.97</ele>
        <time>2019-04-10T12:23:59Z</time>
      </trkpt>
      <trkpt lat="48.21254" lon="6.71219">
        <ele>464.93</ele>
        <time>2019-04-10T12:24:06Z</time>
      </trkpt>
      <trkpt lat="48.21246" lon="6.71225">
        <ele>465.42</ele>
        <time>2019-04-10T12:24:17Z</time>
      </trkpt>
      <trkpt lat="48.21245" lon="6.71215">
        <ele>465.42</ele>
        <time>2019-04-10T12:24:23Z</time>
      </trkpt>
      <trkpt lat="48.21251" lon="6.71187">
        <ele>466.38</ele>
        <time>2019-04-10T12:24:42Z</time>
      </trkpt>
      <trkpt lat="48.21255" lon="6.71152">
        <ele>467.34</ele>
        <time>2019-04-10T12:25:01Z</time>
      </trkpt>
      <trkpt lat="48.21258" lon="6.7112">
        <ele>468.78</ele>
        <time>2019-04-10T12:25:19Z</time>
      </trkpt>
      <trkpt lat="48.21262" lon="6.71084">
        <ele>471.18</ele>
        <time>2019-04-10T12:25:41Z</time>
      </trkpt>
      <trkpt lat="48.21259" lon="6.71088">
        <ele>470.7</ele>
        <time>2019-04-10T12:26:03Z</time>
      </trkpt>
      <trkpt lat="48.2126" lon="6.7109">
        <ele>469.74</ele>
        <time>2019-04-10T12:26:35Z</time>
      </trkpt>
      <trkpt lat="48.21261" lon="6.71093">
        <ele>469.74</ele>
        <time>2019-04-10T12:27:03Z</time>
      </trkpt>
      <trkpt lat="48.2126" lon="6.71094">
        <ele>471.18</ele>
        <time>2019-04-10T12:27:30Z</time>
      </trkpt>
      <trkpt lat="48.21263" lon="6.71092">
        <ele>471.18</ele>
        <time>2019-04-10T12:27:51Z</time>
      </trkpt>
      <trkpt lat="48.21263" lon="6.71092">
        <ele>471.18</ele>
        <time>2019-04-10T12:27:52Z</time>
      </trkpt>
      <trkpt lat="48.21263" lon="6.71092">
        <ele>469.74</ele>
        <time>2019-04-10T12:27:59Z</time>
      </trkpt>
      <trkpt lat="48.21265" lon="6.71089">
        <ele>469.74</ele>
        <time>2019-04-10T12:28:26Z</time>
      </trkpt>
      <trkpt lat="48.21261" lon="6.71095">
        <ele>470.22</ele>
        <time>2019-04-10T12:28:48Z</time>
      </trkpt>
      <trkpt lat="48.21261" lon="6.71092">
        <ele>469.74</ele>
        <time>2019-04-10T12:29:11Z</time>
      </trkpt>
      <trkpt lat="48.21259" lon="6.71083">
        <ele>471.18</ele>
        <time>2019-04-10T12:29:39Z</time>
      </trkpt>
      <trkpt lat="48.21261" lon="6.71088">
        <ele>471.18</ele>
        <time>2019-04-10T12:30:03Z</time>
      </trkpt>
      <trkpt lat="48.21259" lon="6.71092">
        <ele>471.66</ele>
        <time>2019-04-10T12:30:23Z</time>
      </trkpt>
      <trkpt lat="48.21255" lon="6.71094">
        <ele>471.66</ele>
        <time>2019-04-10T12:30:49Z</time>
      </trkpt>
      <trkpt lat="48.21244" lon="6.71069">
        <ele>473.59</ele>
        <time>2019-04-10T12:31:08Z</time>
      </trkpt>
      <trkpt lat="48.21243" lon="6.71066">
        <ele>475.03</ele>
        <time>2019-04-10T12:31:10Z</time>
      </trkpt>
      <trkpt lat="48.21237" lon="6.71059">
        <ele>475.99</ele>
        <time>2019-04-10T12:31:18Z</time>
      </trkpt>
      <trkpt lat="48.21232" lon="6.71043">
        <ele>476.95</ele>
        <time>2019-04-10T12:31:28Z</time>
      </trkpt>
      <trkpt lat="48.21231" lon="6.71035">
        <ele>476.95</ele>
        <time>2019-04-10T12:31:36Z</time>
      </trkpt>
      <trkpt lat="48.2123" lon="6.71026">
        <ele>478.87</ele>
        <time>2019-04-10T12:31:42Z</time>
      </trkpt>
      <trkpt lat="48.21219" lon="6.71002">
        <ele>481.76</ele>
        <time>2019-04-10T12:32:06Z</time>
      </trkpt>
      <trkpt lat="48.21211" lon="6.70972">
        <ele>483.68</ele>
        <time>2019-04-10T12:32:25Z</time>
      </trkpt>
      <trkpt lat="48.212" lon="6.70946">
        <ele>485.12</ele>
        <time>2019-04-10T12:32:46Z</time>
      </trkpt>
      <trkpt lat="48.21196" lon="6.70909">
        <ele>484.64</ele>
        <time>2019-04-10T12:33:07Z</time>
      </trkpt>
      <trkpt lat="48.21196" lon="6.70906">
        <ele>487.05</ele>
        <time>2019-04-10T12:33:09Z</time>
      </trkpt>
      <trkpt lat="48.21192" lon="6.70899">
        <ele>485.12</ele>
        <time>2019-04-10T12:33:32Z</time>
      </trkpt>
      <trkpt lat="48.21193" lon="6.709">
        <ele>485.6</ele>
        <time>2019-04-10T12:33:41Z</time>
      </trkpt>
      <trkpt lat="48.212" lon="6.70903">
        <ele>485.6</ele>
        <time>2019-04-10T12:34:07Z</time>
      </trkpt>
      <trkpt lat="48.21196" lon="6.70902">
        <ele>485.6</ele>
        <time>2019-04-10T12:34:35Z</time>
      </trkpt>
      <trkpt lat="48.21194" lon="6.70895">
        <ele>487.05</ele>
        <time>2019-04-10T12:34:42Z</time>
      </trkpt>
      <trkpt lat="48.21193" lon="6.70867">
        <ele>489.93</ele>
        <time>2019-04-10T12:35:02Z</time>
      </trkpt>
      <trkpt lat="48.21193" lon="6.70866">
        <ele>488.49</ele>
        <time>2019-04-10T12:35:04Z</time>
      </trkpt>
      <trkpt lat="48.21198" lon="6.7085">
        <ele>490.41</ele>
        <time>2019-04-10T12:35:23Z</time>
      </trkpt>
      <trkpt lat="48.21198" lon="6.70827">
        <ele>492.81</ele>
        <time>2019-04-10T12:35:40Z</time>
      </trkpt>
      <trkpt lat="48.212" lon="6.7082">
        <ele>493.77</ele>
        <time>2019-04-10T12:35:45Z</time>
      </trkpt>
      <trkpt lat="48.21205" lon="6.70799">
        <ele>496.66</ele>
        <time>2019-04-10T12:36:04Z</time>
      </trkpt>
      <trkpt lat="48.21214" lon="6.7079">
        <ele>496.66</ele>
        <time>2019-04-10T12:36:17Z</time>
      </trkpt>
      <trkpt lat="48.21213" lon="6.70785">
        <ele>497.14</ele>
        <time>2019-04-10T12:36:29Z</time>
      </trkpt>
      <trkpt lat="48.21212" lon="6.70763">
        <ele>500.5</ele>
        <time>2019-04-10T12:36:46Z</time>
      </trkpt>
      <trkpt lat="48.21212" lon="6.7076">
        <ele>500.5</ele>
        <time>2019-04-10T12:36:50Z</time>
      </trkpt>
      <trkpt lat="48.21214" lon="6.70747">
        <ele>502.91</ele>
        <time>2019-04-10T12:37:02Z</time>
      </trkpt>
      <trkpt lat="48.21216" lon="6.70739">
        <ele>502.91</ele>
        <time>2019-04-10T12:37:09Z</time>
      </trkpt>
      <trkpt lat="48.21218" lon="6.70733">
        <ele>504.35</ele>
        <time>2019-04-10T12:37:15Z</time>
      </trkpt>
      <trkpt lat="48.21218" lon="6.70731">
        <ele>502.91</ele>
        <time>2019-04-10T12:37:17Z</time>
      </trkpt>
      <trkpt lat="48.21219" lon="6.70729">
        <ele>504.83</ele>
        <time>2019-04-10T12:37:19Z</time>
      </trkpt>
      <trkpt lat="48.2122" lon="6.70726">
        <ele>507.71</ele>
        <time>2019-04-10T12:37:23Z</time>
      </trkpt>
      <trkpt lat="48.21219" lon="6.7072">
        <ele>504.35</ele>
        <time>2019-04-10T12:37:26Z</time>
      </trkpt>
      <trkpt lat="48.21222" lon="6.70702">
        <ele>507.71</ele>
        <time>2019-04-10T12:37:37Z</time>
      </trkpt>
      <trkpt lat="48.21222" lon="6.70701">
        <ele>507.71</ele>
        <time>2019-04-10T12:37:38Z</time>
      </trkpt>
      <trkpt lat="48.21224" lon="6.70694">
        <ele>506.75</ele>
        <time>2019-04-10T12:37:43Z</time>
      </trkpt>
      <trkpt lat="48.21225" lon="6.70693">
        <ele>508.67</ele>
        <time>2019-04-10T12:37:45Z</time>
      </trkpt>
      <trkpt lat="48.21228" lon="6.70678">
        <ele>509.64</ele>
        <time>2019-04-10T12:38:00Z</time>
      </trkpt>
      <trkpt lat="48.21233" lon="6.70664">
        <ele>512.52</ele>
        <time>2019-04-10T12:38:11Z</time>
      </trkpt>
      <trkpt lat="48.21235" lon="6.70659">
        <ele>513</ele>
        <time>2019-04-10T12:38:15Z</time>
      </trkpt>
      <trkpt lat="48.21237" lon="6.70654">
        <ele>511.08</ele>
        <time>2019-04-10T12:38:20Z</time>
      </trkpt>
      <trkpt lat="48.21237" lon="6.70652">
        <ele>513</ele>
        <time>2019-04-10T12:38:22Z</time>
      </trkpt>
      <trkpt lat="48.21238" lon="6.70649">
        <ele>513.96</ele>
        <time>2019-04-10T12:38:25Z</time>
      </trkpt>
      <trkpt lat="48.2124" lon="6.70641">
        <ele>513.96</ele>
        <time>2019-04-10T12:38:32Z</time>
      </trkpt>
      <trkpt lat="48.21242" lon="6.70638">
        <ele>515.4</ele>
        <time>2019-04-10T12:38:37Z</time>
      </trkpt>
      <trkpt lat="48.21245" lon="6.70627">
        <ele>516.85</ele>
        <time>2019-04-10T12:38:48Z</time>
      </trkpt>
      <trkpt lat="48.21247" lon="6.70622">
        <ele>516.85</ele>
        <time>2019-04-10T12:38:53Z</time>
      </trkpt>
      <trkpt lat="48.21246" lon="6.70618">
        <ele>517.81</ele>
        <time>2019-04-10T12:39:09Z</time>
      </trkpt>
      <trkpt lat="48.21244" lon="6.70639">
        <ele>519.25</ele>
        <time>2019-04-10T12:39:29Z</time>
      </trkpt>
      <trkpt lat="48.21245" lon="6.70641">
        <ele>517.81</ele>
        <time>2019-04-10T12:39:31Z</time>
      </trkpt>
      <trkpt lat="48.21246" lon="6.70646">
        <ele>519.73</ele>
        <time>2019-04-10T12:39:36Z</time>
      </trkpt>
      <trkpt lat="48.21248" lon="6.70658">
        <ele>522.13</ele>
        <time>2019-04-10T12:39:47Z</time>
      </trkpt>
      <trkpt lat="48.21251" lon="6.70689">
        <ele>523.58</ele>
        <time>2019-04-10T12:40:07Z</time>
      </trkpt>
      <trkpt lat="48.2125" lon="6.70726">
        <ele>524.06</ele>
        <time>2019-04-10T12:40:29Z</time>
      </trkpt>
      <trkpt lat="48.21254" lon="6.70739">
        <ele>524.06</ele>
        <time>2019-04-10T12:40:40Z</time>
      </trkpt>
      <trkpt lat="48.21262" lon="6.70752">
        <ele>527.9</ele>
        <time>2019-04-10T12:40:53Z</time>
      </trkpt>
      <trkpt lat="48.21264" lon="6.70756">
        <ele>528.38</ele>
        <time>2019-04-10T12:40:57Z</time>
      </trkpt>
      <trkpt lat="48.21268" lon="6.70769">
        <ele>529.34</ele>
        <time>2019-04-10T12:41:06Z</time>
      </trkpt>
      <trkpt lat="48.21272" lon="6.7079">
        <ele>531.27</ele>
        <time>2019-04-10T12:41:22Z</time>
      </trkpt>
      <trkpt lat="48.21274" lon="6.70796">
        <ele>530.3</ele>
        <time>2019-04-10T12:41:28Z</time>
      </trkpt>
      <trkpt lat="48.21275" lon="6.70801">
        <ele>531.75</ele>
        <time>2019-04-10T12:41:32Z</time>
      </trkpt>
      <trkpt lat="48.21274" lon="6.70831">
        <ele>533.67</ele>
        <time>2019-04-10T12:41:46Z</time>
      </trkpt>
      <trkpt lat="48.21276" lon="6.70842">
        <ele>534.15</ele>
        <time>2019-04-10T12:41:53Z</time>
      </trkpt>
      <trkpt lat="48.21278" lon="6.70845">
        <ele>532.71</ele>
        <time>2019-04-10T12:41:55Z</time>
      </trkpt>
      <trkpt lat="48.21279" lon="6.7085">
        <ele>534.15</ele>
        <time>2019-04-10T12:41:59Z</time>
      </trkpt>
      <trkpt lat="48.2128" lon="6.70867">
        <ele>535.59</ele>
        <time>2019-04-10T12:42:11Z</time>
      </trkpt>
      <trkpt lat="48.21282" lon="6.70874">
        <ele>536.07</ele>
        <time>2019-04-10T12:42:18Z</time>
      </trkpt>
      <trkpt lat="48.21287" lon="6.70899">
        <ele>536.07</ele>
        <time>2019-04-10T12:42:37Z</time>
      </trkpt>
      <trkpt lat="48.21285" lon="6.70904">
        <ele>536.07</ele>
        <time>2019-04-10T12:42:56Z</time>
      </trkpt>
      <trkpt lat="48.21284" lon="6.70901">
        <ele>536.07</ele>
        <time>2019-04-10T12:43:15Z</time>
      </trkpt>
      <trkpt lat="48.21286" lon="6.70903">
        <ele>536.07</ele>
        <time>2019-04-10T12:43:32Z</time>
      </trkpt>
      <trkpt lat="48.21285" lon="6.70901">
        <ele>537.03</ele>
        <time>2019-04-10T12:43:46Z</time>
      </trkpt>
      <trkpt lat="48.21284" lon="6.70901">
        <ele>535.59</ele>
        <time>2019-04-10T12:43:48Z</time>
      </trkpt>
      <trkpt lat="48.2129" lon="6.70899">
        <ele>535.59</ele>
        <time>2019-04-10T12:44:08Z</time>
      </trkpt>
      <trkpt lat="48.21285" lon="6.70901">
        <ele>535.59</ele>
        <time>2019-04-10T12:44:33Z</time>
      </trkpt>
      <trkpt lat="48.21291" lon="6.70897">
        <ele>534.63</ele>
        <time>2019-04-10T12:45:00Z</time>
      </trkpt>
      <trkpt lat="48.21291" lon="6.70897">
        <ele>538.48</ele>
        <time>2019-04-10T12:45:01Z</time>
      </trkpt>
      <trkpt lat="48.21294" lon="6.70877">
        <ele>536.55</ele>
        <time>2019-04-10T12:45:16Z</time>
      </trkpt>
      <trkpt lat="48.21297" lon="6.70848">
        <ele>536.55</ele>
        <time>2019-04-10T12:45:36Z</time>
      </trkpt>
      <trkpt lat="48.21295" lon="6.70817">
        <ele>540.4</ele>
        <time>2019-04-10T12:45:59Z</time>
      </trkpt>
      <trkpt lat="48.21296" lon="6.7077">
        <ele>540.4</ele>
        <time>2019-04-10T12:46:21Z</time>
      </trkpt>
      <trkpt lat="48.21297" lon="6.70762">
        <ele>540.4</ele>
        <time>2019-04-10T12:46:43Z</time>
      </trkpt>
      <trkpt lat="48.21288" lon="6.70745">
        <ele>540.88</ele>
        <time>2019-04-10T12:47:01Z</time>
      </trkpt>
      <trkpt lat="48.2128" lon="6.70729">
        <ele>539.44</ele>
        <time>2019-04-10T12:47:16Z</time>
      </trkpt>
      <trkpt lat="48.21277" lon="6.707">
        <ele>538.48</ele>
        <time>2019-04-10T12:47:32Z</time>
      </trkpt>
      <trkpt lat="48.21278" lon="6.70676">
        <ele>537.99</ele>
        <time>2019-04-10T12:47:50Z</time>
      </trkpt>
      <trkpt lat="48.21281" lon="6.70648">
        <ele>537.03</ele>
        <time>2019-04-10T12:48:11Z</time>
      </trkpt>
      <trkpt lat="48.21283" lon="6.70638">
        <ele>536.55</ele>
        <time>2019-04-10T12:48:32Z</time>
      </trkpt>
      <trkpt lat="48.21285" lon="6.70622">
        <ele>536.07</ele>
        <time>2019-04-10T12:48:54Z</time>
      </trkpt>
      <trkpt lat="48.21293" lon="6.70598">
        <ele>534.15</ele>
        <time>2019-04-10T12:49:11Z</time>
      </trkpt>
      <trkpt lat="48.21311" lon="6.70568">
        <ele>532.71</ele>
        <time>2019-04-10T12:49:34Z</time>
      </trkpt>
      <trkpt lat="48.21322" lon="6.70549">
        <ele>530.79</ele>
        <time>2019-04-10T12:49:54Z</time>
      </trkpt>
      <trkpt lat="48.21333" lon="6.70526">
        <ele>528.86</ele>
        <time>2019-04-10T12:50:14Z</time>
      </trkpt>
      <trkpt lat="48.2133" lon="6.70505">
        <ele>527.9</ele>
        <time>2019-04-10T12:50:34Z</time>
      </trkpt>
      <trkpt lat="48.21328" lon="6.705">
        <ele>527.42</ele>
        <time>2019-04-10T12:50:54Z</time>
      </trkpt>
      <trkpt lat="48.21328" lon="6.70497">
        <ele>528.38</ele>
        <time>2019-04-10T12:51:04Z</time>
      </trkpt>
      <trkpt lat="48.2133" lon="6.70491">
        <ele>527.9</ele>
        <time>2019-04-10T12:51:30Z</time>
      </trkpt>
      <trkpt lat="48.21324" lon="6.70487">
        <ele>527.42</ele>
        <time>2019-04-10T12:51:57Z</time>
      </trkpt>
      <trkpt lat="48.21311" lon="6.70475">
        <ele>526.94</ele>
        <time>2019-04-10T12:52:16Z</time>
      </trkpt>
      <trkpt lat="48.2131" lon="6.70474">
        <ele>526.46</ele>
        <time>2019-04-10T12:52:45Z</time>
      </trkpt>
      <trkpt lat="48.21304" lon="6.70485">
        <ele>526.94</ele>
        <time>2019-04-10T12:53:12Z</time>
      </trkpt>
      <trkpt lat="48.21306" lon="6.70469">
        <ele>526.46</ele>
        <time>2019-04-10T12:53:41Z</time>
      </trkpt>
      <trkpt lat="48.21312" lon="6.70462">
        <ele>526.46</ele>
        <time>2019-04-10T12:54:04Z</time>
      </trkpt>
      <trkpt lat="48.21309" lon="6.70462">
        <ele>526.94</ele>
        <time>2019-04-10T12:54:26Z</time>
      </trkpt>
      <trkpt lat="48.21303" lon="6.70468">
        <ele>526.94</ele>
        <time>2019-04-10T12:54:46Z</time>
      </trkpt>
      <trkpt lat="48.213" lon="6.70479">
        <ele>526.94</ele>
        <time>2019-04-10T12:55:10Z</time>
      </trkpt>
      <trkpt lat="48.21305" lon="6.70473">
        <ele>526.94</ele>
        <time>2019-04-10T12:55:40Z</time>
      </trkpt>
      <trkpt lat="48.21307" lon="6.70479">
        <ele>526.94</ele>
        <time>2019-04-10T12:56:07Z</time>
      </trkpt>
      <trkpt lat="48.21311" lon="6.70468">
        <ele>526.46</ele>
        <time>2019-04-10T12:56:32Z</time>
      </trkpt>
      <trkpt lat="48.21298" lon="6.70499">
        <ele>524.54</ele>
        <time>2019-04-10T12:56:56Z</time>
      </trkpt>
      <trkpt lat="48.21284" lon="6.7053">
        <ele>523.09</ele>
        <time>2019-04-10T12:57:18Z</time>
      </trkpt>
      <trkpt lat="48.2127" lon="6.70541">
        <ele>521.65</ele>
        <time>2019-04-10T12:57:39Z</time>
      </trkpt>
      <trkpt lat="48.21267" lon="6.70548">
        <ele>520.21</ele>
        <time>2019-04-10T12:57:45Z</time>
      </trkpt>
      <trkpt lat="48.21251" lon="6.70565">
        <ele>518.29</ele>
        <time>2019-04-10T12:58:08Z</time>
      </trkpt>
      <trkpt lat="48.21238" lon="6.70589">
        <ele>514.92</ele>
        <time>2019-04-10T12:58:28Z</time>
      </trkpt>
      <trkpt lat="48.21235" lon="6.70598">
        <ele>514.44</ele>
        <time>2019-04-10T12:58:34Z</time>
      </trkpt>
      <trkpt lat="48.2123" lon="6.70617">
        <ele>512.04</ele>
        <time>2019-04-10T12:58:52Z</time>
      </trkpt>
      <trkpt lat="48.21228" lon="6.70618">
        <ele>512.04</ele>
        <time>2019-04-10T12:58:56Z</time>
      </trkpt>
      <trkpt lat="48.21224" lon="6.70636">
        <ele>509.16</ele>
        <time>2019-04-10T12:59:11Z</time>
      </trkpt>
      <trkpt lat="48.21217" lon="6.70662">
        <ele>505.79</ele>
        <time>2019-04-10T12:59:26Z</time>
      </trkpt>
      <trkpt lat="48.21214" lon="6.70681">
        <ele>504.35</ele>
        <time>2019-04-10T12:59:36Z</time>
      </trkpt>
      <trkpt lat="48.2121" lon="6.70695">
        <ele>502.43</ele>
        <time>2019-04-10T12:59:48Z</time>
      </trkpt>
      <trkpt lat="48.21209" lon="6.70697">
        <ele>502.43</ele>
        <time>2019-04-10T12:59:49Z</time>
      </trkpt>
      <trkpt lat="48.21208" lon="6.70713">
        <ele>499.54</ele>
        <time>2019-04-10T13:00:02Z</time>
      </trkpt>
      <trkpt lat="48.21199" lon="6.70746">
        <ele>496.66</ele>
        <time>2019-04-10T13:00:20Z</time>
      </trkpt>
      <trkpt lat="48.21196" lon="6.70769">
        <ele>493.29</ele>
        <time>2019-04-10T13:00:36Z</time>
      </trkpt>
      <trkpt lat="48.21196" lon="6.70775">
        <ele>493.29</ele>
        <time>2019-04-10T13:00:42Z</time>
      </trkpt>
      <trkpt lat="48.21197" lon="6.70787">
        <ele>491.37</ele>
        <time>2019-04-10T13:00:49Z</time>
      </trkpt>
      <trkpt lat="48.21196" lon="6.70806">
        <ele>489.45</ele>
        <time>2019-04-10T13:01:01Z</time>
      </trkpt>
      <trkpt lat="48.21191" lon="6.7084">
        <ele>486.08</ele>
        <time>2019-04-10T13:01:22Z</time>
      </trkpt>
      <trkpt lat="48.21189" lon="6.70874">
        <ele>484.16</ele>
        <time>2019-04-10T13:01:40Z</time>
      </trkpt>
      <trkpt lat="48.21188" lon="6.70902">
        <ele>481.76</ele>
        <time>2019-04-10T13:02:00Z</time>
      </trkpt>
      <trkpt lat="48.21196" lon="6.70925">
        <ele>480.8</ele>
        <time>2019-04-10T13:02:22Z</time>
      </trkpt>
      <trkpt lat="48.21213" lon="6.70956">
        <ele>479.35</ele>
        <time>2019-04-10T13:02:46Z</time>
      </trkpt>
      <trkpt lat="48.21214" lon="6.70966">
        <ele>479.35</ele>
        <time>2019-04-10T13:02:52Z</time>
      </trkpt>
      <trkpt lat="48.21222" lon="6.7099">
        <ele>477.43</ele>
        <time>2019-04-10T13:03:11Z</time>
      </trkpt>
      <trkpt lat="48.21225" lon="6.70998">
        <ele>476.47</ele>
        <time>2019-04-10T13:03:17Z</time>
      </trkpt>
      <trkpt lat="48.21233" lon="6.71024">
        <ele>474.55</ele>
        <time>2019-04-10T13:03:35Z</time>
      </trkpt>
      <trkpt lat="48.21234" lon="6.71032">
        <ele>473.59</ele>
        <time>2019-04-10T13:03:39Z</time>
      </trkpt>
      <trkpt lat="48.21249" lon="6.71059">
        <ele>470.22</ele>
        <time>2019-04-10T13:04:00Z</time>
      </trkpt>
      <trkpt lat="48.21262" lon="6.71084">
        <ele>468.3</ele>
        <time>2019-04-10T13:04:21Z</time>
      </trkpt>
      <trkpt lat="48.21259" lon="6.71088">
        <ele>467.34</ele>
        <time>2019-04-10T13:04:45Z</time>
      </trkpt>
      <trkpt lat="48.21258" lon="6.71091">
        <ele>467.34</ele>
        <time>2019-04-10T13:05:10Z</time>
      </trkpt>
      <trkpt lat="48.21264" lon="6.71084">
        <ele>467.34</ele>
        <time>2019-04-10T13:05:41Z</time>
      </trkpt>
      <trkpt lat="48.21259" lon="6.71104">
        <ele>467.34</ele>
        <time>2019-04-10T13:06:00Z</time>
      </trkpt>
      <trkpt lat="48.21259" lon="6.71107">
        <ele>465.9</ele>
        <time>2019-04-10T13:06:03Z</time>
      </trkpt>
      <trkpt lat="48.21259" lon="6.71115">
        <ele>466.38</ele>
        <time>2019-04-10T13:06:10Z</time>
      </trkpt>
      <trkpt lat="48.2126" lon="6.71125">
        <ele>465.9</ele>
        <time>2019-04-10T13:06:15Z</time>
      </trkpt>
      <trkpt lat="48.21251" lon="6.71164">
        <ele>464.45</ele>
        <time>2019-04-10T13:06:36Z</time>
      </trkpt>
      <trkpt lat="48.21243" lon="6.71205">
        <ele>463.49</ele>
        <time>2019-04-10T13:06:56Z</time>
      </trkpt>
      <trkpt lat="48.21242" lon="6.71229">
        <ele>463.01</ele>
        <time>2019-04-10T13:07:12Z</time>
      </trkpt>
      <trkpt lat="48.21235" lon="6.71271">
        <ele>462.05</ele>
        <time>2019-04-10T13:07:35Z</time>
      </trkpt>
      <trkpt lat="48.2123" lon="6.71301">
        <ele>461.09</ele>
        <time>2019-04-10T13:07:54Z</time>
      </trkpt>
      <trkpt lat="48.21226" lon="6.71333">
        <ele>461.09</ele>
        <time>2019-04-10T13:08:13Z</time>
      </trkpt>
      <trkpt lat="48.21223" lon="6.71353">
        <ele>461.09</ele>
        <time>2019-04-10T13:08:27Z</time>
      </trkpt>
      <trkpt lat="48.2122" lon="6.71365">
        <ele>461.09</ele>
        <time>2019-04-10T13:08:38Z</time>
      </trkpt>
      <trkpt lat="48.2121" lon="6.71391">
        <ele>460.13</ele>
        <time>2019-04-10T13:08:57Z</time>
      </trkpt>
      <trkpt lat="48.21205" lon="6.71404">
        <ele>461.57</ele>
        <time>2019-04-10T13:09:05Z</time>
      </trkpt>
      <trkpt lat="48.21193" lon="6.71432">
        <ele>462.53</ele>
        <time>2019-04-10T13:09:27Z</time>
      </trkpt>
      <trkpt lat="48.21179" lon="6.71454">
        <ele>462.53</ele>
        <time>2019-04-10T13:09:48Z</time>
      </trkpt>
      <trkpt lat="48.21161" lon="6.7149">
        <ele>462.05</ele>
        <time>2019-04-10T13:10:09Z</time>
      </trkpt>
      <trkpt lat="48.21154" lon="6.71503">
        <ele>463.01</ele>
        <time>2019-04-10T13:10:17Z</time>
      </trkpt>
      <trkpt lat="48.21143" lon="6.71528">
        <ele>462.53</ele>
        <time>2019-04-10T13:10:36Z</time>
      </trkpt>
      <trkpt lat="48.21141" lon="6.71533">
        <ele>463.97</ele>
        <time>2019-04-10T13:10:40Z</time>
      </trkpt>
      <trkpt lat="48.21133" lon="6.71556">
        <ele>462.53</ele>
        <time>2019-04-10T13:10:55Z</time>
      </trkpt>
      <trkpt lat="48.21131" lon="6.71559">
        <ele>464.45</ele>
        <time>2019-04-10T13:10:57Z</time>
      </trkpt>
      <trkpt lat="48.21128" lon="6.71588">
        <ele>463.49</ele>
        <time>2019-04-10T13:11:16Z</time>
      </trkpt>
      <trkpt lat="48.21119" lon="6.71604">
        <ele>464.45</ele>
        <time>2019-04-10T13:11:36Z</time>
      </trkpt>
      <trkpt lat="48.21114" lon="6.71654">
        <ele>465.42</ele>
        <time>2019-04-10T13:11:57Z</time>
      </trkpt>
      <trkpt lat="48.21115" lon="6.71674">
        <ele>464.93</ele>
        <time>2019-04-10T13:12:12Z</time>
      </trkpt>
      <trkpt lat="48.21115" lon="6.71684">
        <ele>466.38</ele>
        <time>2019-04-10T13:12:21Z</time>
      </trkpt>
      <trkpt lat="48.2112" lon="6.71707">
        <ele>466.38</ele>
        <time>2019-04-10T13:12:39Z</time>
      </trkpt>
      <trkpt lat="48.21122" lon="6.71712">
        <ele>466.38</ele>
        <time>2019-04-10T13:13:04Z</time>
      </trkpt>
      <trkpt lat="48.21116" lon="6.71742">
        <ele>466.86</ele>
        <time>2019-04-10T13:13:25Z</time>
      </trkpt>
      <trkpt lat="48.21113" lon="6.71763">
        <ele>467.34</ele>
        <time>2019-04-10T13:13:38Z</time>
      </trkpt>
      <trkpt lat="48.21107" lon="6.71804">
        <ele>468.78</ele>
        <time>2019-04-10T13:14:02Z</time>
      </trkpt>
      <trkpt lat="48.21107" lon="6.71805">
        <ele>468.78</ele>
        <time>2019-04-10T13:14:03Z</time>
      </trkpt>
      <trkpt lat="48.21103" lon="6.7183">
        <ele>467.34</ele>
        <time>2019-04-10T13:14:20Z</time>
      </trkpt>
      <trkpt lat="48.21097" lon="6.71865">
        <ele>467.82</ele>
        <time>2019-04-10T13:14:38Z</time>
      </trkpt>
      <trkpt lat="48.21094" lon="6.71871">
        <ele>468.78</ele>
        <time>2019-04-10T13:14:43Z</time>
      </trkpt>
      <trkpt lat="48.21092" lon="6.71875">
        <ele>467.34</ele>
        <time>2019-04-10T13:14:47Z</time>
      </trkpt>
      <trkpt lat="48.21091" lon="6.71902">
        <ele>467.82</ele>
        <time>2019-04-10T13:15:08Z</time>
      </trkpt>
      <trkpt lat="48.21094" lon="6.71922">
        <ele>468.78</ele>
        <time>2019-04-10T13:15:18Z</time>
      </trkpt>
      <trkpt lat="48.21094" lon="6.71925">
        <ele>467.34</ele>
        <time>2019-04-10T13:15:20Z</time>
      </trkpt>
      <trkpt lat="48.21091" lon="6.71948">
        <ele>467.34</ele>
        <time>2019-04-10T13:15:39Z</time>
      </trkpt>
      <trkpt lat="48.21079" lon="6.71949">
        <ele>467.34</ele>
        <time>2019-04-10T13:15:57Z</time>
      </trkpt>
      <trkpt lat="48.21062" lon="6.71952">
        <ele>468.3</ele>
        <time>2019-04-10T13:16:13Z</time>
      </trkpt>
      <trkpt lat="48.21057" lon="6.71962">
        <ele>467.34</ele>
        <time>2019-04-10T13:16:18Z</time>
      </trkpt>
      <trkpt lat="48.21045" lon="6.7198">
        <ele>466.86</ele>
        <time>2019-04-10T13:16:41Z</time>
      </trkpt>
      <trkpt lat="48.21038" lon="6.72006">
        <ele>466.38</ele>
        <time>2019-04-10T13:17:03Z</time>
      </trkpt>
      <trkpt lat="48.21014" lon="6.72036">
        <ele>466.38</ele>
        <time>2019-04-10T13:17:25Z</time>
      </trkpt>
      <trkpt lat="48.20992" lon="6.7206">
        <ele>467.82</ele>
        <time>2019-04-10T13:17:34Z</time>
      </trkpt>
      <trkpt lat="48.20983" lon="6.72066">
        <ele>467.82</ele>
        <time>2019-04-10T13:17:47Z</time>
      </trkpt>
      <trkpt lat="48.20979" lon="6.72076">
        <ele>469.26</ele>
        <time>2019-04-10T13:17:55Z</time>
      </trkpt>
      <trkpt lat="48.20973" lon="6.72096">
        <ele>469.26</ele>
        <time>2019-04-10T13:18:11Z</time>
      </trkpt>
      <trkpt lat="48.20957" lon="6.72121">
        <ele>468.78</ele>
        <time>2019-04-10T13:18:32Z</time>
      </trkpt>
      <trkpt lat="48.20941" lon="6.72138">
        <ele>469.74</ele>
        <time>2019-04-10T13:18:52Z</time>
      </trkpt>
      <trkpt lat="48.20923" lon="6.72171">
        <ele>470.22</ele>
        <time>2019-04-10T13:19:12Z</time>
      </trkpt>
      <trkpt lat="48.20926" lon="6.72201">
        <ele>470.7</ele>
        <time>2019-04-10T13:19:31Z</time>
      </trkpt>
      <trkpt lat="48.20919" lon="6.72227">
        <ele>470.7</ele>
        <time>2019-04-10T13:19:51Z</time>
      </trkpt>
      <trkpt lat="48.20905" lon="6.72246">
        <ele>470.7</ele>
        <time>2019-04-10T13:20:09Z</time>
      </trkpt>
      <trkpt lat="48.20894" lon="6.7227">
        <ele>471.66</ele>
        <time>2019-04-10T13:20:28Z</time>
      </trkpt>
      <trkpt lat="48.20888" lon="6.72294">
        <ele>471.66</ele>
        <time>2019-04-10T13:20:47Z</time>
      </trkpt>
      <trkpt lat="48.20877" lon="6.72302">
        <ele>470.7</ele>
        <time>2019-04-10T13:21:01Z</time>
      </trkpt>
      <trkpt lat="48.20873" lon="6.72309">
        <ele>470.7</ele>
        <time>2019-04-10T13:21:25Z</time>
      </trkpt>
      <trkpt lat="48.20872" lon="6.72308">
        <ele>472.14</ele>
        <time>2019-04-10T13:21:45Z</time>
      </trkpt>
      <trkpt lat="48.20871" lon="6.72311">
        <ele>472.63</ele>
        <time>2019-04-10T13:22:13Z</time>
      </trkpt>
    </trkseg>
  </trk>
</gpx>